Darstellungsparameter: Aktuell verwendete Einstellungen:
Skalierung der Graphiken ... ?
xyx+y,   Skalierungsfaktor:      Skalierung: Modus: x, Faktor: 1
Darstellungszeitraum ... ?
Vom - - bis: - -   Zeitraum: 03.07.2014 - 09.07.2014
Min/Max/Avg-Anzeige ... ?
Zeige MMA aktuell
Zeige MMA Monat
Zeige MMA alles
Zeige --A aktuell
Zeige --A Monat
Zeige --A alles
Keine MMA-Anzeige
MMA:
Keine MMA-Graphiken
MMA-Basis: 03.07.2014 - 09.07.2014
Quicknavigation für Darstellung... ?
Tage:      1T, 2T, 3T, 5T -1T -2T -3T -5T +1T +2T +3T +5T
Wochen: 1W, 2W, 3W -1W -2W -3W +1W +2W +3W
Monate: 1M, 3M, 6M -1M -3M -6M +1M +3M +6M
Jahre:    1J, 3J, 5J, 10J -1J -3J -5J -10J +1J +3J +5J +10J
Nutze für die Darstellung ... ?
Originaldaten oder Mittelwerte auf ...
Stundenbasis Tagesbasis Wochenbasis
Monatsbasis Jahresbasis      Datenbasis: Original-Daten
Darstellen als:
Statistik (Auto) Statistik J:M      Darstellung:
Zur Graphik,    zurück zur Übersicht aller Sensoren.
 
Tabellarische Datenbersicht: ?
 
Sensor: Nr:Datum:Temp:Abs-Feuchte:Windchill:Wind:
Aussen-T/F 1 03-07-2014 00:00:00 13.9 C 9.23 g/m*3 13.9 C 0 km/h
2 03-07-2014 00:05:00 13.8 C 9.17 g/m*3 13.8 C 0 km/h
3 03-07-2014 00:10:00 13.8 C 9.29 g/m*3 13.8 C 0 km/h
4 03-07-2014 00:15:00 13.7 C 9.35 g/m*3 13.7 C 0 km/h
5 03-07-2014 00:20:00 13.5 C 9.24 g/m*3 13.5 C 0 km/h
6 03-07-2014 00:25:00 13.4 C 9.3 g/m*3 13.4 C 0 km/h
7 03-07-2014 00:30:00 13.3 C 9.13 g/m*3 13.3 C 0 km/h
8 03-07-2014 00:35:00 13.3 C 9.13 g/m*3 13.3 C 0 km/h
9 03-07-2014 00:40:00 13.2 C 9.19 g/m*3 13.2 C 0 km/h
10 03-07-2014 00:45:00 13.2 C 9.07 g/m*3 13.2 C 0 km/h
11 03-07-2014 00:50:00 13.1 C 9.01 g/m*3 13.1 C 0 km/h
12 03-07-2014 00:55:00 13.1 C 9.13 g/m*3 13.1 C 0 km/h
13 03-07-2014 01:00:00 13 C 8.96 g/m*3 13 C 0 km/h
14 03-07-2014 01:05:00 12.9 C 8.9 g/m*3 12.9 C 0 km/h
15 03-07-2014 01:10:00 12.9 C 8.9 g/m*3 12.9 C 0 km/h
16 03-07-2014 01:15:00 12.8 C 8.96 g/m*3 12.8 C 0 km/h
17 03-07-2014 01:20:00 12.8 C 8.96 g/m*3 12.8 C 0 km/h
18 03-07-2014 01:25:00 12.7 C 9.02 g/m*3 12.7 C 0 km/h
19 03-07-2014 01:30:00 12.6 C 8.96 g/m*3 12.6 C 0 km/h
20 03-07-2014 01:35:00 12.5 C 8.91 g/m*3 12.5 C 0 km/h
21 03-07-2014 01:40:00 12.4 C 8.96 g/m*3 12.4 C 0 km/h
22 03-07-2014 01:45:00 12.3 C 8.9 g/m*3 12.3 C 0 km/h
23 03-07-2014 01:50:00 12.3 C 8.9 g/m*3 12.3 C 0 km/h
24 03-07-2014 01:55:00 12.2 C 8.85 g/m*3 12.2 C 0 km/h
25 03-07-2014 02:00:00 12.1 C 8.9 g/m*3 12.1 C 0 km/h
Sensor: Nr:Datum:Temp:Abs-Feuchte:Windchill:Wind:
Aussen-T/F 26 03-07-2014 02:05:00 12 C 8.85 g/m*3 12 C 0 km/h
27 03-07-2014 02:10:00 12 C 8.74 g/m*3 12 C 0 km/h
28 03-07-2014 02:15:00 11.9 C 8.79 g/m*3 11.9 C 0 km/h
29 03-07-2014 02:20:00 11.8 C 8.74 g/m*3 11.8 C 0 km/h
30 03-07-2014 02:25:00 11.8 C 8.84 g/m*3 11.8 C 0 km/h
31 03-07-2014 02:30:00 11.7 C 8.79 g/m*3 11.7 C 0 km/h
32 03-07-2014 02:35:00 11.6 C 8.73 g/m*3 11.6 C 0 km/h
33 03-07-2014 02:40:00 11.6 C 8.83 g/m*3 11.6 C 0 km/h
34 03-07-2014 02:45:00 11.6 C 8.83 g/m*3 11.6 C 0 km/h
35 03-07-2014 02:50:00 11.5 C 8.78 g/m*3 11.5 C 0 km/h
36 03-07-2014 02:55:00 11.5 C 8.78 g/m*3 11.5 C 1.6 km/h
37 03-07-2014 03:00:00 11.4 C 8.72 g/m*3 11.4 C 0 km/h
38 03-07-2014 03:05:00 11.4 C 8.72 g/m*3 11.4 C 0 km/h
39 03-07-2014 03:10:00 11.3 C 8.77 g/m*3 11.3 C 0 km/h
40 03-07-2014 03:15:00 11.3 C 8.77 g/m*3 11.3 C 0 km/h
41 03-07-2014 03:20:00 11.3 C 8.77 g/m*3 11.3 C 0 km/h
42 03-07-2014 03:25:00 11.2 C 8.72 g/m*3 11.2 C 0 km/h
43 03-07-2014 03:30:00 11.2 C 8.72 g/m*3 11.2 C 0 km/h
44 03-07-2014 03:35:00 11.1 C 8.66 g/m*3 11.1 C 0 km/h
45 03-07-2014 03:40:00 11.1 C 8.66 g/m*3 11.1 C 0 km/h
46 03-07-2014 03:45:00 11 C 8.71 g/m*3 11 C 0 km/h
47 03-07-2014 03:50:00 11 C 8.71 g/m*3 11 C 0 km/h
48 03-07-2014 03:55:00 10.9 C 8.65 g/m*3 10.9 C 0 km/h
49 03-07-2014 04:00:00 10.8 C 8.6 g/m*3 10.8 C 0 km/h
50 03-07-2014 04:05:00 10.8 C 8.6 g/m*3 10.8 C 0 km/h
Sensor: Nr:Datum:Temp:Abs-Feuchte:Windchill:Wind:
Aussen-T/F 51 03-07-2014 04:10:00 10.7 C 8.55 g/m*3 10.7 C 0 km/h
52 03-07-2014 04:15:00 10.6 C 8.59 g/m*3 10.6 C 0 km/h
53 03-07-2014 04:20:00 10.5 C 8.53 g/m*3 10.5 C 0 km/h
54 03-07-2014 04:25:00 10.5 C 8.53 g/m*3 10.5 C 0 km/h
55 03-07-2014 04:30:00 10.4 C 8.58 g/m*3 10.4 C 0 km/h
56 03-07-2014 04:35:00 10.3 C 8.52 g/m*3 10.3 C 0 km/h
57 03-07-2014 04:40:00 10.3 C 8.52 g/m*3 10.3 C 0 km/h
58 03-07-2014 04:45:00 10.2 C 8.47 g/m*3 10.2 C 0 km/h
59 03-07-2014 04:50:00 10.1 C 8.51 g/m*3 10.1 C 0 km/h
60 03-07-2014 04:55:00 10.1 C 8.51 g/m*3 10.1 C 0 km/h
61 03-07-2014 05:00:00 10.1 C 8.51 g/m*3 10.1 C 0 km/h
62 03-07-2014 05:05:00 10 C 8.46 g/m*3 10 C 0 km/h
63 03-07-2014 05:10:00 10 C 8.46 g/m*3 10 C 0 km/h
64 03-07-2014 05:15:00 9.9 C 8.4 g/m*3 9.9 C 0 km/h
65 03-07-2014 05:20:00 9.9 C 8.5 g/m*3 9.9 C 0 km/h
66 03-07-2014 05:25:00 9.8 C 8.44 g/m*3 9.8 C 0 km/h
67 03-07-2014 05:30:00 9.8 C 8.44 g/m*3 9.8 C 0 km/h
68 03-07-2014 05:35:00 9.8 C 8.44 g/m*3 9.8 C 0 km/h
69 03-07-2014 05:40:00 9.8 C 8.44 g/m*3 9.8 C 0 km/h
70 03-07-2014 05:45:00 9.8 C 8.44 g/m*3 9.8 C 0 km/h
71 03-07-2014 05:50:00 9.8 C 8.44 g/m*3 9.8 C 0 km/h
72 03-07-2014 05:55:00 9.7 C 8.48 g/m*3 9.7 C 0 km/h
73 03-07-2014 06:00:00 9.8 C 8.54 g/m*3 9.8 C 0 km/h
74 03-07-2014 06:05:00 9.8 C 8.54 g/m*3 9.8 C 0 km/h
75 03-07-2014 06:10:00 9.8 C 8.54 g/m*3 9.8 C 1.6 km/h
Sensor: Nr:Datum:Temp:Abs-Feuchte:Windchill:Wind:
Aussen-T/F 76 03-07-2014 06:15:00 9.8 C 8.54 g/m*3 9.8 C 0 km/h
77 03-07-2014 06:20:00 9.8 C 8.54 g/m*3 9.8 C 0 km/h
78 03-07-2014 06:25:00 9.8 C 8.54 g/m*3 9.8 C 0 km/h
79 03-07-2014 06:30:00 9.8 C 8.54 g/m*3 9.8 C 0 km/h
80 03-07-2014 06:35:00 9.9 C 8.59 g/m*3 9.9 C 0 km/h
81 03-07-2014 06:40:00 9.9 C 8.59 g/m*3 9.9 C 0 km/h
82 03-07-2014 06:45:00 9.9 C 8.59 g/m*3 9.9 C 0 km/h
83 03-07-2014 06:50:00 9.9 C 8.59 g/m*3 9.9 C 0 km/h
84 03-07-2014 06:55:00 10 C 8.64 g/m*3 10 C 0 km/h
85 03-07-2014 07:00:00 10.1 C 8.7 g/m*3 10.1 C 0 km/h
86 03-07-2014 07:05:00 10.2 C 8.76 g/m*3 10.2 C 0 km/h
87 03-07-2014 07:10:00 10.2 C 8.76 g/m*3 10.2 C 0 km/h
88 03-07-2014 07:15:00 10.3 C 8.81 g/m*3 10.3 C 0 km/h
89 03-07-2014 07:20:00 10.4 C 8.87 g/m*3 10.4 C 0 km/h
90 03-07-2014 07:25:00 10.4 C 8.87 g/m*3 10.4 C 0 km/h
91 03-07-2014 07:30:00 10.5 C 8.92 g/m*3 10.5 C 0 km/h
92 03-07-2014 07:35:00 10.6 C 8.98 g/m*3 10.6 C 0 km/h
93 03-07-2014 07:40:00 10.6 C 8.98 g/m*3 10.6 C 0 km/h
94 03-07-2014 07:45:00 10.7 C 9.04 g/m*3 10.7 C 0 km/h
95 03-07-2014 07:50:00 10.8 C 9.09 g/m*3 10.8 C 0 km/h
96 03-07-2014 07:55:00 11.1 C 9.27 g/m*3 11.1 C 0 km/h
97 03-07-2014 08:00:00 11.4 C 9.34 g/m*3 11.4 C 0 km/h
98 03-07-2014 08:05:00 11.8 C 9.37 g/m*3 11.8 C 0 km/h
99 03-07-2014 08:10:00 12.2 C 9.5 g/m*3 12.2 C 0 km/h
100 03-07-2014 08:15:00 12.5 C 9.57 g/m*3 12.5 C 0 km/h
Sensor: Nr:Datum:Temp:Abs-Feuchte:Windchill:Wind:
Aussen-T/F 101 03-07-2014 08:20:00 12.8 C 9.63 g/m*3 12.8 C 0 km/h
102 03-07-2014 08:25:00 13.2 C 9.76 g/m*3 13.2 C 0 km/h
103 03-07-2014 08:30:00 13.6 C 9.77 g/m*3 13.6 C 0 km/h
104 03-07-2014 08:35:00 13.8 C 9.65 g/m*3 13.8 C 0 km/h
105 03-07-2014 08:40:00 13.9 C 9.71 g/m*3 13.9 C 0 km/h
106 03-07-2014 08:45:00 14.1 C 9.71 g/m*3 14.1 C 0 km/h
107 03-07-2014 08:50:00 14.3 C 9.95 g/m*3 14.3 C 0 km/h
108 03-07-2014 08:55:00 14.6 C 10.01 g/m*3 14.6 C 0 km/h
109 03-07-2014 09:00:00 14.7 C 9.95 g/m*3 14.7 C 0 km/h
110 03-07-2014 09:05:00 14.8 C 10.13 g/m*3 14.8 C 0 km/h
111 03-07-2014 09:10:00 15 C 10.26 g/m*3 15 C 0 km/h
112 03-07-2014 09:15:00 15.1 C 10.19 g/m*3 15.1 C 0 km/h
113 03-07-2014 09:20:00 15 C 10.26 g/m*3 15 C 0 km/h
114 03-07-2014 09:25:00 14.9 C 10.2 g/m*3 14.9 C 0 km/h
115 03-07-2014 09:30:00 14.9 C 10.32 g/m*3 14.9 C 0 km/h
116 03-07-2014 09:35:00 14.9 C 10.32 g/m*3 14.9 C 0 km/h
117 03-07-2014 09:40:00 14.9 C 10.45 g/m*3 14.9 C 0 km/h
118 03-07-2014 09:45:00 15 C 10.77 g/m*3 15 C 0 km/h
119 03-07-2014 09:50:00 15.2 C 10.77 g/m*3 15.2 C 0 km/h
120 03-07-2014 09:55:00 15.4 C 10.9 g/m*3 15.4 C 0 km/h
121 03-07-2014 10:00:00 15.8 C 11.17 g/m*3 15.8 C 0 km/h
122 03-07-2014 10:05:00 16.3 C 11.38 g/m*3 16.3 C 0 km/h
123 03-07-2014 10:10:00 16.7 C 11.51 g/m*3 16.7 C 0 km/h
124 03-07-2014 10:15:00 17 C 11.43 g/m*3 17 C 0 km/h
125 03-07-2014 10:20:00 17.3 C 11.49 g/m*3 17.3 C 0 km/h
Sensor: Nr:Datum:Temp:Abs-Feuchte:Windchill:Wind:
Aussen-T/F 126 03-07-2014 10:25:00 17.7 C 11.62 g/m*3 17.7 C 1.6 km/h
127 03-07-2014 10:30:00 17.9 C 11.76 g/m*3 17.9 C 1.6 km/h
128 03-07-2014 10:35:00 18.2 C 11.81 g/m*3 18.2 C 1.6 km/h
129 03-07-2014 10:40:00 18.3 C 11.73 g/m*3 18.3 C 1.6 km/h
130 03-07-2014 10:45:00 18.6 C 11.94 g/m*3 18.6 C 1.6 km/h
131 03-07-2014 10:50:00 18.8 C 11.92 g/m*3 18.8 C 0 km/h
132 03-07-2014 10:55:00 19.1 C 11.97 g/m*3 19.1 C 3.2 km/h
133 03-07-2014 11:00:00 19.4 C 12.18 g/m*3 19.4 C 3.2 km/h
134 03-07-2014 11:05:00 19.7 C 12.06 g/m*3 19.7 C 0 km/h
135 03-07-2014 11:10:00 19.9 C 12.37 g/m*3 19.9 C 0 km/h
136 03-07-2014 11:15:00 20.3 C 11.61 g/m*3 20.3 C 3.2 km/h
137 03-07-2014 11:20:00 20.6 C 12.53 g/m*3 20.6 C 1.6 km/h
138 03-07-2014 11:25:00 21 C 11.36 g/m*3 21 C 3.2 km/h
139 03-07-2014 11:30:00 21.8 C 10.36 g/m*3 21.8 C 6.4 km/h
140 03-07-2014 11:35:00 22.5 C 10.39 g/m*3 22.5 C 6.4 km/h
141 03-07-2014 11:40:00 23.1 C 10.34 g/m*3 23.1 C 4.8 km/h
142 03-07-2014 11:45:00 23.4 C 10.09 g/m*3 23.4 C 6.4 km/h
143 03-07-2014 11:50:00 23.6 C 10.85 g/m*3 23.6 C 4.8 km/h
144 03-07-2014 11:55:00 23.9 C 9.74 g/m*3 23.9 C 8.1 km/h
145 03-07-2014 12:00:00 24.3 C 9.74 g/m*3 24.3 C 9.7 km/h
146 03-07-2014 12:05:00 24.8 C 9.33 g/m*3 24.8 C 8.1 km/h
147 03-07-2014 12:10:00 25.1 C 9.49 g/m*3 25.1 C 14.5 km/h
148 03-07-2014 12:15:00 25.3 C 8.9 g/m*3 25.3 C 12.9 km/h
149 03-07-2014 12:20:00 25.4 C 8.48 g/m*3 25.4 C 8.1 km/h
150 03-07-2014 12:25:00 25.5 C 9.47 g/m*3 25.5 C 9.7 km/h
Sensor: Nr:Datum:Temp:Abs-Feuchte:Windchill:Wind:
Aussen-T/F 151 03-07-2014 12:30:00 25.7 C 9.1 g/m*3 25.7 C 6.4 km/h
152 03-07-2014 12:35:00 25.8 C 8.19 g/m*3 25.8 C 14.5 km/h
153 03-07-2014 12:40:00 25.8 C 7.94 g/m*3 25.8 C 9.7 km/h
154 03-07-2014 12:45:00 26 C 8.28 g/m*3 26 C 11.3 km/h
155 03-07-2014 12:50:00 26.2 C 8.86 g/m*3 26.2 C 8.1 km/h
156 03-07-2014 12:55:00 26.4 C 8.46 g/m*3 26.4 C 14.5 km/h
157 03-07-2014 13:00:00 26.6 C 8.31 g/m*3 26.6 C 11.3 km/h
158 03-07-2014 13:05:00 26.7 C 8.61 g/m*3 26.7 C 12.9 km/h
159 03-07-2014 13:10:00 26.8 C 8.65 g/m*3 26.8 C 11.3 km/h
160 03-07-2014 13:15:00 26.8 C 8.91 g/m*3 26.8 C 8.1 km/h
161 03-07-2014 13:20:00 27.1 C 8.54 g/m*3 27.1 C 8.1 km/h
162 03-07-2014 13:25:00 26.9 C 8.96 g/m*3 26.9 C 14.5 km/h
163 03-07-2014 13:30:00 26.9 C 8.96 g/m*3 26.9 C 11.3 km/h
164 03-07-2014 13:35:00 27.1 C 9.32 g/m*3 27.1 C 9.7 km/h
165 03-07-2014 13:40:00 27.3 C 8.9 g/m*3 27.3 C 12.9 km/h
166 03-07-2014 13:45:00 27.3 C 9.16 g/m*3 27.3 C 9.7 km/h
167 03-07-2014 13:50:00 27.4 C 9.21 g/m*3 27.4 C 8.1 km/h
168 03-07-2014 13:55:00 27.6 C 8.51 g/m*3 27.6 C 12.9 km/h
169 03-07-2014 14:00:00 27.6 C 8.51 g/m*3 27.6 C 8.1 km/h
170 03-07-2014 14:05:00 27.7 C 8.83 g/m*3 27.7 C 11.3 km/h
171 03-07-2014 14:10:00 27.7 C 8.83 g/m*3 27.7 C 19.3 km/h
172 03-07-2014 14:15:00 27.8 C 9.41 g/m*3 27.8 C 4.8 km/h
173 03-07-2014 14:20:00 28 C 10.06 g/m*3 28 C 9.7 km/h
174 03-07-2014 14:25:00 28.1 C 8.48 g/m*3 28.1 C 16.1 km/h
175 03-07-2014 14:30:00 28.1 C 8.75 g/m*3 28.1 C 16.1 km/h
Sensor: Nr:Datum:Temp:Abs-Feuchte:Windchill:Wind:
Aussen-T/F 176 03-07-2014 14:35:00 28.1 C 9.02 g/m*3 28.1 C 12.9 km/h
177 03-07-2014 14:40:00 28.3 C 8.85 g/m*3 28.3 C 9.7 km/h
178 03-07-2014 14:45:00 28.6 C 8.71 g/m*3 28.6 C 16.1 km/h
179 03-07-2014 14:50:00 28.7 C 8.19 g/m*3 28.7 C 8.1 km/h
180 03-07-2014 14:55:00 28.8 C 8.81 g/m*3 28.8 C 9.7 km/h
181 03-07-2014 15:00:00 29.1 C 8.66 g/m*3 29.1 C 6.4 km/h
182 03-07-2014 15:05:00 28.9 C 8.86 g/m*3 28.9 C 12.9 km/h
183 03-07-2014 15:10:00 28.6 C 8.43 g/m*3 28.6 C 14.5 km/h
184 03-07-2014 15:15:00 28.9 C 8.57 g/m*3 28.9 C 12.9 km/h
185 03-07-2014 15:20:00 29.1 C 8.38 g/m*3 29.1 C 12.9 km/h
186 03-07-2014 15:25:00 29.1 C 8.09 g/m*3 29.1 C 12.9 km/h
187 03-07-2014 15:30:00 29 C 7.76 g/m*3 29 C 16.1 km/h
188 03-07-2014 15:35:00 29.2 C 7.55 g/m*3 29.2 C 14.5 km/h
189 03-07-2014 15:40:00 29.4 C 7.63 g/m*3 29.4 C 11.3 km/h
190 03-07-2014 15:45:00 29.5 C 7.97 g/m*3 29.5 C 12.9 km/h
191 03-07-2014 15:50:00 29.5 C 8.26 g/m*3 29.5 C 8.1 km/h
192 03-07-2014 15:55:00 29.7 C 8.06 g/m*3 29.7 C 14.5 km/h
193 03-07-2014 16:00:00 29.7 C 8.35 g/m*3 29.7 C 12.9 km/h
194 03-07-2014 16:05:00 29.8 C 8.1 g/m*3 29.8 C 11.3 km/h
195 03-07-2014 16:10:00 29.9 C 7.54 g/m*3 29.9 C 12.9 km/h
196 03-07-2014 16:15:00 30 C 8.19 g/m*3 30 C 9.7 km/h
197 03-07-2014 16:20:00 30.2 C 7.97 g/m*3 30.2 C 14.5 km/h
198 03-07-2014 16:25:00 29.9 C 7.24 g/m*3 29.9 C 16.1 km/h
199 03-07-2014 16:30:00 30 C 8.19 g/m*3 30 C 6.4 km/h
200 03-07-2014 16:35:00 29.9 C 7.24 g/m*3 29.9 C 8.1 km/h
Sensor: Nr:Datum:Temp:Abs-Feuchte:Windchill:Wind:
Aussen-T/F 201 03-07-2014 16:40:00 30.1 C 7.62 g/m*3 30.1 C 17.7 km/h
202 03-07-2014 16:45:00 30.1 C 7.62 g/m*3 30.1 C 14.5 km/h
203 03-07-2014 16:50:00 29.9 C 7.84 g/m*3 29.9 C 9.7 km/h
204 03-07-2014 16:55:00 30.1 C 7.93 g/m*3 30.1 C 11.3 km/h
205 03-07-2014 17:00:00 30.1 C 7.93 g/m*3 30.1 C 14.5 km/h
206 03-07-2014 17:05:00 30.3 C 8.32 g/m*3 30.3 C 9.7 km/h
207 03-07-2014 17:10:00 30.5 C 8.1 g/m*3 30.5 C 8.1 km/h
208 03-07-2014 17:15:00 30.6 C 8.14 g/m*3 30.6 C 11.3 km/h
209 03-07-2014 17:20:00 30.5 C 7.79 g/m*3 30.5 C 12.9 km/h
210 03-07-2014 17:25:00 30.5 C 7.48 g/m*3 30.5 C 9.7 km/h
211 03-07-2014 17:30:00 30.2 C 7.66 g/m*3 30.2 C 6.4 km/h
212 03-07-2014 17:35:00 30.3 C 8.01 g/m*3 30.3 C 6.4 km/h
213 03-07-2014 17:40:00 30.3 C 8.01 g/m*3 30.3 C 8.1 km/h
214 03-07-2014 17:45:00 30.5 C 8.1 g/m*3 30.5 C 12.9 km/h
215 03-07-2014 17:50:00 30.8 C 7.6 g/m*3 30.8 C 9.7 km/h
216 03-07-2014 17:55:00 31.1 C 8.04 g/m*3 31.1 C 12.9 km/h
217 03-07-2014 18:00:00 31.2 C 7.76 g/m*3 31.2 C 8.1 km/h
218 03-07-2014 18:05:00 30.9 C 7.32 g/m*3 30.9 C 17.7 km/h
219 03-07-2014 18:10:00 30.7 C 7.56 g/m*3 30.7 C 9.7 km/h
220 03-07-2014 18:15:00 30.6 C 6.89 g/m*3 30.6 C 14.5 km/h
221 03-07-2014 18:20:00 30.8 C 7.28 g/m*3 30.8 C 9.7 km/h
222 03-07-2014 18:25:00 30.8 C 6.97 g/m*3 30.8 C 9.7 km/h
223 03-07-2014 18:30:00 30.8 C 7.28 g/m*3 30.8 C 9.7 km/h
224 03-07-2014 18:35:00 30.7 C 6.61 g/m*3 30.7 C 14.5 km/h
225 03-07-2014 18:40:00 30.7 C 6.61 g/m*3 30.7 C 14.5 km/h
Sensor: Nr:Datum:Temp:Abs-Feuchte:Windchill:Wind:
Aussen-T/F 226 03-07-2014 18:45:00 30.4 C 6.82 g/m*3 30.4 C 14.5 km/h
227 03-07-2014 18:50:00 30.3 C 7.09 g/m*3 30.3 C 9.7 km/h
228 03-07-2014 18:55:00 30.3 C 6.78 g/m*3 30.3 C 11.3 km/h
229 03-07-2014 19:00:00 30.3 C 7.4 g/m*3 30.3 C 9.7 km/h
230 03-07-2014 19:05:00 30.3 C 7.09 g/m*3 30.3 C 9.7 km/h
231 03-07-2014 19:10:00 30.3 C 7.4 g/m*3 30.3 C 16.1 km/h
232 03-07-2014 19:15:00 30.2 C 7.36 g/m*3 30.2 C 9.7 km/h
233 03-07-2014 19:20:00 30.1 C 8.23 g/m*3 30.1 C 6.4 km/h
234 03-07-2014 19:25:00 29.8 C 7.5 g/m*3 29.8 C 11.3 km/h
235 03-07-2014 19:30:00 29.6 C 7.12 g/m*3 29.6 C 11.3 km/h
236 03-07-2014 19:35:00 29.3 C 7.01 g/m*3 29.3 C 9.7 km/h
237 03-07-2014 19:40:00 29 C 6.89 g/m*3 29 C 14.5 km/h
238 03-07-2014 19:45:00 28.8 C 7.39 g/m*3 28.8 C 12.9 km/h
239 03-07-2014 19:50:00 28.6 C 7.03 g/m*3 28.6 C 9.7 km/h
240 03-07-2014 19:55:00 28.4 C 7.78 g/m*3 28.4 C 9.7 km/h
241 03-07-2014 20:00:00 28.3 C 7.46 g/m*3 28.3 C 6.4 km/h
242 03-07-2014 20:05:00 28.1 C 7.38 g/m*3 28.1 C 12.9 km/h
243 03-07-2014 20:10:00 28 C 7.89 g/m*3 28 C 8.1 km/h
244 03-07-2014 20:15:00 27.8 C 7.26 g/m*3 27.8 C 3.2 km/h
245 03-07-2014 20:20:00 27.7 C 7.49 g/m*3 27.7 C 8.1 km/h
246 03-07-2014 20:25:00 27.4 C 8.16 g/m*3 27.4 C 6.4 km/h
247 03-07-2014 20:30:00 27.2 C 8.33 g/m*3 27.2 C 3.2 km/h
248 03-07-2014 20:35:00 26.8 C 9.42 g/m*3 26.8 C 1.6 km/h
249 03-07-2014 20:40:00 26.2 C 10.09 g/m*3 26.2 C 0 km/h
250 03-07-2014 20:45:00 25.6 C 10.24 g/m*3 25.6 C 1.6 km/h
Sensor: Nr:Datum:Temp:Abs-Feuchte:Windchill:Wind:
Aussen-T/F 251 03-07-2014 20:50:00 25 C 9.67 g/m*3 25 C 0 km/h
252 03-07-2014 20:55:00 24.4 C 10.24 g/m*3 24.4 C 0 km/h
253 03-07-2014 21:00:00 23.9 C 9.95 g/m*3 23.9 C 1.6 km/h
254 03-07-2014 21:05:00 23.5 C 10.15 g/m*3 23.5 C 1.6 km/h
255 03-07-2014 21:10:00 23.1 C 10.34 g/m*3 23.1 C 1.6 km/h
256 03-07-2014 21:15:00 22.7 C 10.1 g/m*3 22.7 C 3.2 km/h
257 03-07-2014 21:20:00 22.3 C 9.87 g/m*3 22.3 C 3.2 km/h
258 03-07-2014 21:25:00 22.1 C 9.96 g/m*3 22.1 C 3.2 km/h
259 03-07-2014 21:30:00 21.8 C 9.78 g/m*3 21.8 C 1.6 km/h
260 03-07-2014 21:35:00 21.6 C 9.67 g/m*3 21.6 C 1.6 km/h
261 03-07-2014 21:40:00 21.5 C 9.81 g/m*3 21.5 C 1.6 km/h
262 03-07-2014 21:45:00 21.3 C 9.69 g/m*3 21.3 C 3.2 km/h
263 03-07-2014 21:50:00 21.2 C 9.82 g/m*3 21.2 C 1.6 km/h
264 03-07-2014 21:55:00 21 C 9.71 g/m*3 21 C 3.2 km/h
265 03-07-2014 22:00:00 20.9 C 9.83 g/m*3 20.9 C 1.6 km/h
266 03-07-2014 22:05:00 20.7 C 9.54 g/m*3 20.7 C 1.6 km/h
267 03-07-2014 22:10:00 20.6 C 9.66 g/m*3 20.6 C 1.6 km/h
268 03-07-2014 22:15:00 20.4 C 9.73 g/m*3 20.4 C 1.6 km/h
269 03-07-2014 22:20:00 20.3 C 10.2 g/m*3 20.3 C 1.6 km/h
270 03-07-2014 22:25:00 20.2 C 9.79 g/m*3 20.2 C 0 km/h
271 03-07-2014 22:30:00 19.9 C 10.14 g/m*3 19.9 C 0 km/h
272 03-07-2014 22:35:00 19.7 C 10.02 g/m*3 19.7 C 0 km/h
273 03-07-2014 22:40:00 19.3 C 9.95 g/m*3 19.3 C 0 km/h
274 03-07-2014 22:45:00 19.2 C 10.06 g/m*3 19.2 C 0 km/h
275 03-07-2014 22:50:00 19.1 C 9.84 g/m*3 19.1 C 3.2 km/h
Sensor: Nr:Datum:Temp:Abs-Feuchte:Windchill:Wind:
Aussen-T/F 276 03-07-2014 22:55:00 19.2 C 9.73 g/m*3 19.2 C 6.4 km/h
277 03-07-2014 23:00:00 19.2 C 10.22 g/m*3 19.2 C 3.2 km/h
278 03-07-2014 23:05:00 19.1 C 10.16 g/m*3 19.1 C 3.2 km/h
279 03-07-2014 23:10:00 19.1 C 9.67 g/m*3 19.1 C 4.8 km/h
280 03-07-2014 23:15:00 19 C 9.94 g/m*3 19 C 1.6 km/h
281 03-07-2014 23:20:00 18.8 C 9.99 g/m*3 18.8 C 0 km/h
282 03-07-2014 23:25:00 18.4 C 9.91 g/m*3 18.4 C 0 km/h
283 03-07-2014 23:30:00 18.1 C 10.04 g/m*3 18.1 C 0 km/h
284 03-07-2014 23:35:00 17.8 C 9.71 g/m*3 17.8 C 0 km/h
285 03-07-2014 23:40:00 17.8 C 9.87 g/m*3 17.8 C 0 km/h
286 03-07-2014 23:45:00 17.7 C 9.96 g/m*3 17.7 C 0 km/h
287 03-07-2014 23:50:00 17.6 C 9.9 g/m*3 17.6 C 0 km/h
288 03-07-2014 23:55:00 17.4 C 10.08 g/m*3 17.4 C 0 km/h
289 04-07-2014 00:00:00 17.3 C 9.87 g/m*3 17.3 C 0 km/h
290 04-07-2014 00:05:00 17.2 C 9.81 g/m*3 17.2 C 0 km/h
291 04-07-2014 00:10:00 17.1 C 9.9 g/m*3 17.1 C 0 km/h
292 04-07-2014 00:15:00 17.1 C 9.75 g/m*3 17.1 C 0 km/h
293 04-07-2014 00:20:00 17 C 9.84 g/m*3 17 C 0 km/h
294 04-07-2014 00:25:00 16.9 C 9.78 g/m*3 16.9 C 0 km/h
295 04-07-2014 00:30:00 16.9 C 9.92 g/m*3 16.9 C 0 km/h
296 04-07-2014 00:35:00 16.8 C 10.01 g/m*3 16.8 C 0 km/h
297 04-07-2014 00:40:00 16.7 C 9.81 g/m*3 16.7 C 0 km/h
298 04-07-2014 00:45:00 16.6 C 9.75 g/m*3 16.6 C 0 km/h
299 04-07-2014 00:50:00 16.5 C 9.69 g/m*3 16.5 C 0 km/h
300 04-07-2014 00:55:00 16.3 C 9.71 g/m*3 16.3 C 0 km/h
Sensor: Nr:Datum:Temp:Abs-Feuchte:Windchill:Wind:
Aussen-T/F 301 04-07-2014 01:00:00 16.3 C 9.85 g/m*3 16.3 C 0 km/h
302 04-07-2014 01:05:00 16.1 C 9.73 g/m*3 16.1 C 0 km/h
303 04-07-2014 01:10:00 16.1 C 9.73 g/m*3 16.1 C 0 km/h
304 04-07-2014 01:15:00 15.9 C 9.75 g/m*3 15.9 C 0 km/h
305 04-07-2014 01:20:00 15.9 C 9.75 g/m*3 15.9 C 0 km/h
306 04-07-2014 01:25:00 15.8 C 9.69 g/m*3 15.8 C 0 km/h
307 04-07-2014 01:30:00 15.7 C 9.77 g/m*3 15.7 C 0 km/h
308 04-07-2014 01:35:00 15.6 C 9.71 g/m*3 15.6 C 0 km/h
309 04-07-2014 01:40:00 15.4 C 9.72 g/m*3 15.4 C 0 km/h
310 04-07-2014 01:45:00 15.3 C 9.79 g/m*3 15.3 C 0 km/h
311 04-07-2014 01:50:00 15.2 C 9.73 g/m*3 15.2 C 0 km/h
312 04-07-2014 01:55:00 15.1 C 9.68 g/m*3 15.1 C 0 km/h
313 04-07-2014 02:00:00 15 C 9.62 g/m*3 15 C 0 km/h
314 04-07-2014 02:05:00 14.9 C 9.56 g/m*3 14.9 C 0 km/h
315 04-07-2014 02:10:00 14.8 C 9.5 g/m*3 14.8 C 0 km/h
316 04-07-2014 02:15:00 14.8 C 9.63 g/m*3 14.8 C 0 km/h
317 04-07-2014 02:20:00 14.7 C 9.57 g/m*3 14.7 C 0 km/h
318 04-07-2014 02:25:00 14.6 C 9.64 g/m*3 14.6 C 0 km/h
319 04-07-2014 02:30:00 14.6 C 9.64 g/m*3 14.6 C 0 km/h
320 04-07-2014 02:35:00 14.4 C 9.52 g/m*3 14.4 C 0 km/h
321 04-07-2014 02:40:00 14.3 C 9.58 g/m*3 14.3 C 0 km/h
322 04-07-2014 02:45:00 14.3 C 9.58 g/m*3 14.3 C 0 km/h
323 04-07-2014 02:50:00 14.3 C 9.58 g/m*3 14.3 C 0 km/h
324 04-07-2014 02:55:00 14.3 C 9.71 g/m*3 14.3 C 0 km/h
325 04-07-2014 03:00:00 14.2 C 9.52 g/m*3 14.2 C 0 km/h
Sensor: Nr:Datum:Temp:Abs-Feuchte:Windchill:Wind:
Aussen-T/F 326 04-07-2014 03:05:00 14.2 C 9.65 g/m*3 14.2 C 0 km/h
327 04-07-2014 03:10:00 14.2 C 9.77 g/m*3 14.2 C 0 km/h
328 04-07-2014 03:15:00 14 C 9.65 g/m*3 14 C 0 km/h
329 04-07-2014 03:20:00 13.8 C 9.65 g/m*3 13.8 C 0 km/h
330 04-07-2014 03:25:00 13.8 C 9.65 g/m*3 13.8 C 0 km/h
331 04-07-2014 03:30:00 13.7 C 9.59 g/m*3 13.7 C 0 km/h
332 04-07-2014 03:35:00 13.6 C 9.53 g/m*3 13.6 C 0 km/h
333 04-07-2014 03:40:00 13.5 C 9.47 g/m*3 13.5 C 0 km/h
334 04-07-2014 03:45:00 13.5 C 9.47 g/m*3 13.5 C 0 km/h
335 04-07-2014 03:50:00 13.4 C 9.53 g/m*3 13.4 C 0 km/h
336 04-07-2014 03:55:00 13.4 C 9.53 g/m*3 13.4 C 0 km/h
337 04-07-2014 04:00:00 13.4 C 9.53 g/m*3 13.4 C 0 km/h
338 04-07-2014 04:05:00 13.3 C 9.47 g/m*3 13.3 C 0 km/h
339 04-07-2014 04:10:00 13.3 C 9.59 g/m*3 13.3 C 0 km/h
340 04-07-2014 04:15:00 13.3 C 9.59 g/m*3 13.3 C 0 km/h
341 04-07-2014 04:20:00 13.3 C 9.59 g/m*3 13.3 C 3.2 km/h
342 04-07-2014 04:25:00 13.4 C 9.65 g/m*3 13.4 C 0 km/h
343 04-07-2014 04:30:00 13.3 C 9.59 g/m*3 13.3 C 0 km/h
344 04-07-2014 04:35:00 13.3 C 9.59 g/m*3 13.3 C 0 km/h
345 04-07-2014 04:40:00 13.2 C 9.53 g/m*3 13.2 C 1.6 km/h
346 04-07-2014 04:45:00 13.1 C 9.59 g/m*3 13.1 C 0 km/h
347 04-07-2014 04:50:00 13.1 C 9.59 g/m*3 13.1 C 0 km/h
348 04-07-2014 04:55:00 13 C 9.53 g/m*3 13 C 0 km/h
349 04-07-2014 05:00:00 12.9 C 9.47 g/m*3 12.9 C 0 km/h
350 04-07-2014 05:05:00 12.9 C 9.47 g/m*3 12.9 C 0 km/h
Sensor: Nr:Datum:Temp:Abs-Feuchte:Windchill:Wind:
Aussen-T/F 351 04-07-2014 05:10:00 12.8 C 9.52 g/m*3 12.8 C 0 km/h
352 04-07-2014 05:15:00 12.7 C 9.46 g/m*3 12.7 C 0 km/h
353 04-07-2014 05:20:00 12.7 C 9.57 g/m*3 12.7 C 0 km/h
354 04-07-2014 05:25:00 12.6 C 9.51 g/m*3 12.6 C 0 km/h
355 04-07-2014 05:30:00 12.5 C 9.57 g/m*3 12.5 C 1.6 km/h
356 04-07-2014 05:35:00 12.4 C 9.51 g/m*3 12.4 C 0 km/h
357 04-07-2014 05:40:00 12.4 C 9.51 g/m*3 12.4 C 0 km/h
358 04-07-2014 05:45:00 12.4 C 9.51 g/m*3 12.4 C 0 km/h
359 04-07-2014 05:50:00 12.3 C 9.45 g/m*3 12.3 C 0 km/h
360 04-07-2014 05:55:00 12.3 C 9.45 g/m*3 12.3 C 0 km/h
361 04-07-2014 06:00:00 12.3 C 9.45 g/m*3 12.3 C 0 km/h
362 04-07-2014 06:05:00 12.3 C 9.56 g/m*3 12.3 C 0 km/h
363 04-07-2014 06:10:00 12.3 C 9.56 g/m*3 12.3 C 0 km/h
364 04-07-2014 06:15:00 12.3 C 9.56 g/m*3 12.3 C 0 km/h
365 04-07-2014 06:20:00 12.2 C 9.5 g/m*3 12.2 C 0 km/h
366 04-07-2014 06:25:00 12.2 C 9.5 g/m*3 12.2 C 0 km/h
367 04-07-2014 06:30:00 12.3 C 9.66 g/m*3 12.3 C 0 km/h
368 04-07-2014 06:35:00 12.3 C 9.66 g/m*3 12.3 C 0 km/h
369 04-07-2014 06:40:00 12.3 C 9.66 g/m*3 12.3 C 0 km/h
370 04-07-2014 06:45:00 12.3 C 9.66 g/m*3 12.3 C 0 km/h
371 04-07-2014 06:50:00 12.4 C 9.62 g/m*3 12.4 C 0 km/h
372 04-07-2014 06:55:00 12.5 C 9.68 g/m*3 12.5 C 0 km/h
373 04-07-2014 07:00:00 12.6 C 9.85 g/m*3 12.6 C 0 km/h
374 04-07-2014 07:05:00 12.6 C 9.85 g/m*3 12.6 C 0 km/h
375 04-07-2014 07:10:00 12.7 C 9.91 g/m*3 12.7 C 0 km/h
Sensor: Nr:Datum:Temp:Abs-Feuchte:Windchill:Wind:
Aussen-T/F 376 04-07-2014 07:15:00 12.7 C 9.8 g/m*3 12.7 C 0 km/h
377 04-07-2014 07:20:00 12.8 C 9.97 g/m*3 12.8 C 0 km/h
378 04-07-2014 07:25:00 12.9 C 10.03 g/m*3 12.9 C 0 km/h
379 04-07-2014 07:30:00 13 C 9.98 g/m*3 13 C 0 km/h
380 04-07-2014 07:35:00 13.1 C 10.16 g/m*3 13.1 C 0 km/h
381 04-07-2014 07:40:00 13.2 C 10.1 g/m*3 13.2 C 0 km/h
382 04-07-2014 07:45:00 13.3 C 10.28 g/m*3 13.3 C 0 km/h
383 04-07-2014 07:50:00 13.4 C 10.23 g/m*3 13.4 C 0 km/h
384 04-07-2014 07:55:00 13.7 C 10.3 g/m*3 13.7 C 0 km/h
385 04-07-2014 08:00:00 14.1 C 10.56 g/m*3 14.1 C 0 km/h
386 04-07-2014 08:05:00 14.4 C 10.51 g/m*3 14.4 C 0 km/h
387 04-07-2014 08:10:00 14.8 C 10.77 g/m*3 14.8 C 0 km/h
388 04-07-2014 08:15:00 15.2 C 10.9 g/m*3 15.2 C 0 km/h
389 04-07-2014 08:20:00 15.6 C 10.77 g/m*3 15.6 C 0 km/h
390 04-07-2014 08:25:00 15.9 C 10.83 g/m*3 15.9 C 0 km/h
391 04-07-2014 08:30:00 16.2 C 10.89 g/m*3 16.2 C 0 km/h
392 04-07-2014 08:35:00 16.5 C 10.95 g/m*3 16.5 C 0 km/h
393 04-07-2014 08:40:00 16.8 C 11.15 g/m*3 16.8 C 0 km/h
394 04-07-2014 08:45:00 17.2 C 11.13 g/m*3 17.2 C 0 km/h
395 04-07-2014 08:50:00 17.3 C 11.2 g/m*3 17.3 C 0 km/h
396 04-07-2014 08:55:00 17.5 C 11.18 g/m*3 17.5 C 0 km/h
397 04-07-2014 09:00:00 17.6 C 11.1 g/m*3 17.6 C 0 km/h
398 04-07-2014 09:05:00 17.8 C 11.23 g/m*3 17.8 C 0 km/h
399 04-07-2014 09:10:00 17.9 C 11.3 g/m*3 17.9 C 0 km/h
400 04-07-2014 09:15:00 17.9 C 11.3 g/m*3 17.9 C 0 km/h
Sensor: Nr:Datum:Temp:Abs-Feuchte:Windchill:Wind:
Aussen-T/F 401 04-07-2014 09:20:00 17.8 C 11.38 g/m*3 17.8 C 0 km/h
402 04-07-2014 09:25:00 17.7 C 11.62 g/m*3 17.7 C 0 km/h
403 04-07-2014 09:30:00 17.7 C 11.62 g/m*3 17.7 C 0 km/h
404 04-07-2014 09:35:00 17.9 C 11.45 g/m*3 17.9 C 0 km/h
405 04-07-2014 09:40:00 18.1 C 11.9 g/m*3 18.1 C 0 km/h
406 04-07-2014 09:45:00 18.1 C 11.9 g/m*3 18.1 C 0 km/h
407 04-07-2014 09:50:00 18.2 C 11.97 g/m*3 18.2 C 0 km/h
408 04-07-2014 09:55:00 18.3 C 12.2 g/m*3 18.3 C 0 km/h
409 04-07-2014 10:00:00 18.7 C 12.33 g/m*3 18.7 C 0 km/h
410 04-07-2014 10:05:00 19.2 C 12.37 g/m*3 19.2 C 1.6 km/h
411 04-07-2014 10:10:00 19.6 C 12.83 g/m*3 19.6 C 0 km/h
412 04-07-2014 10:15:00 20 C 12.79 g/m*3 20 C 0 km/h
413 04-07-2014 10:20:00 20.4 C 12.91 g/m*3 20.4 C 0 km/h
414 04-07-2014 10:25:00 20.7 C 13.14 g/m*3 20.7 C 3.2 km/h
415 04-07-2014 10:30:00 21 C 13.19 g/m*3 21 C 1.6 km/h
416 04-07-2014 10:35:00 21.1 C 13.08 g/m*3 21.1 C 0 km/h
417 04-07-2014 10:40:00 21.2 C 13.34 g/m*3 21.2 C 0 km/h
418 04-07-2014 10:45:00 21.3 C 13.23 g/m*3 21.3 C 0 km/h
419 04-07-2014 10:50:00 21.6 C 13.47 g/m*3 21.6 C 1.6 km/h
420 04-07-2014 10:55:00 21.8 C 13.62 g/m*3 21.8 C 0 km/h
421 04-07-2014 11:00:00 22.1 C 13.47 g/m*3 22.1 C 1.6 km/h
422 04-07-2014 11:05:00 22.3 C 13.62 g/m*3 22.3 C 4.8 km/h
423 04-07-2014 11:10:00 22.5 C 13.78 g/m*3 22.5 C 1.6 km/h
424 04-07-2014 11:15:00 22.8 C 13.82 g/m*3 22.8 C 0 km/h
425 04-07-2014 11:20:00 23 C 14.39 g/m*3 23 C 3.2 km/h
Sensor: Nr:Datum:Temp:Abs-Feuchte:Windchill:Wind:
Aussen-T/F 426 04-07-2014 11:25:00 23.2 C 14.14 g/m*3 23.2 C 1.6 km/h
427 04-07-2014 11:30:00 23.6 C 14.25 g/m*3 23.6 C 0 km/h
428 04-07-2014 11:35:00 23.9 C 14.28 g/m*3 23.9 C 1.6 km/h
429 04-07-2014 11:40:00 24.7 C 13.58 g/m*3 24.7 C 6.4 km/h
430 04-07-2014 11:45:00 25.2 C 14.2 g/m*3 25.2 C 4.8 km/h
431 04-07-2014 11:50:00 25.8 C 13 g/m*3 25.8 C 6.4 km/h
432 04-07-2014 11:55:00 26.5 C 13.52 g/m*3 26.5 C 4.8 km/h
433 04-07-2014 12:00:00 27.4 C 12.37 g/m*3 27.4 C 8.1 km/h
434 04-07-2014 12:05:00 27.6 C 13.3 g/m*3 27.6 C 6.4 km/h
435 04-07-2014 12:10:00 27.8 C 12.37 g/m*3 27.8 C 6.4 km/h
436 04-07-2014 12:15:00 28.3 C 12.16 g/m*3 28.3 C 9.7 km/h
437 04-07-2014 12:20:00 28.8 C 13.07 g/m*3 28.8 C 9.7 km/h
438 04-07-2014 12:25:00 29 C 12.93 g/m*3 29 C 11.3 km/h
439 04-07-2014 12:30:00 29.2 C 12.2 g/m*3 29.2 C 9.7 km/h
440 04-07-2014 12:35:00 29.2 C 11.91 g/m*3 29.2 C 4.8 km/h
441 04-07-2014 12:40:00 29.4 C 12.33 g/m*3 29.4 C 6.4 km/h
442 04-07-2014 12:45:00 29.7 C 11.93 g/m*3 29.7 C 11.3 km/h
443 04-07-2014 12:50:00 29.8 C 11.7 g/m*3 29.8 C 6.4 km/h
444 04-07-2014 12:55:00 30 C 12.13 g/m*3 30 C 6.4 km/h
445 04-07-2014 13:00:00 30.2 C 11.04 g/m*3 30.2 C 9.7 km/h
446 04-07-2014 13:05:00 30.2 C 12.87 g/m*3 30.2 C 4.8 km/h
447 04-07-2014 13:10:00 30.1 C 11.59 g/m*3 30.1 C 6.4 km/h
448 04-07-2014 13:15:00 30.1 C 10.98 g/m*3 30.1 C 6.4 km/h
449 04-07-2014 13:20:00 30.1 C 10.37 g/m*3 30.1 C 4.8 km/h
450 04-07-2014 13:25:00 30.2 C 10.73 g/m*3 30.2 C 12.9 km/h
Sensor: Nr:Datum:Temp:Abs-Feuchte:Windchill:Wind:
Aussen-T/F 451 04-07-2014 13:30:00 30.4 C 11.77 g/m*3 30.4 C 4.8 km/h
452 04-07-2014 13:35:00 30.2 C 9.5 g/m*3 30.2 C 11.3 km/h
453 04-07-2014 13:40:00 30.1 C 9.45 g/m*3 30.1 C 8.1 km/h
454 04-07-2014 13:45:00 30.3 C 9.86 g/m*3 30.3 C 11.3 km/h
455 04-07-2014 13:50:00 30.6 C 9.71 g/m*3 30.6 C 11.3 km/h
456 04-07-2014 13:55:00 30.6 C 9.4 g/m*3 30.6 C 8.1 km/h
457 04-07-2014 14:00:00 30.4 C 9.61 g/m*3 30.4 C 4.8 km/h
458 04-07-2014 14:05:00 30.2 C 9.2 g/m*3 30.2 C 8.1 km/h
459 04-07-2014 14:10:00 29.9 C 12.37 g/m*3 29.9 C 3.2 km/h
460 04-07-2014 14:15:00 29.5 C 10.92 g/m*3 29.5 C 3.2 km/h
461 04-07-2014 14:20:00 29.3 C 11.09 g/m*3 29.3 C 3.2 km/h
462 04-07-2014 14:25:00 29.4 C 9.69 g/m*3 29.4 C 11.3 km/h
463 04-07-2014 14:30:00 29.3 C 10.51 g/m*3 29.3 C 4.8 km/h
464 04-07-2014 14:35:00 29.2 C 10.16 g/m*3 29.2 C 3.2 km/h
465 04-07-2014 14:40:00 29.3 C 9.93 g/m*3 29.3 C 4.8 km/h
466 04-07-2014 14:45:00 29.6 C 10.68 g/m*3 29.6 C 3.2 km/h
467 04-07-2014 14:50:00 29.7 C 11.34 g/m*3 29.7 C 12.9 km/h
468 04-07-2014 14:55:00 29.9 C 9.35 g/m*3 29.9 C 14.5 km/h
469 04-07-2014 15:00:00 30.1 C 9.15 g/m*3 30.1 C 4.8 km/h
470 04-07-2014 15:05:00 29.9 C 9.95 g/m*3 29.9 C 8.1 km/h
471 04-07-2014 15:10:00 29.8 C 9.9 g/m*3 29.8 C 3.2 km/h
472 04-07-2014 15:15:00 29.7 C 9.25 g/m*3 29.7 C 9.7 km/h
473 04-07-2014 15:20:00 29.6 C 9.5 g/m*3 29.6 C 6.4 km/h
474 04-07-2014 15:25:00 29.6 C 12.17 g/m*3 29.6 C 4.8 km/h
475 04-07-2014 15:30:00 29.2 C 11.91 g/m*3 29.2 C 1.6 km/h
Sensor: Nr:Datum:Temp:Abs-Feuchte:Windchill:Wind:
Aussen-T/F 476 04-07-2014 15:35:00 28.6 C 11.8 g/m*3 28.6 C 4.8 km/h
477 04-07-2014 15:40:00 27.7 C 12.57 g/m*3 27.7 C 0 km/h
478 04-07-2014 15:45:00 26.8 C 13.74 g/m*3 26.8 C 0 km/h
479 04-07-2014 15:50:00 26 C 14.12 g/m*3 26 C 1.6 km/h
480 04-07-2014 15:55:00 25.3 C 13.81 g/m*3 25.3 C 1.6 km/h
481 04-07-2014 16:00:00 24.4 C 13.35 g/m*3 24.4 C 1.6 km/h
482 04-07-2014 16:05:00 23.8 C 13.55 g/m*3 23.8 C 1.6 km/h
483 04-07-2014 16:10:00 23.2 C 13.51 g/m*3 23.2 C 1.6 km/h
484 04-07-2014 16:15:00 22.8 C 12.8 g/m*3 22.8 C 1.6 km/h
485 04-07-2014 16:20:00 22.7 C 13.33 g/m*3 22.7 C 1.6 km/h
486 04-07-2014 16:25:00 22.7 C 13.54 g/m*3 22.7 C 1.6 km/h
487 04-07-2014 16:30:00 22.8 C 13.82 g/m*3 22.8 C 0 km/h
488 04-07-2014 16:35:00 23.1 C 13.85 g/m*3 23.1 C 0 km/h
489 04-07-2014 16:40:00 23.7 C 12.83 g/m*3 23.7 C 4.8 km/h
490 04-07-2014 16:45:00 24.7 C 11.77 g/m*3 24.7 C 1.6 km/h
491 04-07-2014 16:50:00 25.8 C 12.28 g/m*3 25.8 C 1.6 km/h
492 04-07-2014 16:55:00 26.7 C 13.92 g/m*3 26.7 C 4.8 km/h
493 04-07-2014 17:00:00 27.1 C 11.13 g/m*3 27.1 C 6.4 km/h
494 04-07-2014 17:05:00 27.1 C 13.97 g/m*3 27.1 C 3.2 km/h
495 04-07-2014 17:10:00 26.5 C 13.52 g/m*3 26.5 C 1.6 km/h
496 04-07-2014 17:15:00 26.1 C 13.95 g/m*3 26.1 C 1.6 km/h
497 04-07-2014 17:20:00 25.9 C 14.28 g/m*3 25.9 C 0 km/h
498 04-07-2014 17:25:00 25.9 C 13.32 g/m*3 25.9 C 3.2 km/h
499 04-07-2014 17:30:00 26 C 12.66 g/m*3 26 C 4.8 km/h
500 04-07-2014 17:35:00 26.1 C 12.24 g/m*3 26.1 C 4.8 km/h
Sensor: Nr:Datum:Temp:Abs-Feuchte:Windchill:Wind:
Aussen-T/F 501 04-07-2014 17:40:00 26.5 C 12.02 g/m*3 26.5 C 3.2 km/h
502 04-07-2014 17:45:00 27.3 C 11.25 g/m*3 27.3 C 9.7 km/h
503 04-07-2014 17:50:00 28.2 C 12.1 g/m*3 28.2 C 9.7 km/h
504 04-07-2014 17:55:00 28.6 C 12.93 g/m*3 28.6 C 6.4 km/h
505 04-07-2014 18:00:00 27.9 C 12.17 g/m*3 27.9 C 3.2 km/h
506 04-07-2014 18:05:00 27.8 C 11.83 g/m*3 27.8 C 6.4 km/h
507 04-07-2014 18:10:00 28.4 C 11.67 g/m*3 28.4 C 9.7 km/h
508 04-07-2014 18:15:00 28.8 C 11.36 g/m*3 28.8 C 4.8 km/h
509 04-07-2014 18:20:00 28.7 C 13.56 g/m*3 28.7 C 1.6 km/h
510 04-07-2014 18:25:00 28.1 C 13.67 g/m*3 28.1 C 3.2 km/h
511 04-07-2014 18:30:00 27.4 C 13.42 g/m*3 27.4 C 1.6 km/h
512 04-07-2014 18:35:00 26.5 C 14.02 g/m*3 26.5 C 0 km/h
513 04-07-2014 18:40:00 25.7 C 14.13 g/m*3 25.7 C 0 km/h
514 04-07-2014 18:45:00 25.1 C 14.12 g/m*3 25.1 C 0 km/h
515 04-07-2014 18:50:00 24.8 C 14.11 g/m*3 24.8 C 0 km/h
516 04-07-2014 18:55:00 24.5 C 14.1 g/m*3 24.5 C 0 km/h
517 04-07-2014 19:00:00 24.1 C 14.66 g/m*3 24.1 C 0 km/h
518 04-07-2014 19:05:00 23.4 C 14.09 g/m*3 23.4 C 1.6 km/h
519 04-07-2014 19:10:00 23 C 14.18 g/m*3 23 C 1.6 km/h
520 04-07-2014 19:15:00 22.7 C 13.94 g/m*3 22.7 C 0 km/h
521 04-07-2014 19:20:00 22.6 C 14.06 g/m*3 22.6 C 0 km/h
522 04-07-2014 19:25:00 22.2 C 14.14 g/m*3 22.2 C 1.6 km/h
523 04-07-2014 19:30:00 21.9 C 14.09 g/m*3 21.9 C 3.2 km/h
524 04-07-2014 19:35:00 21.7 C 13.93 g/m*3 21.7 C 1.6 km/h
525 04-07-2014 19:40:00 21.6 C 14.03 g/m*3 21.6 C 0 km/h
Sensor: Nr:Datum:Temp:Abs-Feuchte:Windchill:Wind:
Aussen-T/F 526 04-07-2014 19:45:00 21.6 C 14.03 g/m*3 21.6 C 1.6 km/h
527 04-07-2014 19:50:00 21.6 C 13.66 g/m*3 21.6 C 3.2 km/h
528 04-07-2014 19:55:00 21.6 C 13.28 g/m*3 21.6 C 1.6 km/h
529 04-07-2014 20:00:00 21.7 C 12.4 g/m*3 21.7 C 1.6 km/h
530 04-07-2014 20:05:00 21.7 C 12.97 g/m*3 21.7 C 1.6 km/h
531 04-07-2014 20:10:00 21.8 C 11.9 g/m*3 21.8 C 4.8 km/h
532 04-07-2014 20:15:00 22.3 C 11.45 g/m*3 22.3 C 4.8 km/h
533 04-07-2014 20:20:00 22.5 C 12.78 g/m*3 22.5 C 0 km/h
534 04-07-2014 20:25:00 22.5 C 12.78 g/m*3 22.5 C 0 km/h
535 04-07-2014 20:30:00 22.2 C 13.15 g/m*3 22.2 C 0 km/h
536 04-07-2014 20:35:00 21.9 C 12.93 g/m*3 21.9 C 0 km/h
537 04-07-2014 20:40:00 21.7 C 12.97 g/m*3 21.7 C 0 km/h
538 04-07-2014 20:45:00 21.4 C 12.56 g/m*3 21.4 C 0 km/h
539 04-07-2014 20:50:00 21.3 C 12.68 g/m*3 21.3 C 0 km/h
540 04-07-2014 20:55:00 21.1 C 12.71 g/m*3 21.1 C 0 km/h
541 04-07-2014 21:00:00 21.1 C 12.71 g/m*3 21.1 C 0 km/h
542 04-07-2014 21:05:00 21.1 C 12.71 g/m*3 21.1 C 0 km/h
543 04-07-2014 21:10:00 20.9 C 12.75 g/m*3 20.9 C 0 km/h
544 04-07-2014 21:15:00 20.8 C 12.86 g/m*3 20.8 C 0 km/h
545 04-07-2014 21:20:00 20.4 C 12.91 g/m*3 20.4 C 1.6 km/h
546 04-07-2014 21:25:00 20.1 C 13.21 g/m*3 20.1 C 1.6 km/h
547 04-07-2014 21:30:00 20 C 13.31 g/m*3 20 C 3.2 km/h
548 04-07-2014 21:35:00 19.6 C 13.51 g/m*3 19.6 C 0 km/h
549 04-07-2014 21:40:00 19.4 C 13.35 g/m*3 19.4 C 1.6 km/h
550 04-07-2014 21:45:00 19.3 C 13.44 g/m*3 19.3 C 0 km/h
Sensor: Nr:Datum:Temp:Abs-Feuchte:Windchill:Wind:
Aussen-T/F 551 04-07-2014 21:50:00 19.2 C 13.36 g/m*3 19.2 C 3.2 km/h
552 04-07-2014 21:55:00 19.1 C 13.28 g/m*3 19.1 C 3.2 km/h
553 04-07-2014 22:00:00 19.1 C 13.11 g/m*3 19.1 C 3.2 km/h
554 04-07-2014 22:05:00 19.2 C 13.19 g/m*3 19.2 C 3.2 km/h
555 04-07-2014 22:10:00 19.2 C 13.03 g/m*3 19.2 C 3.2 km/h
556 04-07-2014 22:15:00 19.2 C 13.03 g/m*3 19.2 C 1.6 km/h
557 04-07-2014 22:20:00 19.3 C 12.94 g/m*3 19.3 C 1.6 km/h
558 04-07-2014 22:25:00 19.6 C 12.83 g/m*3 19.6 C 3.2 km/h
559 04-07-2014 22:30:00 19.7 C 12.57 g/m*3 19.7 C 3.2 km/h
560 04-07-2014 22:35:00 19.8 C 12.98 g/m*3 19.8 C 1.6 km/h
561 04-07-2014 22:40:00 19.8 C 12.81 g/m*3 19.8 C 1.6 km/h
562 04-07-2014 22:45:00 19.8 C 12.98 g/m*3 19.8 C 0 km/h
563 04-07-2014 22:50:00 19.8 C 12.98 g/m*3 19.8 C 1.6 km/h
564 04-07-2014 22:55:00 19.7 C 12.91 g/m*3 19.7 C 1.6 km/h
565 04-07-2014 23:00:00 19.7 C 12.91 g/m*3 19.7 C 1.6 km/h
566 04-07-2014 23:05:00 19.7 C 12.74 g/m*3 19.7 C 1.6 km/h
567 04-07-2014 23:10:00 19.8 C 12.81 g/m*3 19.8 C 1.6 km/h
568 04-07-2014 23:15:00 19.7 C 12.74 g/m*3 19.7 C 0 km/h
569 04-07-2014 23:20:00 19.7 C 12.74 g/m*3 19.7 C 0 km/h
570 04-07-2014 23:25:00 19.7 C 12.74 g/m*3 19.7 C 0 km/h
571 04-07-2014 23:30:00 19.7 C 12.74 g/m*3 19.7 C 0 km/h
572 04-07-2014 23:35:00 19.7 C 12.91 g/m*3 19.7 C 0 km/h
573 04-07-2014 23:40:00 19.7 C 12.91 g/m*3 19.7 C 0 km/h
574 04-07-2014 23:45:00 19.7 C 12.91 g/m*3 19.7 C 0 km/h
575 04-07-2014 23:50:00 19.7 C 12.74 g/m*3 19.7 C 0 km/h
Sensor: Nr:Datum:Temp:Abs-Feuchte:Windchill:Wind:
Aussen-T/F 576 04-07-2014 23:55:00 19.7 C 12.74 g/m*3 19.7 C 0 km/h
577 05-07-2014 00:00:00 19.7 C 12.74 g/m*3 19.7 C 0 km/h
578 05-07-2014 00:05:00 19.7 C 12.91 g/m*3 19.7 C 0 km/h
579 05-07-2014 00:10:00 19.7 C 12.74 g/m*3 19.7 C 0 km/h
580 05-07-2014 00:15:00 19.7 C 12.74 g/m*3 19.7 C 0 km/h
581 05-07-2014 00:20:00 19.7 C 12.91 g/m*3 19.7 C 0 km/h
582 05-07-2014 00:25:00 19.7 C 13.08 g/m*3 19.7 C 0 km/h
583 05-07-2014 00:30:00 19.7 C 12.74 g/m*3 19.7 C 0 km/h
584 05-07-2014 00:35:00 19.7 C 12.91 g/m*3 19.7 C 0 km/h
585 05-07-2014 00:40:00 19.8 C 12.64 g/m*3 19.8 C 0 km/h
586 05-07-2014 00:45:00 19.9 C 12.54 g/m*3 19.9 C 3.2 km/h
587 05-07-2014 00:50:00 19.9 C 12.54 g/m*3 19.9 C 1.6 km/h
588 05-07-2014 00:55:00 20 C 12.79 g/m*3 20 C 1.6 km/h
589 05-07-2014 01:00:00 19.9 C 12.71 g/m*3 19.9 C 0 km/h
590 05-07-2014 01:05:00 19.9 C 12.71 g/m*3 19.9 C 1.6 km/h
591 05-07-2014 01:10:00 19.8 C 12.64 g/m*3 19.8 C 1.6 km/h
592 05-07-2014 01:15:00 19.8 C 12.81 g/m*3 19.8 C 0 km/h
593 05-07-2014 01:20:00 19.7 C 12.74 g/m*3 19.7 C 1.6 km/h
594 05-07-2014 01:25:00 19.7 C 12.91 g/m*3 19.7 C 0 km/h
595 05-07-2014 01:30:00 19.6 C 12.83 g/m*3 19.6 C 0 km/h
596 05-07-2014 01:35:00 19.4 C 12.85 g/m*3 19.4 C 1.6 km/h
597 05-07-2014 01:40:00 19.3 C 12.77 g/m*3 19.3 C 1.6 km/h
598 05-07-2014 01:45:00 19.3 C 12.77 g/m*3 19.3 C 0 km/h
599 05-07-2014 01:50:00 19.3 C 12.77 g/m*3 19.3 C 1.6 km/h
600 05-07-2014 01:55:00 19.3 C 12.61 g/m*3 19.3 C 0 km/h
Sensor: Nr:Datum:Temp:Abs-Feuchte:Windchill:Wind:
Aussen-T/F 601 05-07-2014 02:00:00 19.4 C 12.68 g/m*3 19.4 C 0 km/h
602 05-07-2014 02:05:00 19.5 C 12.92 g/m*3 19.5 C 0 km/h
603 05-07-2014 02:10:00 19.3 C 12.94 g/m*3 19.3 C 0 km/h
604 05-07-2014 02:15:00 19.2 C 12.7 g/m*3 19.2 C 1.6 km/h
605 05-07-2014 02:20:00 19.2 C 12.53 g/m*3 19.2 C 3.2 km/h
606 05-07-2014 02:25:00 19.2 C 12.7 g/m*3 19.2 C 0 km/h
607 05-07-2014 02:30:00 18.9 C 12.64 g/m*3 18.9 C 0 km/h
608 05-07-2014 02:35:00 18.7 C 12.49 g/m*3 18.7 C 0 km/h
609 05-07-2014 02:40:00 18.4 C 12.43 g/m*3 18.4 C 0 km/h
610 05-07-2014 02:45:00 18.2 C 12.43 g/m*3 18.2 C 0 km/h
611 05-07-2014 02:50:00 18.1 C 12.36 g/m*3 18.1 C 0 km/h
612 05-07-2014 02:55:00 18 C 12.44 g/m*3 18 C 0 km/h
613 05-07-2014 03:00:00 18 C 12.44 g/m*3 18 C 0 km/h
614 05-07-2014 03:05:00 18.1 C 12.67 g/m*3 18.1 C 1.6 km/h
615 05-07-2014 03:10:00 18.1 C 12.52 g/m*3 18.1 C 0 km/h
616 05-07-2014 03:15:00 18.2 C 12.43 g/m*3 18.2 C 1.6 km/h
617 05-07-2014 03:20:00 18.5 C 12.5 g/m*3 18.5 C 1.6 km/h
618 05-07-2014 03:25:00 18.8 C 12.56 g/m*3 18.8 C 0 km/h
619 05-07-2014 03:30:00 18.9 C 12.47 g/m*3 18.9 C 1.6 km/h
620 05-07-2014 03:35:00 19.1 C 12.46 g/m*3 19.1 C 6.4 km/h
621 05-07-2014 03:40:00 19.1 C 12.46 g/m*3 19.1 C 6.4 km/h
622 05-07-2014 03:45:00 19.1 C 12.46 g/m*3 19.1 C 1.6 km/h
623 05-07-2014 03:50:00 19.1 C 12.46 g/m*3 19.1 C 3.2 km/h
624 05-07-2014 03:55:00 19.1 C 12.62 g/m*3 19.1 C 3.2 km/h
625 05-07-2014 04:00:00 19 C 12.39 g/m*3 19 C 0 km/h
Sensor: Nr:Datum:Temp:Abs-Feuchte:Windchill:Wind:
Aussen-T/F 626 05-07-2014 04:05:00 18.9 C 12.31 g/m*3 18.9 C 3.2 km/h
627 05-07-2014 04:10:00 18.8 C 12.24 g/m*3 18.8 C 1.6 km/h
628 05-07-2014 04:15:00 18.7 C 12.33 g/m*3 18.7 C 0 km/h
629 05-07-2014 04:20:00 18.4 C 12.27 g/m*3 18.4 C 0 km/h
630 05-07-2014 04:25:00 18.2 C 12.28 g/m*3 18.2 C 1.6 km/h
631 05-07-2014 04:30:00 18.2 C 12.28 g/m*3 18.2 C 0 km/h
632 05-07-2014 04:35:00 18.2 C 12.28 g/m*3 18.2 C 0 km/h
633 05-07-2014 04:40:00 18.2 C 12.28 g/m*3 18.2 C 0 km/h
634 05-07-2014 04:45:00 18.2 C 12.28 g/m*3 18.2 C 1.6 km/h
635 05-07-2014 04:50:00 18.2 C 12.12 g/m*3 18.2 C 1.6 km/h
636 05-07-2014 04:55:00 18.3 C 12.2 g/m*3 18.3 C 0 km/h
637 05-07-2014 05:00:00 18.3 C 12.2 g/m*3 18.3 C 1.6 km/h
638 05-07-2014 05:05:00 18.3 C 12.2 g/m*3 18.3 C 0 km/h
639 05-07-2014 05:10:00 18.3 C 12.2 g/m*3 18.3 C 3.2 km/h
640 05-07-2014 05:15:00 18.3 C 12.2 g/m*3 18.3 C 0 km/h
641 05-07-2014 05:20:00 18.3 C 12.35 g/m*3 18.3 C 0 km/h
642 05-07-2014 05:25:00 18.3 C 12.35 g/m*3 18.3 C 3.2 km/h
643 05-07-2014 05:30:00 18.2 C 12.43 g/m*3 18.2 C 0 km/h
644 05-07-2014 05:35:00 18.1 C 12.21 g/m*3 18.1 C 0 km/h
645 05-07-2014 05:40:00 18.1 C 12.21 g/m*3 18.1 C 0 km/h
646 05-07-2014 05:45:00 18.1 C 12.21 g/m*3 18.1 C 4.8 km/h
647 05-07-2014 05:50:00 18.1 C 12.21 g/m*3 18.1 C 4.8 km/h
648 05-07-2014 05:55:00 18.2 C 12.28 g/m*3 18.2 C 0 km/h
649 05-07-2014 06:00:00 18.2 C 12.28 g/m*3 18.2 C 0 km/h
650 05-07-2014 06:05:00 18.1 C 12.21 g/m*3 18.1 C 0 km/h
Sensor: Nr:Datum:Temp:Abs-Feuchte:Windchill:Wind:
Aussen-T/F 651 05-07-2014 06:10:00 18.1 C 12.21 g/m*3 18.1 C 0 km/h
652 05-07-2014 06:15:00 18.1 C 12.36 g/m*3 18.1 C 0 km/h
653 05-07-2014 06:20:00 18.1 C 12.36 g/m*3 18.1 C 0 km/h
654 05-07-2014 06:25:00 18 C 12.29 g/m*3 18 C 0 km/h
655 05-07-2014 06:30:00 17.9 C 12.37 g/m*3 17.9 C 0 km/h
656 05-07-2014 06:35:00 17.8 C 12.29 g/m*3 17.8 C 0 km/h
657 05-07-2014 06:40:00 17.9 C 12.37 g/m*3 17.9 C 0 km/h
658 05-07-2014 06:45:00 17.9 C 12.37 g/m*3 17.9 C 4.8 km/h
659 05-07-2014 06:50:00 18.1 C 12.52 g/m*3 18.1 C 0 km/h
660 05-07-2014 06:55:00 18.2 C 12.59 g/m*3 18.2 C 1.6 km/h
661 05-07-2014 07:00:00 18.3 C 12.66 g/m*3 18.3 C 1.6 km/h
662 05-07-2014 07:05:00 18.4 C 12.58 g/m*3 18.4 C 1.6 km/h
663 05-07-2014 07:10:00 18.4 C 12.58 g/m*3 18.4 C 0 km/h
664 05-07-2014 07:15:00 18.4 C 12.74 g/m*3 18.4 C 0 km/h
665 05-07-2014 07:20:00 18.3 C 12.82 g/m*3 18.3 C 0 km/h
666 05-07-2014 07:25:00 18.2 C 12.75 g/m*3 18.2 C 1.6 km/h
667 05-07-2014 07:30:00 18.2 C 12.75 g/m*3 18.2 C 0 km/h
668 05-07-2014 07:35:00 18.3 C 12.82 g/m*3 18.3 C 1.6 km/h
669 05-07-2014 07:40:00 18.6 C 13.05 g/m*3 18.6 C 4.8 km/h
670 05-07-2014 07:45:00 18.9 C 13.12 g/m*3 18.9 C 4.8 km/h
671 05-07-2014 07:50:00 19.2 C 13.03 g/m*3 19.2 C 4.8 km/h
672 05-07-2014 07:55:00 19.6 C 13.17 g/m*3 19.6 C 1.6 km/h
673 05-07-2014 08:00:00 19.7 C 13.08 g/m*3 19.7 C 6.4 km/h
674 05-07-2014 08:05:00 19.9 C 13.4 g/m*3 19.9 C 4.8 km/h
675 05-07-2014 08:10:00 20.1 C 13.39 g/m*3 20.1 C 9.7 km/h
Sensor: Nr:Datum:Temp:Abs-Feuchte:Windchill:Wind:
Aussen-T/F 676 05-07-2014 08:15:00 20.2 C 13.46 g/m*3 20.2 C 8.1 km/h
677 05-07-2014 08:20:00 20.3 C 13.54 g/m*3 20.3 C 14.5 km/h
678 05-07-2014 08:25:00 20.5 C 13.52 g/m*3 20.5 C 6.4 km/h
679 05-07-2014 08:30:00 20.6 C 13.6 g/m*3 20.6 C 8.1 km/h
680 05-07-2014 08:35:00 20.6 C 13.6 g/m*3 20.6 C 8.1 km/h
681 05-07-2014 08:40:00 20.5 C 13.52 g/m*3 20.5 C 6.4 km/h
682 05-07-2014 08:45:00 20.4 C 13.44 g/m*3 20.4 C 4.8 km/h
683 05-07-2014 08:50:00 20.3 C 13.37 g/m*3 20.3 C 9.7 km/h
684 05-07-2014 08:55:00 20.3 C 13.54 g/m*3 20.3 C 6.4 km/h
685 05-07-2014 09:00:00 20.2 C 13.64 g/m*3 20.2 C 4.8 km/h
686 05-07-2014 09:05:00 20.2 C 13.64 g/m*3 20.2 C 3.2 km/h
687 05-07-2014 09:10:00 20.2 C 13.64 g/m*3 20.2 C 4.8 km/h
688 05-07-2014 09:15:00 20.3 C 13.89 g/m*3 20.3 C 0 km/h
689 05-07-2014 09:20:00 20.3 C 14.07 g/m*3 20.3 C 3.2 km/h
690 05-07-2014 09:25:00 20.5 C 13.88 g/m*3 20.5 C 6.4 km/h
691 05-07-2014 09:30:00 20.7 C 13.86 g/m*3 20.7 C 12.9 km/h
692 05-07-2014 09:35:00 20.8 C 13.94 g/m*3 20.8 C 9.7 km/h
693 05-07-2014 09:40:00 20.9 C 14.02 g/m*3 20.9 C 6.4 km/h
694 05-07-2014 09:45:00 21.1 C 14 g/m*3 21.1 C 8.1 km/h
695 05-07-2014 09:50:00 21.3 C 13.98 g/m*3 21.3 C 16.1 km/h
696 05-07-2014 09:55:00 21.7 C 14.12 g/m*3 21.7 C 9.7 km/h
697 05-07-2014 10:00:00 21.8 C 13.81 g/m*3 21.8 C 11.3 km/h
698 05-07-2014 10:05:00 21.8 C 14.01 g/m*3 21.8 C 14.5 km/h
699 05-07-2014 10:10:00 21.8 C 13.62 g/m*3 21.8 C 12.9 km/h
700 05-07-2014 10:15:00 21.8 C 13.81 g/m*3 21.8 C 11.3 km/h
Sensor: Nr:Datum:Temp:Abs-Feuchte:Windchill:Wind:
Aussen-T/F 701 05-07-2014 10:20:00 21.8 C 13.81 g/m*3 21.8 C 14.5 km/h
702 05-07-2014 10:25:00 22.3 C 13.82 g/m*3 22.3 C 11.3 km/h
703 05-07-2014 10:30:00 22.8 C 14.22 g/m*3 22.8 C 11.3 km/h
704 05-07-2014 10:35:00 23.1 C 13.85 g/m*3 23.1 C 19.3 km/h
705 05-07-2014 10:40:00 23.2 C 13.72 g/m*3 23.2 C 14.5 km/h
706 05-07-2014 10:45:00 23.3 C 13.8 g/m*3 23.3 C 12.9 km/h
707 05-07-2014 10:50:00 23.2 C 13.51 g/m*3 23.2 C 16.1 km/h
708 05-07-2014 10:55:00 23 C 13.15 g/m*3 23 C 14.5 km/h
709 05-07-2014 11:00:00 22.8 C 13.41 g/m*3 22.8 C 12.9 km/h
710 05-07-2014 11:05:00 22.7 C 12.93 g/m*3 22.7 C 9.7 km/h
711 05-07-2014 11:10:00 22.8 C 12.8 g/m*3 22.8 C 11.3 km/h
712 05-07-2014 11:15:00 22.8 C 13 g/m*3 22.8 C 14.5 km/h
713 05-07-2014 11:20:00 22.9 C 13.08 g/m*3 22.9 C 8.1 km/h
714 05-07-2014 11:25:00 23 C 12.74 g/m*3 23 C 24.1 km/h
715 05-07-2014 11:30:00 23.1 C 12.82 g/m*3 23.1 C 19.3 km/h
716 05-07-2014 11:35:00 23 C 12.54 g/m*3 23 C 14.5 km/h
717 05-07-2014 11:40:00 22.9 C 12.47 g/m*3 22.9 C 12.9 km/h
718 05-07-2014 11:45:00 22.8 C 12.6 g/m*3 22.8 C 11.3 km/h
719 05-07-2014 11:50:00 22.7 C 12.73 g/m*3 22.7 C 12.9 km/h
720 05-07-2014 11:55:00 22.4 C 12.71 g/m*3 22.4 C 12.9 km/h
721 05-07-2014 12:00:00 22.2 C 13.35 g/m*3 22.2 C 17.7 km/h
722 05-07-2014 12:05:00 21.9 C 13.12 g/m*3 21.9 C 12.9 km/h
723 05-07-2014 12:10:00 21.6 C 13.28 g/m*3 21.6 C 9.7 km/h
724 05-07-2014 12:15:00 21.3 C 13.42 g/m*3 21.3 C 1.6 km/h
725 05-07-2014 12:20:00 21.2 C 13.53 g/m*3 21.2 C 1.6 km/h
Sensor: Nr:Datum:Temp:Abs-Feuchte:Windchill:Wind:
Aussen-T/F 726 05-07-2014 12:25:00 21 C 13.74 g/m*3 21 C 0 km/h
727 05-07-2014 12:30:00 21 C 14.65 g/m*3 21 C 0 km/h
728 05-07-2014 12:35:00 21 C 13.92 g/m*3 21 C 3.2 km/h
729 05-07-2014 12:40:00 21.1 C 14.56 g/m*3 21.1 C 0 km/h
730 05-07-2014 12:45:00 21.1 C 14.19 g/m*3 21.1 C 12.9 km/h
731 05-07-2014 12:50:00 20.9 C 14.02 g/m*3 20.9 C 9.7 km/h
732 05-07-2014 12:55:00 20.8 C 14.3 g/m*3 20.8 C 3.2 km/h
733 05-07-2014 13:00:00 20.8 C 14.3 g/m*3 20.8 C 0 km/h
734 05-07-2014 13:05:00 20.7 C 14.22 g/m*3 20.7 C 1.6 km/h
735 05-07-2014 13:10:00 20.7 C 14.58 g/m*3 20.7 C 3.2 km/h
736 05-07-2014 13:15:00 20.8 C 14.67 g/m*3 20.8 C 1.6 km/h
737 05-07-2014 13:20:00 20.9 C 14.93 g/m*3 20.9 C 4.8 km/h
738 05-07-2014 13:25:00 20.8 C 15.03 g/m*3 20.8 C 4.8 km/h
739 05-07-2014 13:30:00 20.6 C 14.68 g/m*3 20.6 C 1.6 km/h
740 05-07-2014 13:35:00 20.4 C 14.51 g/m*3 20.4 C 4.8 km/h
741 05-07-2014 13:40:00 20.2 C 14.51 g/m*3 20.2 C 6.4 km/h
742 05-07-2014 13:45:00 20.2 C 14.69 g/m*3 20.2 C 3.2 km/h
743 05-07-2014 13:50:00 20.2 C 14.69 g/m*3 20.2 C 1.6 km/h
744 05-07-2014 14:10:00 20.2 C 14.86 g/m*3 20.2 C 3.2 km/h
745 05-07-2014 14:15:00 20.2 C 15.21 g/m*3 20.2 C 6.4 km/h
746 05-07-2014 14:20:00 20.2 C 15.04 g/m*3 20.2 C 9.7 km/h
747 05-07-2014 14:25:00 20.2 C 14.86 g/m*3 20.2 C 8.1 km/h
748 05-07-2014 14:30:00 20.4 C 15.04 g/m*3 20.4 C 4.8 km/h
749 05-07-2014 14:35:00 20.6 C 15.03 g/m*3 20.6 C 8.1 km/h
750 05-07-2014 14:40:00 20.8 C 15.03 g/m*3 20.8 C 11.3 km/h
Sensor: Nr:Datum:Temp:Abs-Feuchte:Windchill:Wind:
Aussen-T/F 751 05-07-2014 14:45:00 20.9 C 14.93 g/m*3 20.9 C 11.3 km/h
752 05-07-2014 14:50:00 21 C 15.02 g/m*3 21 C 8.1 km/h
753 05-07-2014 14:55:00 21.2 C 15.57 g/m*3 21.2 C 9.7 km/h
754 05-07-2014 15:00:00 21.4 C 14.81 g/m*3 21.4 C 4.8 km/h
755 05-07-2014 15:05:00 21.4 C 15 g/m*3 21.4 C 9.7 km/h
756 05-07-2014 15:10:00 21.4 C 15.19 g/m*3 21.4 C 4.8 km/h
757 05-07-2014 15:15:00 21.3 C 14.91 g/m*3 21.3 C 1.6 km/h
758 05-07-2014 15:20:00 21.2 C 15.38 g/m*3 21.2 C 1.6 km/h
759 05-07-2014 15:25:00 21.2 C 14.83 g/m*3 21.2 C 12.9 km/h
760 05-07-2014 15:30:00 21.2 C 14.64 g/m*3 21.2 C 8.1 km/h
761 05-07-2014 15:35:00 21.1 C 14.19 g/m*3 21.1 C 17.7 km/h
762 05-07-2014 15:40:00 21.1 C 14.56 g/m*3 21.1 C 9.7 km/h
763 05-07-2014 15:45:00 21.1 C 14.56 g/m*3 21.1 C 11.3 km/h
764 05-07-2014 15:50:00 21.1 C 14.56 g/m*3 21.1 C 11.3 km/h
765 05-07-2014 15:55:00 21.3 C 14.54 g/m*3 21.3 C 9.7 km/h
766 05-07-2014 16:00:00 21.3 C 14.54 g/m*3 21.3 C 12.9 km/h
767 05-07-2014 16:05:00 21.4 C 14.44 g/m*3 21.4 C 11.3 km/h
768 05-07-2014 16:10:00 21.6 C 14.6 g/m*3 21.6 C 22.5 km/h
769 05-07-2014 16:15:00 21.6 C 14.6 g/m*3 21.6 C 19.3 km/h
770 05-07-2014 16:20:00 21.7 C 14.5 g/m*3 21.7 C 9.7 km/h
771 05-07-2014 16:25:00 21.8 C 14.58 g/m*3 21.8 C 11.3 km/h
772 05-07-2014 16:30:00 21.9 C 14.67 g/m*3 21.9 C 9.7 km/h
773 05-07-2014 16:35:00 22 C 14.56 g/m*3 22 C 8.1 km/h
774 05-07-2014 16:40:00 22.1 C 14.64 g/m*3 22.1 C 11.3 km/h
775 05-07-2014 16:45:00 22.2 C 14.53 g/m*3 22.2 C 12.9 km/h
Sensor: Nr:Datum:Temp:Abs-Feuchte:Windchill:Wind:
Aussen-T/F 776 05-07-2014 16:50:00 22.2 C 14.53 g/m*3 22.2 C 14.5 km/h
777 05-07-2014 16:55:00 22.1 C 14.45 g/m*3 22.1 C 16.1 km/h
778 05-07-2014 17:00:00 21.9 C 14.28 g/m*3 21.9 C 12.9 km/h
779 05-07-2014 17:05:00 21.8 C 14.2 g/m*3 21.8 C 6.4 km/h
780 05-07-2014 17:10:00 21.8 C 14.39 g/m*3 21.8 C 12.9 km/h
781 05-07-2014 17:15:00 21.9 C 14.67 g/m*3 21.9 C 11.3 km/h
782 05-07-2014 17:20:00 22.6 C 15.07 g/m*3 22.6 C 9.7 km/h
783 05-07-2014 17:25:00 23.1 C 14.68 g/m*3 23.1 C 16.1 km/h
784 05-07-2014 17:30:00 22.9 C 14.51 g/m*3 22.9 C 14.5 km/h
785 05-07-2014 17:35:00 22.8 C 14.43 g/m*3 22.8 C 22.5 km/h
786 05-07-2014 17:40:00 22.7 C 14.34 g/m*3 22.7 C 12.9 km/h
787 05-07-2014 17:45:00 22.7 C 14.75 g/m*3 22.7 C 8.1 km/h
788 05-07-2014 17:50:00 22.6 C 14.46 g/m*3 22.6 C 14.5 km/h
789 05-07-2014 17:55:00 22.6 C 14.46 g/m*3 22.6 C 16.1 km/h
790 05-07-2014 18:00:00 22.7 C 14.75 g/m*3 22.7 C 17.7 km/h
791 05-07-2014 18:05:00 22.7 C 14.55 g/m*3 22.7 C 16.1 km/h
792 05-07-2014 18:10:00 22.6 C 14.46 g/m*3 22.6 C 16.1 km/h
793 05-07-2014 18:15:00 22.6 C 14.66 g/m*3 22.6 C 14.5 km/h
794 05-07-2014 18:20:00 22.5 C 14.38 g/m*3 22.5 C 14.5 km/h
795 05-07-2014 18:25:00 22.3 C 14.41 g/m*3 22.3 C 16.1 km/h
796 05-07-2014 18:30:00 22.2 C 14.33 g/m*3 22.2 C 8.1 km/h
797 05-07-2014 18:35:00 22.2 C 14.53 g/m*3 22.2 C 9.7 km/h
798 05-07-2014 18:40:00 22 C 14.36 g/m*3 22 C 12.9 km/h
799 05-07-2014 18:45:00 21.9 C 14.47 g/m*3 21.9 C 9.7 km/h
800 05-07-2014 18:50:00 21.8 C 14.39 g/m*3 21.8 C 8.1 km/h
Sensor: Nr:Datum:Temp:Abs-Feuchte:Windchill:Wind:
Aussen-T/F 801 05-07-2014 18:55:00 21.7 C 14.5 g/m*3 21.7 C 11.3 km/h
802 05-07-2014 19:00:00 21.6 C 14.41 g/m*3 21.6 C 4.8 km/h
803 05-07-2014 19:05:00 21.6 C 14.6 g/m*3 21.6 C 11.3 km/h
804 05-07-2014 19:10:00 21.6 C 14.6 g/m*3 21.6 C 9.7 km/h
805 05-07-2014 19:15:00 21.6 C 14.6 g/m*3 21.6 C 11.3 km/h
806 05-07-2014 19:20:00 21.5 C 14.52 g/m*3 21.5 C 9.7 km/h
807 05-07-2014 19:25:00 21.4 C 14.44 g/m*3 21.4 C 9.7 km/h
808 05-07-2014 19:30:00 21.4 C 14.44 g/m*3 21.4 C 16.1 km/h
809 05-07-2014 19:35:00 21.3 C 14.54 g/m*3 21.3 C 4.8 km/h
810 05-07-2014 19:40:00 21.3 C 14.73 g/m*3 21.3 C 8.1 km/h
811 05-07-2014 19:45:00 21.3 C 14.73 g/m*3 21.3 C 11.3 km/h
812 05-07-2014 19:50:00 21.3 C 14.54 g/m*3 21.3 C 6.4 km/h
813 05-07-2014 19:55:00 21.3 C 14.73 g/m*3 21.3 C 3.2 km/h
814 05-07-2014 20:00:00 21.3 C 14.54 g/m*3 21.3 C 4.8 km/h
815 05-07-2014 20:05:00 21.3 C 14.54 g/m*3 21.3 C 6.4 km/h
816 05-07-2014 20:10:00 21.3 C 14.54 g/m*3 21.3 C 6.4 km/h
817 05-07-2014 20:15:00 21.2 C 14.64 g/m*3 21.2 C 6.4 km/h
818 05-07-2014 20:20:00 21.2 C 14.64 g/m*3 21.2 C 8.1 km/h
819 05-07-2014 20:25:00 21.1 C 14.56 g/m*3 21.1 C 6.4 km/h
820 05-07-2014 20:30:00 21.1 C 14.74 g/m*3 21.1 C 14.5 km/h
821 05-07-2014 20:35:00 21 C 14.65 g/m*3 21 C 11.3 km/h
822 05-07-2014 20:40:00 20.9 C 14.57 g/m*3 20.9 C 12.9 km/h
823 05-07-2014 20:45:00 20.9 C 14.75 g/m*3 20.9 C 9.7 km/h
824 05-07-2014 20:50:00 20.8 C 14.67 g/m*3 20.8 C 8.1 km/h
825 05-07-2014 20:55:00 20.8 C 14.67 g/m*3 20.8 C 4.8 km/h
Sensor: Nr:Datum:Temp:Abs-Feuchte:Windchill:Wind:
Aussen-T/F 826 05-07-2014 21:00:00 20.7 C 14.58 g/m*3 20.7 C 3.2 km/h
827 05-07-2014 21:05:00 20.7 C 14.58 g/m*3 20.7 C 4.8 km/h
828 05-07-2014 21:10:00 20.6 C 14.5 g/m*3 20.6 C 4.8 km/h
829 05-07-2014 21:15:00 20.6 C 14.5 g/m*3 20.6 C 3.2 km/h
830 05-07-2014 21:20:00 20.6 C 14.5 g/m*3 20.6 C 8.1 km/h
831 05-07-2014 21:25:00 20.6 C 14.5 g/m*3 20.6 C 6.4 km/h
832 05-07-2014 21:30:00 20.6 C 14.5 g/m*3 20.6 C 3.2 km/h
833 05-07-2014 21:35:00 20.5 C 14.41 g/m*3 20.5 C 9.7 km/h
834 05-07-2014 21:40:00 20.5 C 14.59 g/m*3 20.5 C 4.8 km/h
835 05-07-2014 21:45:00 20.4 C 14.33 g/m*3 20.4 C 8.1 km/h
836 05-07-2014 21:50:00 20.4 C 14.33 g/m*3 20.4 C 6.4 km/h
837 05-07-2014 21:55:00 20.4 C 14.33 g/m*3 20.4 C 4.8 km/h
838 05-07-2014 22:00:00 20.4 C 14.33 g/m*3 20.4 C 4.8 km/h
839 05-07-2014 22:05:00 20.4 C 14.33 g/m*3 20.4 C 1.6 km/h
840 05-07-2014 22:10:00 20.3 C 14.25 g/m*3 20.3 C 8.1 km/h
841 05-07-2014 22:15:00 20.3 C 14.25 g/m*3 20.3 C 9.7 km/h
842 05-07-2014 22:20:00 20.2 C 14.34 g/m*3 20.2 C 9.7 km/h
843 05-07-2014 22:25:00 20.3 C 14.42 g/m*3 20.3 C 6.4 km/h
844 05-07-2014 22:30:00 20.3 C 14.42 g/m*3 20.3 C 6.4 km/h
845 05-07-2014 22:35:00 20.2 C 14.34 g/m*3 20.2 C 8.1 km/h
846 05-07-2014 22:40:00 20.2 C 14.34 g/m*3 20.2 C 4.8 km/h
847 05-07-2014 22:45:00 20.2 C 14.51 g/m*3 20.2 C 4.8 km/h
848 05-07-2014 22:50:00 20.1 C 14.43 g/m*3 20.1 C 1.6 km/h
849 05-07-2014 22:55:00 20.1 C 14.43 g/m*3 20.1 C 0 km/h
850 05-07-2014 23:00:00 20 C 14.52 g/m*3 20 C 0 km/h
Sensor: Nr:Datum:Temp:Abs-Feuchte:Windchill:Wind:
Aussen-T/F 851 05-07-2014 23:05:00 19.9 C 14.43 g/m*3 19.9 C 0 km/h
852 05-07-2014 23:10:00 19.9 C 14.43 g/m*3 19.9 C 3.2 km/h
853 05-07-2014 23:15:00 19.8 C 14.52 g/m*3 19.8 C 1.6 km/h
854 05-07-2014 23:20:00 19.8 C 14.35 g/m*3 19.8 C 0 km/h
855 05-07-2014 23:25:00 19.8 C 14.52 g/m*3 19.8 C 0 km/h
856 05-07-2014 23:30:00 19.7 C 14.43 g/m*3 19.7 C 1.6 km/h
857 05-07-2014 23:35:00 19.7 C 14.43 g/m*3 19.7 C 4.8 km/h
858 05-07-2014 23:40:00 19.7 C 14.6 g/m*3 19.7 C 0 km/h
859 05-07-2014 23:45:00 19.6 C 14.52 g/m*3 19.6 C 0 km/h
860 05-07-2014 23:50:00 19.6 C 14.52 g/m*3 19.6 C 0 km/h
861 05-07-2014 23:55:00 19.5 C 14.43 g/m*3 19.5 C 0 km/h
862 06-07-2014 00:00:00 19.4 C 14.52 g/m*3 19.4 C 0 km/h
863 06-07-2014 00:05:00 19.4 C 14.52 g/m*3 19.4 C 0 km/h
864 06-07-2014 00:10:00 19.3 C 14.43 g/m*3 19.3 C 0 km/h
865 06-07-2014 00:15:00 19.2 C 14.51 g/m*3 19.2 C 0 km/h
866 06-07-2014 00:20:00 19.1 C 14.43 g/m*3 19.1 C 0 km/h
867 06-07-2014 00:25:00 19.1 C 14.43 g/m*3 19.1 C 0 km/h
868 06-07-2014 00:30:00 19 C 14.34 g/m*3 19 C 0 km/h
869 06-07-2014 00:35:00 18.9 C 14.42 g/m*3 18.9 C 0 km/h
870 06-07-2014 00:40:00 18.7 C 14.09 g/m*3 18.7 C 0 km/h
871 06-07-2014 00:45:00 18.6 C 14.17 g/m*3 18.6 C 0 km/h
872 06-07-2014 00:50:00 18.5 C 14.08 g/m*3 18.5 C 0 km/h
873 06-07-2014 00:55:00 18.4 C 14.16 g/m*3 18.4 C 0 km/h
874 06-07-2014 01:00:00 18.4 C 14.16 g/m*3 18.4 C 0 km/h
875 06-07-2014 01:05:00 18.3 C 14.07 g/m*3 18.3 C 0 km/h
Sensor: Nr:Datum:Temp:Abs-Feuchte:Windchill:Wind:
Aussen-T/F 876 06-07-2014 01:10:00 18.3 C 14.07 g/m*3 18.3 C 0 km/h
877 06-07-2014 01:15:00 18.3 C 14.07 g/m*3 18.3 C 0 km/h
878 06-07-2014 01:20:00 18.2 C 13.99 g/m*3 18.2 C 0 km/h
879 06-07-2014 01:25:00 18.2 C 14.14 g/m*3 18.2 C 0 km/h
880 06-07-2014 01:30:00 18.2 C 14.14 g/m*3 18.2 C 0 km/h
881 06-07-2014 01:35:00 18.2 C 14.14 g/m*3 18.2 C 0 km/h
882 06-07-2014 01:40:00 18.2 C 14.14 g/m*3 18.2 C 0 km/h
883 06-07-2014 01:45:00 18.2 C 14.14 g/m*3 18.2 C 0 km/h
884 06-07-2014 01:50:00 18.2 C 14.14 g/m*3 18.2 C 0 km/h
885 06-07-2014 01:55:00 18.2 C 14.14 g/m*3 18.2 C 0 km/h
886 06-07-2014 02:00:00 18.2 C 14.14 g/m*3 18.2 C 0 km/h
887 06-07-2014 02:05:00 18.2 C 14.14 g/m*3 18.2 C 0 km/h
888 06-07-2014 02:10:00 18.2 C 14.14 g/m*3 18.2 C 0 km/h
889 06-07-2014 02:15:00 18.2 C 14.14 g/m*3 18.2 C 0 km/h
890 06-07-2014 02:20:00 18.1 C 14.06 g/m*3 18.1 C 0 km/h
891 06-07-2014 02:25:00 18.1 C 14.06 g/m*3 18.1 C 0 km/h
892 06-07-2014 02:30:00 18.1 C 14.21 g/m*3 18.1 C 0 km/h
893 06-07-2014 02:35:00 18.1 C 14.21 g/m*3 18.1 C 0 km/h
894 06-07-2014 02:40:00 18 C 14.13 g/m*3 18 C 0 km/h
895 06-07-2014 02:45:00 18 C 14.13 g/m*3 18 C 0 km/h
896 06-07-2014 02:50:00 18 C 14.13 g/m*3 18 C 0 km/h
897 06-07-2014 02:55:00 18 C 14.13 g/m*3 18 C 0 km/h
898 06-07-2014 03:00:00 18.1 C 14.21 g/m*3 18.1 C 0 km/h
899 06-07-2014 03:05:00 18.1 C 14.21 g/m*3 18.1 C 0 km/h
900 06-07-2014 03:10:00 18.1 C 14.21 g/m*3 18.1 C 0 km/h
Sensor: Nr:Datum:Temp:Abs-Feuchte:Windchill:Wind:
Aussen-T/F 901 06-07-2014 03:15:00 18.1 C 14.21 g/m*3 18.1 C 0 km/h
902 06-07-2014 03:20:00 18.1 C 14.21 g/m*3 18.1 C 0 km/h
903 06-07-2014 03:25:00 18.2 C 14.3 g/m*3 18.2 C 0 km/h
904 06-07-2014 03:30:00 18.2 C 14.14 g/m*3 18.2 C 0 km/h
905 06-07-2014 03:35:00 18.2 C 14.14 g/m*3 18.2 C 0 km/h
906 06-07-2014 03:40:00 18.2 C 14.14 g/m*3 18.2 C 0 km/h
907 06-07-2014 03:45:00 18.1 C 14.06 g/m*3 18.1 C 0 km/h
908 06-07-2014 03:50:00 18.1 C 14.06 g/m*3 18.1 C 0 km/h
909 06-07-2014 03:55:00 18 C 13.98 g/m*3 18 C 0 km/h
910 06-07-2014 04:00:00 17.9 C 13.89 g/m*3 17.9 C 0 km/h
911 06-07-2014 04:05:00 17.9 C 14.05 g/m*3 17.9 C 1.6 km/h
912 06-07-2014 04:10:00 17.9 C 13.89 g/m*3 17.9 C 0 km/h
913 06-07-2014 04:15:00 18.1 C 14.06 g/m*3 18.1 C 0 km/h
914 06-07-2014 04:20:00 18.1 C 14.06 g/m*3 18.1 C 0 km/h
915 06-07-2014 04:25:00 18.1 C 14.06 g/m*3 18.1 C 0 km/h
916 06-07-2014 04:30:00 18.1 C 14.06 g/m*3 18.1 C 0 km/h
917 06-07-2014 04:35:00 18.1 C 14.21 g/m*3 18.1 C 0 km/h
918 06-07-2014 04:40:00 18.1 C 14.21 g/m*3 18.1 C 0 km/h
919 06-07-2014 04:45:00 18.1 C 14.21 g/m*3 18.1 C 0 km/h
920 06-07-2014 04:50:00 18.1 C 14.21 g/m*3 18.1 C 0 km/h
921 06-07-2014 04:55:00 18.1 C 14.21 g/m*3 18.1 C 0 km/h
922 06-07-2014 05:00:00 18.1 C 14.21 g/m*3 18.1 C 0 km/h
923 06-07-2014 05:05:00 18.1 C 14.21 g/m*3 18.1 C 0 km/h
924 06-07-2014 05:10:00 18.1 C 14.37 g/m*3 18.1 C 0 km/h
925 06-07-2014 05:15:00 18.1 C 14.37 g/m*3 18.1 C 0 km/h
Sensor: Nr:Datum:Temp:Abs-Feuchte:Windchill:Wind:
Aussen-T/F 926 06-07-2014 05:20:00 18.1 C 14.37 g/m*3 18.1 C 0 km/h
927 06-07-2014 05:25:00 18.1 C 14.37 g/m*3 18.1 C 0 km/h
928 06-07-2014 05:30:00 18 C 14.28 g/m*3 18 C 0 km/h
929 06-07-2014 05:35:00 17.9 C 14.2 g/m*3 17.9 C 0 km/h
930 06-07-2014 05:40:00 17.9 C 14.35 g/m*3 17.9 C 0 km/h
931 06-07-2014 05:45:00 17.9 C 14.35 g/m*3 17.9 C 0 km/h
932 06-07-2014 05:50:00 17.9 C 14.35 g/m*3 17.9 C 0 km/h
933 06-07-2014 05:55:00 17.8 C 14.27 g/m*3 17.8 C 1.6 km/h
934 06-07-2014 06:00:00 17.8 C 14.27 g/m*3 17.8 C 0 km/h
935 06-07-2014 06:05:00 17.8 C 14.27 g/m*3 17.8 C 0 km/h
936 06-07-2014 06:10:00 17.8 C 14.27 g/m*3 17.8 C 0 km/h
937 06-07-2014 06:15:00 17.8 C 14.27 g/m*3 17.8 C 0 km/h
938 06-07-2014 06:20:00 17.8 C 14.27 g/m*3 17.8 C 0 km/h
939 06-07-2014 06:25:00 17.8 C 14.27 g/m*3 17.8 C 0 km/h
940 06-07-2014 06:30:00 17.9 C 14.5 g/m*3 17.9 C 0 km/h
941 06-07-2014 06:35:00 17.9 C 14.35 g/m*3 17.9 C 1.6 km/h
942 06-07-2014 06:40:00 18 C 14.44 g/m*3 18 C 0 km/h
943 06-07-2014 06:45:00 18.1 C 14.52 g/m*3 18.1 C 3.2 km/h
944 06-07-2014 06:50:00 18.2 C 14.61 g/m*3 18.2 C 1.6 km/h
945 06-07-2014 06:55:00 18.3 C 14.7 g/m*3 18.3 C 0 km/h
946 06-07-2014 07:00:00 18.4 C 14.63 g/m*3 18.4 C 8.1 km/h
947 06-07-2014 07:05:00 18.7 C 14.73 g/m*3 18.7 C 4.8 km/h
948 06-07-2014 07:10:00 18.9 C 14.74 g/m*3 18.9 C 3.2 km/h
949 06-07-2014 07:15:00 19.2 C 14.84 g/m*3 19.2 C 1.6 km/h
950 06-07-2014 07:20:00 19.3 C 14.93 g/m*3 19.3 C 0 km/h
Sensor: Nr:Datum:Temp:Abs-Feuchte:Windchill:Wind:
Aussen-T/F 951 06-07-2014 07:25:00 19.4 C 15.02 g/m*3 19.4 C 1.6 km/h
952 06-07-2014 07:30:00 19.6 C 15.02 g/m*3 19.6 C 3.2 km/h
953 06-07-2014 07:35:00 19.8 C 15.2 g/m*3 19.8 C 4.8 km/h
954 06-07-2014 07:40:00 19.9 C 15.12 g/m*3 19.9 C 1.6 km/h
955 06-07-2014 07:45:00 19.9 C 15.29 g/m*3 19.9 C 0 km/h
956 06-07-2014 07:50:00 20 C 15.38 g/m*3 20 C 0 km/h
957 06-07-2014 07:55:00 20.1 C 15.12 g/m*3 20.1 C 4.8 km/h
958 06-07-2014 08:00:00 20.4 C 15.21 g/m*3 20.4 C 4.8 km/h
959 06-07-2014 08:05:00 20.7 C 15.3 g/m*3 20.7 C 4.8 km/h
960 06-07-2014 08:10:00 20.9 C 15.66 g/m*3 20.9 C 0 km/h
961 06-07-2014 08:15:00 21.1 C 15.29 g/m*3 21.1 C 3.2 km/h
962 06-07-2014 08:20:00 21.4 C 15.37 g/m*3 21.4 C 1.6 km/h
963 06-07-2014 08:25:00 21.6 C 15.36 g/m*3 21.6 C 1.6 km/h
964 06-07-2014 08:30:00 21.9 C 15.82 g/m*3 21.9 C 3.2 km/h
965 06-07-2014 08:35:00 22.1 C 15.62 g/m*3 22.1 C 3.2 km/h
966 06-07-2014 08:40:00 22.3 C 15.4 g/m*3 22.3 C 6.4 km/h
967 06-07-2014 08:45:00 22.4 C 15.69 g/m*3 22.4 C 4.8 km/h
968 06-07-2014 08:50:00 22.6 C 15.47 g/m*3 22.6 C 3.2 km/h
969 06-07-2014 08:55:00 22.7 C 15.76 g/m*3 22.7 C 3.2 km/h
970 06-07-2014 09:00:00 22.8 C 16.05 g/m*3 22.8 C 3.2 km/h
971 06-07-2014 09:05:00 22.9 C 15.33 g/m*3 22.9 C 6.4 km/h
972 06-07-2014 09:10:00 22.9 C 15.53 g/m*3 22.9 C 0 km/h
973 06-07-2014 09:15:00 22.9 C 15.33 g/m*3 22.9 C 0 km/h
974 06-07-2014 09:20:00 22.9 C 15.33 g/m*3 22.9 C 1.6 km/h
975 06-07-2014 09:25:00 22.8 C 14.83 g/m*3 22.8 C 6.4 km/h
Sensor: Nr:Datum:Temp:Abs-Feuchte:Windchill:Wind:
Aussen-T/F 976 06-07-2014 09:30:00 22.8 C 14.83 g/m*3 22.8 C 4.8 km/h
977 06-07-2014 09:35:00 22.9 C 14.92 g/m*3 22.9 C 8.1 km/h
978 06-07-2014 09:40:00 22.9 C 14.92 g/m*3 22.9 C 4.8 km/h
979 06-07-2014 09:45:00 23.1 C 15.3 g/m*3 23.1 C 8.1 km/h
980 06-07-2014 09:50:00 23.3 C 15.26 g/m*3 23.3 C 6.4 km/h
981 06-07-2014 09:55:00 23.4 C 14.93 g/m*3 23.4 C 8.1 km/h
982 06-07-2014 10:00:00 23.7 C 15.4 g/m*3 23.7 C 8.1 km/h
983 06-07-2014 10:05:00 23.9 C 16.23 g/m*3 23.9 C 6.4 km/h
984 06-07-2014 10:10:00 24.3 C 15.27 g/m*3 24.3 C 4.8 km/h
985 06-07-2014 10:15:00 24.6 C 15.75 g/m*3 24.6 C 4.8 km/h
986 06-07-2014 10:20:00 24.8 C 15.48 g/m*3 24.8 C 8.1 km/h
987 06-07-2014 10:25:00 24.7 C 14.71 g/m*3 24.7 C 8.1 km/h
988 06-07-2014 10:30:00 24.8 C 15.25 g/m*3 24.8 C 11.3 km/h
989 06-07-2014 10:35:00 25 C 14.73 g/m*3 25 C 9.7 km/h
990 06-07-2014 10:40:00 25 C 14.73 g/m*3 25 C 8.1 km/h
991 06-07-2014 10:45:00 25 C 14.73 g/m*3 25 C 12.9 km/h
992 06-07-2014 10:50:00 24.8 C 14.57 g/m*3 24.8 C 9.7 km/h
993 06-07-2014 10:55:00 24.9 C 15.11 g/m*3 24.9 C 8.1 km/h
994 06-07-2014 11:00:00 25.1 C 15.28 g/m*3 25.1 C 11.3 km/h
995 06-07-2014 11:05:00 25.3 C 14.75 g/m*3 25.3 C 11.3 km/h
996 06-07-2014 11:10:00 25.8 C 15.17 g/m*3 25.8 C 8.1 km/h
997 06-07-2014 11:15:00 26.1 C 14.2 g/m*3 26.1 C 9.7 km/h
998 06-07-2014 11:20:00 25.9 C 14.53 g/m*3 25.9 C 11.3 km/h
999 06-07-2014 11:25:00 26.1 C 14.93 g/m*3 26.1 C 9.7 km/h
1000 06-07-2014 11:30:00 26.5 C 14.77 g/m*3 26.5 C 9.7 km/h
Sensor: Nr:Datum:Temp:Abs-Feuchte:Windchill:Wind:
Aussen-T/F 1001 06-07-2014 11:35:00 26.7 C 14.93 g/m*3 26.7 C 9.7 km/h
1002 06-07-2014 11:40:00 26.8 C 15.02 g/m*3 26.8 C 6.4 km/h
1003 06-07-2014 11:45:00 26.9 C 14.84 g/m*3 26.9 C 12.9 km/h
1004 06-07-2014 11:50:00 27.1 C 14.23 g/m*3 27.1 C 12.9 km/h
1005 06-07-2014 11:55:00 27.3 C 14.13 g/m*3 27.3 C 6.4 km/h
1006 06-07-2014 12:00:00 27.4 C 15 g/m*3 27.4 C 14.5 km/h
1007 06-07-2014 12:05:00 27.2 C 14.57 g/m*3 27.2 C 14.5 km/h
1008 06-07-2014 12:10:00 27.1 C 13.97 g/m*3 27.1 C 8.1 km/h
1009 06-07-2014 12:15:00 26.8 C 14 g/m*3 26.8 C 4.8 km/h
1010 06-07-2014 12:20:00 26.7 C 14.17 g/m*3 26.7 C 9.7 km/h
1011 06-07-2014 12:25:00 26.7 C 13.92 g/m*3 26.7 C 9.7 km/h
1012 06-07-2014 12:30:00 27.1 C 14.23 g/m*3 27.1 C 6.4 km/h
1013 06-07-2014 12:35:00 27.2 C 13.79 g/m*3 27.2 C 6.4 km/h
1014 06-07-2014 12:40:00 27.2 C 14.05 g/m*3 27.2 C 11.3 km/h
1015 06-07-2014 12:45:00 27.2 C 14.05 g/m*3 27.2 C 9.7 km/h
1016 06-07-2014 12:50:00 27.3 C 14.39 g/m*3 27.3 C 6.4 km/h
1017 06-07-2014 12:55:00 27.5 C 13.49 g/m*3 27.5 C 11.3 km/h
1018 06-07-2014 13:00:00 27.6 C 13.57 g/m*3 27.6 C 14.5 km/h
1019 06-07-2014 13:05:00 27.7 C 14.44 g/m*3 27.7 C 11.3 km/h
1020 06-07-2014 13:10:00 27.6 C 13.57 g/m*3 27.6 C 11.3 km/h
1021 06-07-2014 13:15:00 27.4 C 13.68 g/m*3 27.4 C 6.4 km/h
1022 06-07-2014 13:20:00 27.7 C 13.64 g/m*3 27.7 C 9.7 km/h
1023 06-07-2014 13:25:00 28.1 C 13.95 g/m*3 28.1 C 12.9 km/h
1024 06-07-2014 13:30:00 28.5 C 13.97 g/m*3 28.5 C 9.7 km/h
1025 06-07-2014 13:35:00 28.8 C 13.35 g/m*3 28.8 C 8.1 km/h
Sensor: Nr:Datum:Temp:Abs-Feuchte:Windchill:Wind:
Aussen-T/F 1026 06-07-2014 13:40:00 28.7 C 13.85 g/m*3 28.7 C 11.3 km/h
1027 06-07-2014 13:45:00 28.4 C 13.06 g/m*3 28.4 C 11.3 km/h
1028 06-07-2014 13:50:00 28.3 C 12.99 g/m*3 28.3 C 14.5 km/h
1029 06-07-2014 13:55:00 28.3 C 13.27 g/m*3 28.3 C 14.5 km/h
1030 06-07-2014 14:00:00 28.4 C 13.06 g/m*3 28.4 C 11.3 km/h
1031 06-07-2014 14:05:00 28.3 C 13.27 g/m*3 28.3 C 11.3 km/h
1032 06-07-2014 14:10:00 28.3 C 12.99 g/m*3 28.3 C 9.7 km/h
1033 06-07-2014 14:15:00 28.5 C 13.42 g/m*3 28.5 C 14.5 km/h
1034 06-07-2014 14:20:00 28.7 C 13.28 g/m*3 28.7 C 8.1 km/h
1035 06-07-2014 14:25:00 28.7 C 13.56 g/m*3 28.7 C 6.4 km/h
1036 06-07-2014 14:30:00 28.7 C 13.85 g/m*3 28.7 C 9.7 km/h
1037 06-07-2014 14:35:00 28.6 C 13.21 g/m*3 28.6 C 14.5 km/h
1038 06-07-2014 14:40:00 28.6 C 13.49 g/m*3 28.6 C 4.8 km/h
1039 06-07-2014 14:45:00 28.8 C 13.35 g/m*3 28.8 C 9.7 km/h
1040 06-07-2014 14:50:00 29.1 C 13.28 g/m*3 29.1 C 12.9 km/h
1041 06-07-2014 14:55:00 29.3 C 14.01 g/m*3 29.3 C 6.4 km/h
1042 06-07-2014 15:00:00 29.3 C 12.85 g/m*3 29.3 C 9.7 km/h
1043 06-07-2014 15:05:00 29.6 C 13.06 g/m*3 29.6 C 11.3 km/h
1044 06-07-2014 15:10:00 29.8 C 13.2 g/m*3 29.8 C 14.5 km/h
1045 06-07-2014 15:15:00 29.7 C 12.83 g/m*3 29.7 C 8.1 km/h
1046 06-07-2014 15:20:00 29.3 C 12.55 g/m*3 29.3 C 11.3 km/h
1047 06-07-2014 15:25:00 29 C 12.35 g/m*3 29 C 9.7 km/h
1048 06-07-2014 15:30:00 28.9 C 12.57 g/m*3 28.9 C 6.4 km/h
1049 06-07-2014 15:35:00 28.8 C 12.79 g/m*3 28.8 C 11.3 km/h
1050 06-07-2014 15:40:00 28.9 C 12.86 g/m*3 28.9 C 12.9 km/h
Sensor: Nr:Datum:Temp:Abs-Feuchte:Windchill:Wind:
Aussen-T/F 1051 06-07-2014 15:45:00 29.1 C 13.28 g/m*3 29.1 C 8.1 km/h
1052 06-07-2014 15:50:00 29.1 C 13.57 g/m*3 29.1 C 8.1 km/h
1053 06-07-2014 15:55:00 28.9 C 13.14 g/m*3 28.9 C 12.9 km/h
1054 06-07-2014 16:00:00 28.9 C 13.43 g/m*3 28.9 C 6.4 km/h
1055 06-07-2014 16:05:00 29.2 C 13.36 g/m*3 29.2 C 11.3 km/h
1056 06-07-2014 16:10:00 29.6 C 13.35 g/m*3 29.6 C 19.3 km/h
1057 06-07-2014 16:15:00 29.8 C 14.1 g/m*3 29.8 C 19.3 km/h
1058 06-07-2014 16:20:00 30 C 14.25 g/m*3 30 C 9.7 km/h
1059 06-07-2014 16:25:00 30.3 C 13.87 g/m*3 30.3 C 12.9 km/h
1060 06-07-2014 16:30:00 30.3 C 14.49 g/m*3 30.3 C 9.7 km/h
1061 06-07-2014 16:35:00 30.7 C 13.86 g/m*3 30.7 C 8.1 km/h
1062 06-07-2014 16:40:00 30.6 C 14.09 g/m*3 30.6 C 9.7 km/h
1063 06-07-2014 16:45:00 30.4 C 14.25 g/m*3 30.4 C 9.7 km/h
1064 06-07-2014 16:50:00 30.3 C 13.56 g/m*3 30.3 C 9.7 km/h
1065 06-07-2014 16:55:00 30.4 C 13.63 g/m*3 30.4 C 14.5 km/h
1066 06-07-2014 17:00:00 30.8 C 13.93 g/m*3 30.8 C 14.5 km/h
1067 06-07-2014 17:05:00 30.8 C 13.61 g/m*3 30.8 C 16.1 km/h
1068 06-07-2014 17:10:00 31.1 C 13.51 g/m*3 31.1 C 12.9 km/h
1069 06-07-2014 17:15:00 31.2 C 13.91 g/m*3 31.2 C 8.1 km/h
1070 06-07-2014 17:20:00 31.4 C 14.06 g/m*3 31.4 C 6.4 km/h
1071 06-07-2014 17:25:00 31.6 C 13.55 g/m*3 31.6 C 8.1 km/h
1072 06-07-2014 17:30:00 31.4 C 13.08 g/m*3 31.4 C 8.1 km/h
1073 06-07-2014 17:35:00 31.4 C 13.73 g/m*3 31.4 C 16.1 km/h
1074 06-07-2014 17:40:00 31.3 C 12.68 g/m*3 31.3 C 9.7 km/h
1075 06-07-2014 17:45:00 31.3 C 12.68 g/m*3 31.3 C 12.9 km/h
Sensor: Nr:Datum:Temp:Abs-Feuchte:Windchill:Wind:
Aussen-T/F 1076 06-07-2014 17:50:00 31.1 C 12.55 g/m*3 31.1 C 19.3 km/h
1077 06-07-2014 17:55:00 30.9 C 12.41 g/m*3 30.9 C 11.3 km/h
1078 06-07-2014 18:00:00 30.9 C 13.05 g/m*3 30.9 C 8.1 km/h
1079 06-07-2014 18:05:00 30.9 C 12.73 g/m*3 30.9 C 8.1 km/h
1080 06-07-2014 18:10:00 31.2 C 12.94 g/m*3 31.2 C 11.3 km/h
1081 06-07-2014 18:15:00 31.5 C 13.15 g/m*3 31.5 C 12.9 km/h
1082 06-07-2014 18:20:00 31.5 C 13.15 g/m*3 31.5 C 11.3 km/h
1083 06-07-2014 18:25:00 31.6 C 12.56 g/m*3 31.6 C 12.9 km/h
1084 06-07-2014 18:30:00 31.3 C 12.68 g/m*3 31.3 C 11.3 km/h
1085 06-07-2014 18:35:00 30.9 C 12.73 g/m*3 30.9 C 8.1 km/h
1086 06-07-2014 18:40:00 30.2 C 12.87 g/m*3 30.2 C 17.7 km/h
1087 06-07-2014 18:45:00 29.8 C 12.9 g/m*3 29.8 C 8.1 km/h
1088 06-07-2014 18:50:00 29.4 C 13.21 g/m*3 29.4 C 4.8 km/h
1089 06-07-2014 18:55:00 29.3 C 13.43 g/m*3 29.3 C 3.2 km/h
1090 06-07-2014 19:00:00 29 C 14.36 g/m*3 29 C 4.8 km/h
1091 06-07-2014 19:05:00 28.8 C 13.07 g/m*3 28.8 C 3.2 km/h
1092 06-07-2014 19:10:00 28.9 C 14 g/m*3 28.9 C 4.8 km/h
1093 06-07-2014 19:15:00 29.3 C 13.43 g/m*3 29.3 C 4.8 km/h
1094 06-07-2014 19:20:00 29.9 C 13.27 g/m*3 29.9 C 11.3 km/h
1095 06-07-2014 19:25:00 30.1 C 14.02 g/m*3 30.1 C 9.7 km/h
1096 06-07-2014 19:30:00 30.2 C 14.1 g/m*3 30.2 C 1.6 km/h
1097 06-07-2014 19:35:00 30.1 C 12.81 g/m*3 30.1 C 6.4 km/h
1098 06-07-2014 19:40:00 29.9 C 12.97 g/m*3 29.9 C 6.4 km/h
1099 06-07-2014 19:45:00 29.5 C 13.58 g/m*3 29.5 C 9.7 km/h
1100 06-07-2014 19:50:00 29 C 12.93 g/m*3 29 C 1.6 km/h
Sensor: Nr:Datum:Temp:Abs-Feuchte:Windchill:Wind:
Aussen-T/F 1101 06-07-2014 19:55:00 28.7 C 14.13 g/m*3 28.7 C 6.4 km/h
1102 06-07-2014 20:00:00 28.2 C 14.3 g/m*3 28.2 C 4.8 km/h
1103 06-07-2014 20:05:00 27.7 C 14.71 g/m*3 27.7 C 4.8 km/h
1104 06-07-2014 20:10:00 27.1 C 15.01 g/m*3 27.1 C 0 km/h
1105 06-07-2014 20:15:00 26.4 C 14.44 g/m*3 26.4 C 3.2 km/h
1106 06-07-2014 20:20:00 26.1 C 14.93 g/m*3 26.1 C 1.6 km/h
1107 06-07-2014 20:25:00 25.8 C 11.8 g/m*3 25.8 C 30.6 km/h
1108 06-07-2014 20:30:00 24.9 C 11.45 g/m*3 24.9 C 25.7 km/h
1109 06-07-2014 20:35:00 24.2 C 11.44 g/m*3 24.2 C 24.1 km/h
1110 06-07-2014 20:40:00 23.4 C 11.57 g/m*3 23.4 C 22.5 km/h
1111 06-07-2014 20:45:00 22.8 C 11.79 g/m*3 22.8 C 16.1 km/h
1112 06-07-2014 20:50:00 22.3 C 12.05 g/m*3 22.3 C 11.3 km/h
1113 06-07-2014 20:55:00 21.8 C 12.09 g/m*3 21.8 C 17.7 km/h
1114 06-07-2014 21:00:00 21.5 C 12.26 g/m*3 21.5 C 14.5 km/h
1115 06-07-2014 21:05:00 21.3 C 12.12 g/m*3 21.3 C 9.7 km/h
1116 06-07-2014 21:10:00 21.3 C 12.12 g/m*3 21.3 C 12.9 km/h
1117 06-07-2014 21:15:00 21.2 C 12.23 g/m*3 21.2 C 22.5 km/h
1118 06-07-2014 21:20:00 21.1 C 13.08 g/m*3 21.1 C 25.7 km/h
1119 06-07-2014 21:25:00 20.4 C 13.27 g/m*3 20.4 C 19.3 km/h
1120 06-07-2014 21:30:00 19.7 C 13.25 g/m*3 19.7 C 9.7 km/h
1121 06-07-2014 21:35:00 19.2 C 13.52 g/m*3 19.2 C 4.8 km/h
1122 06-07-2014 21:40:00 18.8 C 13.53 g/m*3 18.8 C 4.8 km/h
1123 06-07-2014 21:45:00 18.6 C 13.69 g/m*3 18.6 C 4.8 km/h
1124 06-07-2014 21:50:00 18.3 C 13.45 g/m*3 18.3 C 1.6 km/h
1125 06-07-2014 21:55:00 18.3 C 13.45 g/m*3 18.3 C 0 km/h
Sensor: Nr:Datum:Temp:Abs-Feuchte:Windchill:Wind:
Aussen-T/F 1126 06-07-2014 22:00:00 18.2 C 13.83 g/m*3 18.2 C 1.6 km/h
1127 06-07-2014 22:05:00 18.1 C 14.06 g/m*3 18.1 C 1.6 km/h
1128 06-07-2014 22:10:00 18 C 13.98 g/m*3 18 C 0 km/h
1129 06-07-2014 22:15:00 18 C 13.98 g/m*3 18 C 0 km/h
1130 06-07-2014 22:20:00 18 C 13.98 g/m*3 18 C 0 km/h
1131 06-07-2014 22:25:00 17.7 C 13.88 g/m*3 17.7 C 1.6 km/h
1132 06-07-2014 22:30:00 17.7 C 13.88 g/m*3 17.7 C 0 km/h
1133 06-07-2014 22:35:00 17.5 C 13.87 g/m*3 17.5 C 0 km/h
1134 06-07-2014 22:40:00 17.4 C 13.78 g/m*3 17.4 C 0 km/h
1135 06-07-2014 22:45:00 17.4 C 13.93 g/m*3 17.4 C 0 km/h
1136 06-07-2014 22:50:00 17.4 C 13.93 g/m*3 17.4 C 0 km/h
1137 07-07-2014 01:10:00 17.7 C 14.03 g/m*3 17.7 C 1.6 km/h
1138 07-07-2014 01:15:00 17.7 C 14.03 g/m*3 17.7 C 1.6 km/h
1139 07-07-2014 01:20:00 17.8 C 14.12 g/m*3 17.8 C 4.8 km/h
1140 07-07-2014 01:25:00 17.8 C 14.12 g/m*3 17.8 C 1.6 km/h
1141 07-07-2014 01:30:00 17.9 C 14.05 g/m*3 17.9 C 3.2 km/h
1142 07-07-2014 01:35:00 17.9 C 14.05 g/m*3 17.9 C 1.6 km/h
1143 07-07-2014 01:40:00 17.9 C 14.05 g/m*3 17.9 C 0 km/h
1144 07-07-2014 01:45:00 17.9 C 14.05 g/m*3 17.9 C 0 km/h
1145 07-07-2014 02:25:00 17.4 C 13.63 g/m*3 17.4 C 11.3 km/h
1146 07-07-2014 02:30:00 17.3 C 13.41 g/m*3 17.3 C 8.1 km/h
1147 07-07-2014 02:35:00 17.3 C 13.41 g/m*3 17.3 C 8.1 km/h
1148 07-07-2014 02:40:00 17.2 C 13.33 g/m*3 17.2 C 9.7 km/h
1149 07-07-2014 02:45:00 17.2 C 13.33 g/m*3 17.2 C 8.1 km/h
1150 07-07-2014 02:50:00 17.2 C 13.33 g/m*3 17.2 C 4.8 km/h
Sensor: Nr:Datum:Temp:Abs-Feuchte:Windchill:Wind:
Aussen-T/F 1151 07-07-2014 02:55:00 17.1 C 13.25 g/m*3 17.1 C 8.1 km/h
1152 07-07-2014 03:00:00 17 C 13.02 g/m*3 17 C 11.3 km/h
1153 07-07-2014 03:05:00 16.9 C 12.94 g/m*3 16.9 C 6.4 km/h
1154 07-07-2014 03:10:00 16.8 C 12.72 g/m*3 16.8 C 14.5 km/h
1155 07-07-2014 03:15:00 16.8 C 12.72 g/m*3 16.8 C 6.4 km/h
1156 07-07-2014 03:20:00 16.7 C 12.65 g/m*3 16.7 C 4.8 km/h
1157 07-07-2014 03:25:00 16.7 C 12.79 g/m*3 16.7 C 3.2 km/h
1158 07-07-2014 03:30:00 16.6 C 12.86 g/m*3 16.6 C 3.2 km/h
1159 07-07-2014 03:35:00 16.4 C 12.56 g/m*3 16.4 C 0 km/h
1160 07-07-2014 03:40:00 16.3 C 12.49 g/m*3 16.3 C 3.2 km/h
1161 07-07-2014 03:45:00 16.2 C 12.41 g/m*3 16.2 C 4.8 km/h
1162 07-07-2014 03:50:00 16.2 C 12.55 g/m*3 16.2 C 0 km/h
1163 07-07-2014 03:55:00 16.1 C 12.47 g/m*3 16.1 C 0 km/h
1164 07-07-2014 04:00:00 16 C 12.53 g/m*3 16 C 1.6 km/h
1165 07-07-2014 04:05:00 15.9 C 12.32 g/m*3 15.9 C 1.6 km/h
1166 07-07-2014 04:10:00 15.8 C 12.38 g/m*3 15.8 C 1.6 km/h
1167 07-07-2014 04:15:00 15.8 C 12.38 g/m*3 15.8 C 3.2 km/h
1168 07-07-2014 04:20:00 15.7 C 12.31 g/m*3 15.7 C 0 km/h
1169 07-07-2014 04:25:00 15.7 C 12.31 g/m*3 15.7 C 1.6 km/h
1170 07-07-2014 04:30:00 15.6 C 12.23 g/m*3 15.6 C 1.6 km/h
1171 07-07-2014 04:35:00 15.6 C 12.23 g/m*3 15.6 C 1.6 km/h
1172 07-07-2014 04:40:00 15.4 C 11.96 g/m*3 15.4 C 1.6 km/h
1173 07-07-2014 04:45:00 15.4 C 12.09 g/m*3 15.4 C 1.6 km/h
1174 07-07-2014 04:50:00 15.3 C 12.01 g/m*3 15.3 C 0 km/h
1175 07-07-2014 04:55:00 15.2 C 11.94 g/m*3 15.2 C 0 km/h
Sensor: Nr:Datum:Temp:Abs-Feuchte:Windchill:Wind:
Aussen-T/F 1176 07-07-2014 05:00:00 15.2 C 11.94 g/m*3 15.2 C 1.6 km/h
1177 07-07-2014 05:05:00 15.2 C 12.07 g/m*3 15.2 C 0 km/h
1178 07-07-2014 05:10:00 15.1 C 12 g/m*3 15.1 C 0 km/h
1179 07-07-2014 05:15:00 14.9 C 11.85 g/m*3 14.9 C 0 km/h
1180 07-07-2014 05:20:00 14.8 C 11.78 g/m*3 14.8 C 0 km/h
1181 07-07-2014 05:25:00 14.6 C 11.64 g/m*3 14.6 C 1.6 km/h
1182 07-07-2014 05:30:00 14.5 C 11.57 g/m*3 14.5 C 0 km/h
1183 07-07-2014 05:35:00 14.4 C 11.62 g/m*3 14.4 C 0 km/h
1184 07-07-2014 05:40:00 14.3 C 11.55 g/m*3 14.3 C 0 km/h
1185 07-07-2014 05:45:00 14.1 C 11.41 g/m*3 14.1 C 0 km/h
1186 07-07-2014 05:50:00 14 C 11.34 g/m*3 14 C 0 km/h
1187 07-07-2014 05:55:00 13.9 C 11.27 g/m*3 13.9 C 0 km/h
1188 07-07-2014 06:00:00 13.9 C 11.27 g/m*3 13.9 C 0 km/h
1189 07-07-2014 06:05:00 13.9 C 11.39 g/m*3 13.9 C 0 km/h
1190 07-07-2014 06:10:00 14 C 11.46 g/m*3 14 C 0 km/h
1191 07-07-2014 06:15:00 14.1 C 11.53 g/m*3 14.1 C 0 km/h
1192 07-07-2014 06:20:00 14.2 C 11.6 g/m*3 14.2 C 0 km/h
1193 07-07-2014 06:25:00 14.3 C 11.67 g/m*3 14.3 C 0 km/h
1194 07-07-2014 06:30:00 14.4 C 11.74 g/m*3 14.4 C 0 km/h
1195 07-07-2014 06:35:00 14.4 C 11.62 g/m*3 14.4 C 0 km/h
1196 07-07-2014 06:40:00 14.6 C 11.76 g/m*3 14.6 C 0 km/h
1197 07-07-2014 06:45:00 14.7 C 11.83 g/m*3 14.7 C 1.6 km/h
1198 07-07-2014 06:50:00 14.9 C 11.98 g/m*3 14.9 C 0 km/h
1199 07-07-2014 06:55:00 15 C 12.05 g/m*3 15 C 0 km/h
1200 07-07-2014 07:00:00 15.1 C 12 g/m*3 15.1 C 0 km/h
Sensor: Nr:Datum:Temp:Abs-Feuchte:Windchill:Wind:
Aussen-T/F 1201 07-07-2014 07:05:00 15.1 C 11.74 g/m*3 15.1 C 0 km/h
1202 07-07-2014 07:10:00 15.2 C 11.68 g/m*3 15.2 C 0 km/h
1203 07-07-2014 07:15:00 15.3 C 11.88 g/m*3 15.3 C 0 km/h
1204 07-07-2014 07:20:00 15.3 C 11.75 g/m*3 15.3 C 0 km/h
1205 07-07-2014 07:25:00 15.4 C 11.82 g/m*3 15.4 C 0 km/h
1206 07-07-2014 07:30:00 15.4 C 11.82 g/m*3 15.4 C 0 km/h
1207 07-07-2014 07:35:00 15.5 C 11.76 g/m*3 15.5 C 0 km/h
1208 07-07-2014 07:40:00 15.6 C 11.97 g/m*3 15.6 C 0 km/h
1209 07-07-2014 07:45:00 15.6 C 11.84 g/m*3 15.6 C 0 km/h
1210 07-07-2014 07:50:00 15.5 C 11.63 g/m*3 15.5 C 0 km/h
1211 07-07-2014 07:55:00 15.5 C 11.76 g/m*3 15.5 C 0 km/h
1212 07-07-2014 08:00:00 15.6 C 11.84 g/m*3 15.6 C 0 km/h
1213 07-07-2014 08:05:00 15.6 C 11.7 g/m*3 15.6 C 0 km/h
1214 07-07-2014 08:10:00 15.7 C 11.77 g/m*3 15.7 C 1.6 km/h
1215 07-07-2014 08:15:00 15.7 C 11.64 g/m*3 15.7 C 0 km/h
1216 07-07-2014 08:20:00 15.7 C 11.64 g/m*3 15.7 C 0 km/h
1217 07-07-2014 08:25:00 15.8 C 11.58 g/m*3 15.8 C 1.6 km/h
1218 07-07-2014 08:30:00 15.8 C 11.71 g/m*3 15.8 C 0 km/h
1219 07-07-2014 08:35:00 15.9 C 11.65 g/m*3 15.9 C 0 km/h
1220 07-07-2014 08:40:00 16 C 11.85 g/m*3 16 C 0 km/h
1221 07-07-2014 08:45:00 16.1 C 11.79 g/m*3 16.1 C 0 km/h
1222 07-07-2014 08:50:00 16.2 C 11.86 g/m*3 16.2 C 0 km/h
1223 07-07-2014 08:55:00 16.3 C 12.07 g/m*3 16.3 C 0 km/h
1224 07-07-2014 09:00:00 16.4 C 11.17 g/m*3 16.4 C 3.2 km/h
1225 07-07-2014 09:05:00 16.6 C 10.74 g/m*3 16.6 C 3.2 km/h
Sensor: Nr:Datum:Temp:Abs-Feuchte:Windchill:Wind:
Aussen-T/F 1226 07-07-2014 09:10:00 16.7 C 10.37 g/m*3 16.7 C 6.4 km/h
1227 07-07-2014 09:15:00 16.8 C 10.29 g/m*3 16.8 C 4.8 km/h
1228 07-07-2014 09:20:00 16.8 C 10.15 g/m*3 16.8 C 4.8 km/h
1229 07-07-2014 09:25:00 16.9 C 10.07 g/m*3 16.9 C 8.1 km/h
1230 07-07-2014 09:30:00 16.9 C 9.92 g/m*3 16.9 C 6.4 km/h
1231 07-07-2014 09:35:00 16.9 C 9.92 g/m*3 16.9 C 4.8 km/h
1232 07-07-2014 09:40:00 16.9 C 9.78 g/m*3 16.9 C 3.2 km/h
1233 07-07-2014 09:45:00 16.9 C 9.64 g/m*3 16.9 C 8.1 km/h
1234 07-07-2014 09:50:00 16.8 C 9.29 g/m*3 16.8 C 4.8 km/h
1235 07-07-2014 09:55:00 16.8 C 9.29 g/m*3 16.8 C 6.4 km/h
1236 07-07-2014 10:00:00 16.8 C 9.58 g/m*3 16.8 C 6.4 km/h
1237 07-07-2014 10:05:00 16.9 C 9.78 g/m*3 16.9 C 3.2 km/h
1238 07-07-2014 10:10:00 17.3 C 10.02 g/m*3 17.3 C 3.2 km/h
1239 07-07-2014 10:15:00 17.6 C 9.9 g/m*3 17.6 C 4.8 km/h
1240 07-07-2014 10:20:00 17.8 C 9.71 g/m*3 17.8 C 6.4 km/h
1241 07-07-2014 10:25:00 18.2 C 9.95 g/m*3 18.2 C 4.8 km/h
1242 07-07-2014 10:30:00 18.4 C 10.22 g/m*3 18.4 C 4.8 km/h
1243 07-07-2014 10:35:00 18.6 C 10.5 g/m*3 18.6 C 8.1 km/h
1244 07-07-2014 10:40:00 18.8 C 10.47 g/m*3 18.8 C 3.2 km/h
1245 07-07-2014 10:45:00 18.8 C 10.31 g/m*3 18.8 C 8.1 km/h
1246 07-07-2014 10:50:00 18.8 C 10.63 g/m*3 18.8 C 3.2 km/h
1247 07-07-2014 10:55:00 19.1 C 9.84 g/m*3 19.1 C 8.1 km/h
1248 07-07-2014 11:00:00 19.3 C 9.62 g/m*3 19.3 C 6.4 km/h
1249 07-07-2014 11:05:00 19.4 C 9.68 g/m*3 19.4 C 8.1 km/h
1250 07-07-2014 11:10:00 19.4 C 9.51 g/m*3 19.4 C 4.8 km/h
Sensor: Nr:Datum:Temp:Abs-Feuchte:Windchill:Wind:
Aussen-T/F 1251 07-07-2014 11:15:00 19.4 C 9.68 g/m*3 19.4 C 4.8 km/h
1252 07-07-2014 11:20:00 19.3 C 9.45 g/m*3 19.3 C 4.8 km/h
1253 07-07-2014 11:25:00 19.3 C 9.45 g/m*3 19.3 C 3.2 km/h
1254 07-07-2014 11:30:00 19.4 C 9.34 g/m*3 19.4 C 8.1 km/h
1255 07-07-2014 11:35:00 19.4 C 9.34 g/m*3 19.4 C 3.2 km/h
1256 07-07-2014 11:40:00 19.4 C 9.51 g/m*3 19.4 C 6.4 km/h
1257 07-07-2014 11:45:00 19.7 C 9.17 g/m*3 19.7 C 6.4 km/h
1258 07-07-2014 11:50:00 19.9 C 9.11 g/m*3 19.9 C 8.1 km/h
1259 07-07-2014 11:55:00 20.1 C 9.56 g/m*3 20.1 C 4.8 km/h
1260 07-07-2014 12:00:00 20.3 C 9.32 g/m*3 20.3 C 4.8 km/h
1261 07-07-2014 12:05:00 20.6 C 9.31 g/m*3 20.6 C 6.4 km/h
1262 07-07-2014 12:10:00 20.6 C 9.66 g/m*3 20.6 C 4.8 km/h
1263 07-07-2014 12:15:00 20.5 C 9.25 g/m*3 20.5 C 4.8 km/h
1264 07-07-2014 12:20:00 20.7 C 9.9 g/m*3 20.7 C 6.4 km/h
1265 07-07-2014 12:25:00 20.9 C 8.92 g/m*3 20.9 C 3.2 km/h
1266 07-07-2014 12:30:00 21.2 C 9.64 g/m*3 21.2 C 9.7 km/h
1267 07-07-2014 12:35:00 21.4 C 9.19 g/m*3 21.4 C 8.1 km/h
1268 07-07-2014 12:40:00 21.7 C 10.11 g/m*3 21.7 C 6.4 km/h
1269 07-07-2014 12:45:00 21.9 C 9.84 g/m*3 21.9 C 9.7 km/h
1270 07-07-2014 12:50:00 21.8 C 9.21 g/m*3 21.8 C 4.8 km/h
1271 07-07-2014 12:55:00 21.7 C 9.73 g/m*3 21.7 C 9.7 km/h
1272 07-07-2014 13:00:00 21.8 C 9.59 g/m*3 21.8 C 6.4 km/h
1273 07-07-2014 13:05:00 21.8 C 9.78 g/m*3 21.8 C 6.4 km/h
1274 07-07-2014 13:10:00 21.8 C 9.4 g/m*3 21.8 C 4.8 km/h
1275 07-07-2014 13:15:00 21.7 C 9.92 g/m*3 21.7 C 6.4 km/h
Sensor: Nr:Datum:Temp:Abs-Feuchte:Windchill:Wind:
Aussen-T/F 1276 07-07-2014 13:20:00 21.8 C 9.78 g/m*3 21.8 C 8.1 km/h
1277 07-07-2014 13:25:00 21.8 C 9.21 g/m*3 21.8 C 6.4 km/h
1278 07-07-2014 13:30:00 21.7 C 9.73 g/m*3 21.7 C 4.8 km/h
1279 07-07-2014 13:35:00 21.8 C 10.55 g/m*3 21.8 C 4.8 km/h
1280 07-07-2014 13:40:00 21.8 C 9.4 g/m*3 21.8 C 6.4 km/h
1281 07-07-2014 13:45:00 21.7 C 9.92 g/m*3 21.7 C 3.2 km/h
1282 07-07-2014 13:50:00 21.8 C 9.4 g/m*3 21.8 C 4.8 km/h
1283 07-07-2014 13:55:00 21.9 C 9.65 g/m*3 21.9 C 3.2 km/h
1284 07-07-2014 14:00:00 22.2 C 9.82 g/m*3 22.2 C 6.4 km/h
1285 07-07-2014 14:05:00 22.4 C 9.73 g/m*3 22.4 C 6.4 km/h
1286 07-07-2014 14:10:00 22.7 C 9.9 g/m*3 22.7 C 6.4 km/h
1287 07-07-2014 14:15:00 22.7 C 10.1 g/m*3 22.7 C 6.4 km/h
1288 07-07-2014 14:20:00 22.9 C 10.01 g/m*3 22.9 C 4.8 km/h
1289 07-07-2014 14:25:00 22.9 C 8.79 g/m*3 22.9 C 3.2 km/h
1290 07-07-2014 14:30:00 23.1 C 9.92 g/m*3 23.1 C 9.7 km/h
1291 07-07-2014 14:35:00 23.3 C 9.2 g/m*3 23.3 C 9.7 km/h
1292 07-07-2014 14:40:00 23.4 C 9.25 g/m*3 23.4 C 8.1 km/h
1293 07-07-2014 14:45:00 23.5 C 9.31 g/m*3 23.5 C 9.7 km/h
1294 07-07-2014 14:50:00 23.4 C 9.25 g/m*3 23.4 C 6.4 km/h
1295 07-07-2014 14:55:00 23.3 C 9.41 g/m*3 23.3 C 8.1 km/h
1296 07-07-2014 15:00:00 23.4 C 9.25 g/m*3 23.4 C 4.8 km/h
1297 07-07-2014 15:05:00 23.4 C 8.62 g/m*3 23.4 C 11.3 km/h
1298 07-07-2014 15:10:00 23.3 C 9.2 g/m*3 23.3 C 6.4 km/h
1299 07-07-2014 15:15:00 23.6 C 9.78 g/m*3 23.6 C 4.8 km/h
1300 07-07-2014 15:20:00 23.9 C 9.3 g/m*3 23.9 C 6.4 km/h
Sensor: Nr:Datum:Temp:Abs-Feuchte:Windchill:Wind:
Aussen-T/F 1301 07-07-2014 15:25:00 24.1 C 8.53 g/m*3 24.1 C 3.2 km/h
1302 07-07-2014 15:30:00 24.2 C 9.24 g/m*3 24.2 C 9.7 km/h
1303 07-07-2014 15:35:00 24.3 C 8.63 g/m*3 24.3 C 6.4 km/h
1304 07-07-2014 15:40:00 24.4 C 8.68 g/m*3 24.4 C 9.7 km/h
1305 07-07-2014 15:45:00 24.2 C 9.24 g/m*3 24.2 C 9.7 km/h
1306 07-07-2014 15:50:00 24.2 C 8.58 g/m*3 24.2 C 8.1 km/h
1307 07-07-2014 15:55:00 24.3 C 9.29 g/m*3 24.3 C 9.7 km/h
1308 07-07-2014 16:00:00 24.3 C 8.85 g/m*3 24.3 C 8.1 km/h
1309 07-07-2014 16:05:00 24.2 C 9.02 g/m*3 24.2 C 11.3 km/h
1310 07-07-2014 16:10:00 24 C 9.14 g/m*3 24 C 11.3 km/h
1311 07-07-2014 16:15:00 23.8 C 8.39 g/m*3 23.8 C 9.7 km/h
1312 07-07-2014 16:20:00 23.8 C 8.39 g/m*3 23.8 C 4.8 km/h
1313 07-07-2014 16:25:00 24.1 C 8.53 g/m*3 24.1 C 9.7 km/h
1314 07-07-2014 16:30:00 24.4 C 8.46 g/m*3 24.4 C 8.1 km/h
1315 07-07-2014 16:35:00 24.3 C 7.97 g/m*3 24.3 C 6.4 km/h
1316 07-07-2014 16:40:00 24.4 C 8.9 g/m*3 24.4 C 6.4 km/h
1317 07-07-2014 16:45:00 24.5 C 9.18 g/m*3 24.5 C 9.7 km/h
1318 07-07-2014 16:50:00 24.6 C 8.78 g/m*3 24.6 C 9.7 km/h
1319 07-07-2014 16:55:00 24.5 C 8.5 g/m*3 24.5 C 14.5 km/h
1320 07-07-2014 17:00:00 24.3 C 8.63 g/m*3 24.3 C 8.1 km/h
1321 07-07-2014 17:05:00 24.4 C 8.9 g/m*3 24.4 C 8.1 km/h
1322 07-07-2014 17:10:00 24.6 C 9.68 g/m*3 24.6 C 9.7 km/h
1323 07-07-2014 17:15:00 25.1 C 8.8 g/m*3 25.1 C 9.7 km/h
1324 07-07-2014 17:20:00 25.1 C 9.03 g/m*3 25.1 C 14.5 km/h
1325 07-07-2014 17:25:00 25.4 C 8.95 g/m*3 25.4 C 11.3 km/h
Sensor: Nr:Datum:Temp:Abs-Feuchte:Windchill:Wind:
Aussen-T/F 1326 07-07-2014 17:30:00 25.6 C 8.81 g/m*3 25.6 C 11.3 km/h
1327 07-07-2014 17:35:00 25.9 C 9.68 g/m*3 25.9 C 11.3 km/h
1328 07-07-2014 17:40:00 25.9 C 9.2 g/m*3 25.9 C 9.7 km/h
1329 07-07-2014 17:45:00 26 C 9.49 g/m*3 26 C 12.9 km/h
1330 07-07-2014 17:50:00 26.2 C 9.35 g/m*3 26.2 C 11.3 km/h
1331 07-07-2014 17:55:00 26.1 C 9.55 g/m*3 26.1 C 4.8 km/h
1332 07-07-2014 18:00:00 25.9 C 9.93 g/m*3 25.9 C 6.4 km/h
1333 07-07-2014 18:05:00 26.1 C 9.06 g/m*3 26.1 C 9.7 km/h
1334 07-07-2014 18:10:00 26 C 9.74 g/m*3 26 C 8.1 km/h
1335 07-07-2014 18:15:00 25.9 C 9.44 g/m*3 25.9 C 11.3 km/h
1336 07-07-2014 18:20:00 26.3 C 9.41 g/m*3 26.3 C 6.4 km/h
1337 07-07-2014 18:25:00 26.4 C 9.21 g/m*3 26.4 C 9.7 km/h
1338 07-07-2014 18:30:00 26.1 C 9.3 g/m*3 26.1 C 9.7 km/h
1339 07-07-2014 18:35:00 26.1 C 9.3 g/m*3 26.1 C 11.3 km/h
1340 07-07-2014 18:40:00 26.2 C 9.11 g/m*3 26.2 C 4.8 km/h
1341 07-07-2014 18:45:00 26.1 C 9.06 g/m*3 26.1 C 12.9 km/h
1342 07-07-2014 18:50:00 25.8 C 9.15 g/m*3 25.8 C 6.4 km/h
1343 07-07-2014 18:55:00 25.7 C 9.34 g/m*3 25.7 C 4.8 km/h
1344 07-07-2014 19:00:00 25.6 C 9.52 g/m*3 25.6 C 6.4 km/h
1345 07-07-2014 19:05:00 25.7 C 9.58 g/m*3 25.7 C 12.9 km/h
1346 07-07-2014 19:10:00 25.7 C 9.34 g/m*3 25.7 C 9.7 km/h
1347 07-07-2014 19:15:00 25.7 C 9.58 g/m*3 25.7 C 8.1 km/h
1348 07-07-2014 19:20:00 25.7 C 9.1 g/m*3 25.7 C 12.9 km/h
1349 07-07-2014 19:25:00 25.2 C 9.08 g/m*3 25.2 C 9.7 km/h
1350 07-07-2014 19:30:00 24.9 C 8.93 g/m*3 24.9 C 8.1 km/h
Sensor: Nr:Datum:Temp:Abs-Feuchte:Windchill:Wind:
Aussen-T/F 1351 07-07-2014 19:35:00 24.7 C 9.51 g/m*3 24.7 C 9.7 km/h
1352 07-07-2014 19:40:00 24.4 C 9.57 g/m*3 24.4 C 6.4 km/h
1353 07-07-2014 19:45:00 24.2 C 9.9 g/m*3 24.2 C 3.2 km/h
1354 07-07-2014 19:50:00 24.1 C 9.41 g/m*3 24.1 C 3.2 km/h
1355 07-07-2014 19:55:00 23.9 C 9.74 g/m*3 23.9 C 6.4 km/h
1356 07-07-2014 20:00:00 23.9 C 9.95 g/m*3 23.9 C 11.3 km/h
1357 07-07-2014 20:05:00 23.9 C 10.17 g/m*3 23.9 C 6.4 km/h
1358 07-07-2014 20:10:00 23.8 C 10.33 g/m*3 23.8 C 6.4 km/h
1359 07-07-2014 20:15:00 23.7 C 10.05 g/m*3 23.7 C 11.3 km/h
1360 07-07-2014 20:20:00 23.7 C 10.05 g/m*3 23.7 C 8.1 km/h
1361 07-07-2014 20:25:00 23.5 C 9.73 g/m*3 23.5 C 8.1 km/h
1362 07-07-2014 20:30:00 23.3 C 9.83 g/m*3 23.3 C 4.8 km/h
1363 07-07-2014 20:35:00 22.9 C 9.81 g/m*3 22.9 C 6.4 km/h
1364 07-07-2014 20:40:00 22.8 C 9.75 g/m*3 22.8 C 4.8 km/h
1365 07-07-2014 20:45:00 22.6 C 9.84 g/m*3 22.6 C 4.8 km/h
1366 07-07-2014 20:50:00 22.4 C 9.73 g/m*3 22.4 C 1.6 km/h
1367 07-07-2014 20:55:00 22.3 C 10.07 g/m*3 22.3 C 1.6 km/h
1368 07-07-2014 21:00:00 22.2 C 10.21 g/m*3 22.2 C 0 km/h
1369 07-07-2014 21:05:00 21.9 C 11 g/m*3 21.9 C 0 km/h
1370 07-07-2014 21:10:00 21.7 C 10.87 g/m*3 21.7 C 0 km/h
1371 07-07-2014 21:15:00 21.3 C 10.62 g/m*3 21.3 C 1.6 km/h
1372 07-07-2014 21:20:00 21.1 C 11.06 g/m*3 21.1 C 0 km/h
1373 07-07-2014 21:25:00 20.9 C 11.11 g/m*3 20.9 C 0 km/h
1374 07-07-2014 21:30:00 20.7 C 10.98 g/m*3 20.7 C 0 km/h
1375 07-07-2014 21:35:00 20.6 C 10.92 g/m*3 20.6 C 1.6 km/h
Sensor: Nr:Datum:Temp:Abs-Feuchte:Windchill:Wind:
Aussen-T/F 1376 07-07-2014 21:40:00 20.4 C 10.79 g/m*3 20.4 C 0 km/h
1377 07-07-2014 21:45:00 20.4 C 11.14 g/m*3 20.4 C 0 km/h
1378 07-07-2014 21:50:00 20.3 C 11.08 g/m*3 20.3 C 0 km/h
1379 07-07-2014 21:55:00 20.1 C 10.78 g/m*3 20.1 C 1.6 km/h
1380 07-07-2014 22:00:00 19.9 C 10.82 g/m*3 19.9 C 1.6 km/h
1381 07-07-2014 22:05:00 19.8 C 10.76 g/m*3 19.8 C 0 km/h
1382 07-07-2014 22:10:00 19.7 C 10.87 g/m*3 19.7 C 1.6 km/h
1383 07-07-2014 22:15:00 19.5 C 10.74 g/m*3 19.5 C 0 km/h
1384 07-07-2014 22:20:00 19.4 C 11.01 g/m*3 19.4 C 0 km/h
1385 07-07-2014 22:25:00 19.3 C 11.11 g/m*3 19.3 C 0 km/h
1386 07-07-2014 22:30:00 19.2 C 11.05 g/m*3 19.2 C 0 km/h
1387 07-07-2014 22:35:00 19.1 C 10.98 g/m*3 19.1 C 0 km/h
1388 07-07-2014 22:40:00 19 C 10.92 g/m*3 19 C 0 km/h
1389 07-07-2014 22:45:00 19 C 11.41 g/m*3 19 C 0 km/h
1390 07-07-2014 22:50:00 19 C 11.24 g/m*3 19 C 0 km/h
1391 07-07-2014 22:55:00 19 C 11.41 g/m*3 19 C 0 km/h
1392 07-07-2014 23:00:00 19 C 11.41 g/m*3 19 C 0 km/h
1393 07-07-2014 23:05:00 19 C 11.08 g/m*3 19 C 3.2 km/h
1394 07-07-2014 23:10:00 19.2 C 10.72 g/m*3 19.2 C 8.1 km/h
1395 07-07-2014 23:15:00 19.4 C 10.84 g/m*3 19.4 C 0 km/h
1396 07-07-2014 23:20:00 19.6 C 11.14 g/m*3 19.6 C 3.2 km/h
1397 07-07-2014 23:25:00 19.5 C 11.24 g/m*3 19.5 C 0 km/h
1398 07-07-2014 23:30:00 19.4 C 11.01 g/m*3 19.4 C 4.8 km/h
1399 07-07-2014 23:35:00 19.4 C 11.18 g/m*3 19.4 C 0 km/h
1400 07-07-2014 23:40:00 19.3 C 11.11 g/m*3 19.3 C 0 km/h
Sensor: Nr:Datum:Temp:Abs-Feuchte:Windchill:Wind:
Aussen-T/F 1401 07-07-2014 23:45:00 19.2 C 11.05 g/m*3 19.2 C 1.6 km/h
1402 07-07-2014 23:50:00 19.2 C 11.21 g/m*3 19.2 C 0 km/h
1403 07-07-2014 23:55:00 19.2 C 11.05 g/m*3 19.2 C 0 km/h
1404 08-07-2014 00:00:00 19.1 C 11.15 g/m*3 19.1 C 0 km/h
1405 08-07-2014 00:05:00 19.1 C 11.15 g/m*3 19.1 C 0 km/h
1406 08-07-2014 00:10:00 19 C 11.41 g/m*3 19 C 0 km/h
1407 08-07-2014 00:15:00 18.9 C 11.02 g/m*3 18.9 C 3.2 km/h
1408 08-07-2014 00:20:00 19 C 10.92 g/m*3 19 C 3.2 km/h
1409 08-07-2014 00:25:00 19.1 C 10.82 g/m*3 19.1 C 0 km/h
1410 08-07-2014 00:30:00 19 C 10.92 g/m*3 19 C 0 km/h
1411 08-07-2014 00:35:00 18.8 C 10.95 g/m*3 18.8 C 0 km/h
1412 08-07-2014 00:40:00 18.6 C 10.82 g/m*3 18.6 C 0 km/h
1413 08-07-2014 00:45:00 18.4 C 10.85 g/m*3 18.4 C 0 km/h
1414 08-07-2014 00:50:00 18.3 C 11.26 g/m*3 18.3 C 1.6 km/h
1415 08-07-2014 00:55:00 18.3 C 11.1 g/m*3 18.3 C 0 km/h
1416 08-07-2014 01:00:00 18.2 C 11.19 g/m*3 18.2 C 0 km/h
1417 08-07-2014 01:05:00 18.2 C 11.19 g/m*3 18.2 C 0 km/h
1418 08-07-2014 01:10:00 18.1 C 11.28 g/m*3 18.1 C 0 km/h
1419 08-07-2014 01:15:00 18.1 C 11.28 g/m*3 18.1 C 1.6 km/h
1420 08-07-2014 01:20:00 18.1 C 11.28 g/m*3 18.1 C 0 km/h
1421 08-07-2014 01:25:00 18.1 C 11.28 g/m*3 18.1 C 0 km/h
1422 08-07-2014 01:30:00 18.1 C 11.12 g/m*3 18.1 C 0 km/h
1423 08-07-2014 01:35:00 18.2 C 10.72 g/m*3 18.2 C 8.1 km/h
1424 08-07-2014 01:40:00 18.4 C 11.01 g/m*3 18.4 C 0 km/h
1425 08-07-2014 01:45:00 18.5 C 11.08 g/m*3 18.5 C 1.6 km/h
Sensor: Nr:Datum:Temp:Abs-Feuchte:Windchill:Wind:
Aussen-T/F 1426 08-07-2014 01:50:00 18.6 C 11.14 g/m*3 18.6 C 1.6 km/h
1427 08-07-2014 01:55:00 18.5 C 11.23 g/m*3 18.5 C 0 km/h
1428 08-07-2014 02:00:00 18.3 C 11.26 g/m*3 18.3 C 0 km/h
1429 08-07-2014 02:05:00 18.2 C 11.19 g/m*3 18.2 C 0 km/h
1430 08-07-2014 02:10:00 18.1 C 11.12 g/m*3 18.1 C 0 km/h
1431 08-07-2014 02:15:00 18.1 C 11.28 g/m*3 18.1 C 0 km/h
1432 08-07-2014 02:20:00 18 C 11.52 g/m*3 18 C 0 km/h
1433 08-07-2014 02:25:00 17.8 C 11.38 g/m*3 17.8 C 0 km/h
1434 08-07-2014 02:30:00 17.8 C 11.54 g/m*3 17.8 C 0 km/h
1435 08-07-2014 02:35:00 17.7 C 11.47 g/m*3 17.7 C 0 km/h
1436 08-07-2014 02:40:00 17.7 C 11.62 g/m*3 17.7 C 0 km/h
1437 08-07-2014 02:45:00 17.7 C 11.62 g/m*3 17.7 C 0 km/h
1438 08-07-2014 02:50:00 17.6 C 11.4 g/m*3 17.6 C 0 km/h
1439 08-07-2014 02:55:00 17.6 C 11.55 g/m*3 17.6 C 0 km/h
1440 08-07-2014 03:00:00 17.6 C 11.55 g/m*3 17.6 C 0 km/h
1441 08-07-2014 03:05:00 17.5 C 11.78 g/m*3 17.5 C 0 km/h
1442 08-07-2014 03:10:00 17.3 C 11.79 g/m*3 17.3 C 0 km/h
1443 08-07-2014 03:15:00 17.2 C 12.01 g/m*3 17.2 C 0 km/h
1444 08-07-2014 03:20:00 17 C 12.15 g/m*3 17 C 1.6 km/h
1445 08-07-2014 03:25:00 16.8 C 12.44 g/m*3 16.8 C 1.6 km/h
1446 08-07-2014 03:30:00 16.7 C 12.36 g/m*3 16.7 C 1.6 km/h
1447 08-07-2014 03:35:00 16.7 C 12.36 g/m*3 16.7 C 1.6 km/h
1448 08-07-2014 04:30:00 15.3 C 13.06 g/m*3 15.3 C 8.1 km/h
1449 08-07-2014 04:35:00 15.2 C 12.2 g/m*3 15.2 C 0 km/h
1450 08-07-2014 04:40:00 15.2 C 12.2 g/m*3 15.2 C 4.8 km/h
Sensor: Nr:Datum:Temp:Abs-Feuchte:Windchill:Wind:
Aussen-T/F 1451 08-07-2014 04:45:00 15.1 C 12.13 g/m*3 15.1 C 4.8 km/h
1452 08-07-2014 04:50:00 15 C 12.05 g/m*3 15 C 8.1 km/h
1453 08-07-2014 04:55:00 15 C 12.05 g/m*3 15 C 3.2 km/h
1454 08-07-2014 05:00:00 15 C 12.05 g/m*3 15 C 4.8 km/h
1455 08-07-2014 05:05:00 15 C 12.05 g/m*3 15 C 4.8 km/h
1456 08-07-2014 05:10:00 15 C 12.05 g/m*3 15 C 3.2 km/h
1457 08-07-2014 07:15:00 14.8 C 12.16 g/m*3 14.8 C 3.2 km/h
1458 08-07-2014 07:20:00 14.8 C 12.16 g/m*3 14.8 C 3.2 km/h
1459 08-07-2014 07:35:00 14.8 C 12.67 g/m*3 14.8 C 1.6 km/h
1460 08-07-2014 07:40:00 14.8 C 12.16 g/m*3 14.8 C 4.8 km/h
1461 08-07-2014 07:45:00 14.8 C 12.03 g/m*3 14.8 C 1.6 km/h
1462 08-07-2014 07:50:00 14.8 C 12.16 g/m*3 14.8 C 0 km/h
1463 08-07-2014 07:55:00 14.9 C 12.24 g/m*3 14.9 C 0 km/h
1464 08-07-2014 08:00:00 14.9 C 12.11 g/m*3 14.9 C 8.1 km/h
1465 08-07-2014 08:05:00 14.9 C 12.11 g/m*3 14.9 C 3.2 km/h
1466 08-07-2014 08:10:00 14.9 C 12.11 g/m*3 14.9 C 6.4 km/h
1467 08-07-2014 08:15:00 14.9 C 12.11 g/m*3 14.9 C 3.2 km/h
1468 08-07-2014 08:20:00 15 C 12.18 g/m*3 15 C 3.2 km/h
1469 08-07-2014 08:25:00 15.1 C 12.39 g/m*3 15.1 C 0 km/h
1470 08-07-2014 08:30:00 15.1 C 12.39 g/m*3 15.1 C 6.4 km/h
1471 08-07-2014 08:35:00 15.1 C 12.26 g/m*3 15.1 C 3.2 km/h
1472 08-07-2014 08:40:00 15.1 C 12.39 g/m*3 15.1 C 3.2 km/h
1473 08-07-2014 08:45:00 15.1 C 12.26 g/m*3 15.1 C 8.1 km/h
1474 08-07-2014 08:50:00 15.2 C 12.46 g/m*3 15.2 C 1.6 km/h
1475 08-07-2014 08:55:00 15.2 C 12.33 g/m*3 15.2 C 1.6 km/h
Sensor: Nr:Datum:Temp:Abs-Feuchte:Windchill:Wind:
Aussen-T/F 1476 08-07-2014 09:00:00 15.2 C 12.46 g/m*3 15.2 C 3.2 km/h
1477 08-07-2014 09:05:00 15.2 C 12.33 g/m*3 15.2 C 0 km/h
1478 08-07-2014 09:10:00 15.3 C 12.41 g/m*3 15.3 C 3.2 km/h
1479 08-07-2014 09:15:00 15.3 C 12.41 g/m*3 15.3 C 3.2 km/h
1480 08-07-2014 09:20:00 15.3 C 12.41 g/m*3 15.3 C 1.6 km/h
1481 08-07-2014 09:25:00 15.3 C 12.41 g/m*3 15.3 C 4.8 km/h
1482 08-07-2014 09:30:00 15.4 C 12.48 g/m*3 15.4 C 3.2 km/h
1483 08-07-2014 09:35:00 15.4 C 12.61 g/m*3 15.4 C 4.8 km/h
1484 08-07-2014 09:40:00 15.4 C 12.48 g/m*3 15.4 C 4.8 km/h
1485 08-07-2014 09:45:00 15.5 C 12.56 g/m*3 15.5 C 1.6 km/h
1486 08-07-2014 09:50:00 15.5 C 12.56 g/m*3 15.5 C 3.2 km/h
1487 08-07-2014 09:55:00 15.4 C 12.48 g/m*3 15.4 C 6.4 km/h
1488 08-07-2014 10:00:00 15.4 C 12.48 g/m*3 15.4 C 9.7 km/h
1489 08-07-2014 10:05:00 15.4 C 12.48 g/m*3 15.4 C 4.8 km/h
1490 08-07-2014 10:10:00 15.4 C 12.48 g/m*3 15.4 C 8.1 km/h
1491 08-07-2014 10:15:00 15.4 C 12.35 g/m*3 15.4 C 11.3 km/h
1492 08-07-2014 10:20:00 15.5 C 12.43 g/m*3 15.5 C 8.1 km/h
1493 08-07-2014 10:25:00 15.5 C 12.56 g/m*3 15.5 C 9.7 km/h
1494 08-07-2014 10:30:00 15.5 C 12.43 g/m*3 15.5 C 8.1 km/h
1495 08-07-2014 10:35:00 15.6 C 12.5 g/m*3 15.6 C 3.2 km/h
1496 08-07-2014 10:40:00 15.6 C 12.63 g/m*3 15.6 C 3.2 km/h
1497 08-07-2014 10:45:00 15.6 C 12.5 g/m*3 15.6 C 9.7 km/h
1498 08-07-2014 10:50:00 15.6 C 12.5 g/m*3 15.6 C 3.2 km/h
1499 08-07-2014 10:55:00 15.6 C 12.5 g/m*3 15.6 C 3.2 km/h
1500 08-07-2014 11:00:00 15.6 C 12.63 g/m*3 15.6 C 0 km/h
Sensor: Nr:Datum:Temp:Abs-Feuchte:Windchill:Wind:
Aussen-T/F 1501 08-07-2014 11:05:00 15.6 C 12.63 g/m*3 15.6 C 0 km/h
1502 08-07-2014 11:10:00 15.6 C 12.63 g/m*3 15.6 C 3.2 km/h
1503 08-07-2014 11:15:00 15.5 C 12.56 g/m*3 15.5 C 0 km/h
1504 08-07-2014 11:20:00 15.4 C 12.48 g/m*3 15.4 C 9.7 km/h
1505 08-07-2014 11:25:00 15.5 C 12.56 g/m*3 15.5 C 1.6 km/h
1506 08-07-2014 11:30:00 15.4 C 12.48 g/m*3 15.4 C 4.8 km/h
1507 08-07-2014 11:35:00 15.4 C 12.48 g/m*3 15.4 C 1.6 km/h
1508 08-07-2014 11:40:00 15.4 C 12.48 g/m*3 15.4 C 3.2 km/h
1509 08-07-2014 11:45:00 15.5 C 12.56 g/m*3 15.5 C 6.4 km/h
1510 08-07-2014 11:50:00 15.5 C 12.56 g/m*3 15.5 C 4.8 km/h
1511 08-07-2014 11:55:00 15.5 C 12.56 g/m*3 15.5 C 6.4 km/h
1512 08-07-2014 12:00:00 15.5 C 12.56 g/m*3 15.5 C 0 km/h
1513 08-07-2014 12:05:00 15.4 C 12.48 g/m*3 15.4 C 0 km/h
1514 08-07-2014 12:10:00 15.4 C 12.48 g/m*3 15.4 C 0 km/h
1515 08-07-2014 12:15:00 15.5 C 12.56 g/m*3 15.5 C 1.6 km/h
1516 08-07-2014 12:20:00 15.5 C 12.56 g/m*3 15.5 C 3.2 km/h
1517 08-07-2014 12:25:00 15.6 C 12.63 g/m*3 15.6 C 0 km/h
1518 08-07-2014 12:30:00 15.6 C 12.63 g/m*3 15.6 C 0 km/h
1519 08-07-2014 12:35:00 15.7 C 12.71 g/m*3 15.7 C 0 km/h
1520 08-07-2014 12:40:00 15.6 C 12.63 g/m*3 15.6 C 3.2 km/h
1521 08-07-2014 12:45:00 15.7 C 12.71 g/m*3 15.7 C 3.2 km/h
1522 08-07-2014 12:50:00 15.7 C 12.84 g/m*3 15.7 C 1.6 km/h
1523 08-07-2014 12:55:00 15.7 C 12.71 g/m*3 15.7 C 6.4 km/h
1524 08-07-2014 13:00:00 15.7 C 12.71 g/m*3 15.7 C 3.2 km/h
1525 08-07-2014 13:05:00 15.7 C 12.71 g/m*3 15.7 C 3.2 km/h
Sensor: Nr:Datum:Temp:Abs-Feuchte:Windchill:Wind:
Aussen-T/F 1526 08-07-2014 13:10:00 15.7 C 12.71 g/m*3 15.7 C 4.8 km/h
1527 08-07-2014 13:15:00 15.6 C 12.63 g/m*3 15.6 C 1.6 km/h
1528 08-07-2014 13:20:00 15.7 C 12.71 g/m*3 15.7 C 0 km/h
1529 08-07-2014 13:25:00 15.7 C 12.71 g/m*3 15.7 C 6.4 km/h
1530 08-07-2014 13:30:00 15.7 C 12.71 g/m*3 15.7 C 4.8 km/h
1531 08-07-2014 13:35:00 15.7 C 12.71 g/m*3 15.7 C 3.2 km/h
1532 08-07-2014 13:40:00 15.7 C 12.71 g/m*3 15.7 C 0 km/h
1533 08-07-2014 13:45:00 15.8 C 12.79 g/m*3 15.8 C 6.4 km/h
1534 08-07-2014 13:50:00 15.8 C 12.79 g/m*3 15.8 C 1.6 km/h
1535 08-07-2014 13:55:00 15.8 C 12.79 g/m*3 15.8 C 0 km/h
1536 08-07-2014 14:00:00 15.8 C 12.79 g/m*3 15.8 C 4.8 km/h
1537 08-07-2014 14:05:00 15.8 C 12.79 g/m*3 15.8 C 3.2 km/h
1538 08-07-2014 14:10:00 15.8 C 12.79 g/m*3 15.8 C 3.2 km/h
1539 08-07-2014 14:15:00 15.9 C 12.87 g/m*3 15.9 C 1.6 km/h
1540 08-07-2014 14:20:00 15.8 C 12.65 g/m*3 15.8 C 6.4 km/h
1541 08-07-2014 14:25:00 15.9 C 12.73 g/m*3 15.9 C 4.8 km/h
1542 08-07-2014 14:30:00 15.9 C 12.73 g/m*3 15.9 C 6.4 km/h
1543 08-07-2014 14:35:00 15.9 C 12.73 g/m*3 15.9 C 1.6 km/h
1544 08-07-2014 14:40:00 15.9 C 12.59 g/m*3 15.9 C 3.2 km/h
1545 08-07-2014 14:45:00 15.8 C 12.52 g/m*3 15.8 C 1.6 km/h
1546 08-07-2014 14:50:00 15.8 C 12.52 g/m*3 15.8 C 3.2 km/h
1547 08-07-2014 14:55:00 15.8 C 12.52 g/m*3 15.8 C 3.2 km/h
1548 08-07-2014 15:00:00 15.8 C 12.52 g/m*3 15.8 C 3.2 km/h
1549 08-07-2014 15:05:00 15.8 C 12.65 g/m*3 15.8 C 3.2 km/h
1550 08-07-2014 15:10:00 15.8 C 12.52 g/m*3 15.8 C 3.2 km/h
Sensor: Nr:Datum:Temp:Abs-Feuchte:Windchill:Wind:
Aussen-T/F 1551 08-07-2014 15:15:00 15.8 C 12.65 g/m*3 15.8 C 4.8 km/h
1552 08-07-2014 15:20:00 15.8 C 12.65 g/m*3 15.8 C 3.2 km/h
1553 08-07-2014 15:25:00 15.7 C 12.44 g/m*3 15.7 C 3.2 km/h
1554 08-07-2014 15:30:00 15.8 C 12.52 g/m*3 15.8 C 4.8 km/h
1555 08-07-2014 15:35:00 15.8 C 12.52 g/m*3 15.8 C 1.6 km/h
1556 08-07-2014 15:40:00 15.8 C 12.52 g/m*3 15.8 C 1.6 km/h
1557 08-07-2014 15:45:00 15.7 C 12.44 g/m*3 15.7 C 6.4 km/h
1558 08-07-2014 15:50:00 15.7 C 12.44 g/m*3 15.7 C 6.4 km/h
1559 08-07-2014 15:55:00 15.7 C 12.31 g/m*3 15.7 C 8.1 km/h
1560 08-07-2014 16:00:00 15.8 C 12.52 g/m*3 15.8 C 3.2 km/h
1561 08-07-2014 16:05:00 15.7 C 12.44 g/m*3 15.7 C 4.8 km/h
1562 08-07-2014 16:10:00 15.7 C 12.44 g/m*3 15.7 C 4.8 km/h
1563 08-07-2014 16:15:00 15.7 C 12.44 g/m*3 15.7 C 4.8 km/h
1564 08-07-2014 16:20:00 15.7 C 12.44 g/m*3 15.7 C 3.2 km/h
1565 08-07-2014 16:25:00 15.7 C 12.44 g/m*3 15.7 C 3.2 km/h
1566 08-07-2014 16:30:00 15.7 C 12.44 g/m*3 15.7 C 3.2 km/h
1567 08-07-2014 16:35:00 15.7 C 12.44 g/m*3 15.7 C 9.7 km/h
1568 08-07-2014 16:40:00 15.7 C 12.44 g/m*3 15.7 C 1.6 km/h
1569 08-07-2014 16:45:00 15.7 C 12.44 g/m*3 15.7 C 6.4 km/h
1570 08-07-2014 16:50:00 15.7 C 12.44 g/m*3 15.7 C 3.2 km/h
1571 08-07-2014 17:30:00 15.8 C 12.25 g/m*3 15.8 C 12.9 km/h
1572 08-07-2014 17:35:00 15.8 C 12.25 g/m*3 15.8 C 14.5 km/h
1573 08-07-2014 17:40:00 15.8 C 12.11 g/m*3 15.8 C 14.5 km/h
1574 08-07-2014 17:45:00 15.8 C 12.11 g/m*3 15.8 C 16.1 km/h
1575 08-07-2014 17:50:00 15.7 C 12.04 g/m*3 15.7 C 14.5 km/h
Sensor: Nr:Datum:Temp:Abs-Feuchte:Windchill:Wind:
Aussen-T/F 1576 08-07-2014 17:55:00 15.7 C 12.04 g/m*3 15.7 C 16.1 km/h
1577 08-07-2014 18:00:00 15.7 C 12.04 g/m*3 15.7 C 11.3 km/h
1578 08-07-2014 18:05:00 15.7 C 12.04 g/m*3 15.7 C 12.9 km/h
1579 08-07-2014 18:10:00 15.7 C 12.04 g/m*3 15.7 C 9.7 km/h
1580 08-07-2014 18:15:00 15.6 C 11.97 g/m*3 15.6 C 6.4 km/h
1581 08-07-2014 18:20:00 15.6 C 11.97 g/m*3 15.6 C 9.7 km/h
1582 08-07-2014 18:25:00 15.6 C 11.84 g/m*3 15.6 C 9.7 km/h
1583 08-07-2014 18:30:00 15.6 C 11.84 g/m*3 15.6 C 14.5 km/h
1584 08-07-2014 18:35:00 15.4 C 11.69 g/m*3 15.4 C 16.1 km/h
1585 08-07-2014 18:40:00 15.4 C 11.69 g/m*3 15.4 C 12.9 km/h
1586 08-07-2014 18:45:00 15.3 C 11.75 g/m*3 15.3 C 12.9 km/h
1587 08-07-2014 18:50:00 15.3 C 11.62 g/m*3 15.3 C 25.7 km/h
1588 08-07-2014 18:55:00 15.2 C 11.55 g/m*3 15.2 C 25.7 km/h
1589 08-07-2014 19:00:00 15.2 C 11.55 g/m*3 15.2 C 14.5 km/h
1590 08-07-2014 19:05:00 15.2 C 11.55 g/m*3 15.2 C 9.7 km/h
1591 08-07-2014 19:10:00 15.2 C 11.55 g/m*3 15.2 C 20.9 km/h
1592 08-07-2014 19:15:00 15.2 C 11.55 g/m*3 15.2 C 16.1 km/h
1593 08-07-2014 19:20:00 15.1 C 11.61 g/m*3 15.1 C 11.3 km/h
1594 08-07-2014 19:25:00 15.1 C 11.61 g/m*3 15.1 C 12.9 km/h
1595 08-07-2014 19:30:00 15 C 11.54 g/m*3 15 C 12.9 km/h
1596 08-07-2014 19:35:00 15 C 11.54 g/m*3 15 C 14.5 km/h
1597 08-07-2014 19:40:00 14.9 C 11.47 g/m*3 14.9 C 11.3 km/h
1598 08-07-2014 19:45:00 14.9 C 11.47 g/m*3 14.9 C 16.1 km/h
1599 08-07-2014 19:50:00 14.9 C 11.47 g/m*3 14.9 C 9.7 km/h
1600 08-07-2014 19:55:00 14.9 C 11.47 g/m*3 14.9 C 9.7 km/h
Sensor: Nr:Datum:Temp:Abs-Feuchte:Windchill:Wind:
Aussen-T/F 1601 08-07-2014 20:00:00 14.9 C 11.47 g/m*3 14.9 C 11.3 km/h
1602 08-07-2014 20:05:00 14.9 C 11.47 g/m*3 14.9 C 12.9 km/h
1603 08-07-2014 20:10:00 14.8 C 11.4 g/m*3 14.8 C 11.3 km/h
1604 08-07-2014 20:15:00 14.8 C 11.4 g/m*3 14.8 C 17.7 km/h
1605 08-07-2014 20:20:00 14.7 C 11.33 g/m*3 14.7 C 16.1 km/h
1606 08-07-2014 20:25:00 14.6 C 11.26 g/m*3 14.6 C 17.7 km/h
1607 08-07-2014 20:30:00 14.5 C 11.32 g/m*3 14.5 C 16.1 km/h
1608 08-07-2014 20:35:00 14.4 C 11.25 g/m*3 14.4 C 9.7 km/h
1609 08-07-2014 20:40:00 14.2 C 11.11 g/m*3 14.2 C 11.3 km/h
1610 08-07-2014 20:45:00 14.1 C 11.04 g/m*3 14.1 C 8.1 km/h
1611 08-07-2014 20:50:00 14 C 10.98 g/m*3 14 C 14.5 km/h
1612 08-07-2014 20:55:00 13.9 C 10.91 g/m*3 13.9 C 16.1 km/h
1613 08-07-2014 21:00:00 13.9 C 10.91 g/m*3 13.9 C 17.7 km/h
1614 08-07-2014 21:05:00 13.8 C 10.84 g/m*3 13.8 C 11.3 km/h
1615 08-07-2014 21:10:00 13.8 C 10.96 g/m*3 13.8 C 12.9 km/h
1616 08-07-2014 21:15:00 13.7 C 10.78 g/m*3 13.7 C 12.9 km/h
1617 08-07-2014 21:20:00 13.7 C 10.89 g/m*3 13.7 C 12.9 km/h
1618 08-07-2014 21:25:00 13.7 C 10.89 g/m*3 13.7 C 9.7 km/h
1619 08-07-2014 21:30:00 13.6 C 10.83 g/m*3 13.6 C 12.9 km/h
1620 08-07-2014 21:35:00 13.6 C 10.83 g/m*3 13.6 C 9.7 km/h
1621 08-07-2014 21:40:00 13.5 C 10.76 g/m*3 13.5 C 12.9 km/h
1622 08-07-2014 21:45:00 13.5 C 10.76 g/m*3 13.5 C 11.3 km/h
1623 08-07-2014 21:50:00 13.4 C 10.69 g/m*3 13.4 C 0 km/h
1624 08-07-2014 21:55:00 13.4 C 10.81 g/m*3 13.4 C 4.8 km/h
1625 08-07-2014 22:00:00 13.4 C 10.93 g/m*3 13.4 C 0 km/h
Sensor: Nr:Datum:Temp:Abs-Feuchte:Windchill:Wind:
Aussen-T/F 1626 08-07-2014 22:05:00 13.3 C 10.86 g/m*3 13.3 C 1.6 km/h
1627 08-07-2014 22:10:00 13.3 C 10.86 g/m*3 13.3 C 4.8 km/h
1628 08-07-2014 22:15:00 13.3 C 10.86 g/m*3 13.3 C 4.8 km/h
1629 08-07-2014 22:20:00 13.3 C 10.86 g/m*3 13.3 C 4.8 km/h
1630 08-07-2014 22:25:00 13.3 C 10.86 g/m*3 13.3 C 6.4 km/h
1631 08-07-2014 22:30:00 13.3 C 10.86 g/m*3 13.3 C 8.1 km/h
1632 08-07-2014 22:35:00 13.3 C 10.86 g/m*3 13.3 C 3.2 km/h
1633 08-07-2014 22:40:00 13.3 C 10.86 g/m*3 13.3 C 4.8 km/h
1634 08-07-2014 22:45:00 13.3 C 10.86 g/m*3 13.3 C 12.9 km/h
1635 08-07-2014 22:50:00 13.3 C 10.86 g/m*3 13.3 C 3.2 km/h
1636 08-07-2014 22:55:00 13.3 C 10.86 g/m*3 13.3 C 4.8 km/h
1637 08-07-2014 23:00:00 13.3 C 10.86 g/m*3 13.3 C 4.8 km/h
1638 08-07-2014 23:05:00 13.3 C 10.86 g/m*3 13.3 C 6.4 km/h
1639 08-07-2014 23:10:00 13.2 C 10.91 g/m*3 13.2 C 1.6 km/h
1640 08-07-2014 23:15:00 13.2 C 10.91 g/m*3 13.2 C 6.4 km/h
1641 08-07-2014 23:20:00 13.2 C 10.91 g/m*3 13.2 C 6.4 km/h
1642 08-07-2014 23:25:00 13.1 C 10.84 g/m*3 13.1 C 4.8 km/h
1643 08-07-2014 23:30:00 13.1 C 10.84 g/m*3 13.1 C 3.2 km/h
1644 08-07-2014 23:35:00 13.1 C 10.84 g/m*3 13.1 C 1.6 km/h
1645 08-07-2014 23:40:00 13.1 C 10.84 g/m*3 13.1 C 6.4 km/h
1646 08-07-2014 23:45:00 13.1 C 10.84 g/m*3 13.1 C 4.8 km/h
1647 08-07-2014 23:50:00 13.1 C 10.84 g/m*3 13.1 C 6.4 km/h
1648 08-07-2014 23:55:00 13.1 C 10.84 g/m*3 13.1 C 3.2 km/h
1649 09-07-2014 00:00:00 13.1 C 10.84 g/m*3 13.1 C 1.6 km/h
1650 09-07-2014 00:05:00 13.1 C 10.84 g/m*3 13.1 C 4.8 km/h
Sensor: Nr:Datum:Temp:Abs-Feuchte:Windchill:Wind:
Aussen-T/F 1651 09-07-2014 00:10:00 13 C 10.66 g/m*3 13 C 9.7 km/h
1652 09-07-2014 00:15:00 13 C 10.66 g/m*3 13 C 6.4 km/h
1653 09-07-2014 00:20:00 13 C 10.66 g/m*3 13 C 14.5 km/h
1654 09-07-2014 00:25:00 13 C 10.66 g/m*3 13 C 14.5 km/h
1655 09-07-2014 00:30:00 13 C 10.66 g/m*3 13 C 12.9 km/h
1656 09-07-2014 00:35:00 12.9 C 10.59 g/m*3 12.9 C 4.8 km/h
1657 09-07-2014 00:40:00 12.9 C 10.59 g/m*3 12.9 C 4.8 km/h
1658 09-07-2014 00:45:00 12.9 C 10.59 g/m*3 12.9 C 1.6 km/h
1659 09-07-2014 00:50:00 12.9 C 10.71 g/m*3 12.9 C 1.6 km/h
1660 09-07-2014 00:55:00 12.9 C 10.71 g/m*3 12.9 C 8.1 km/h
1661 09-07-2014 01:00:00 12.8 C 10.53 g/m*3 12.8 C 12.9 km/h
1662 09-07-2014 01:05:00 12.8 C 10.53 g/m*3 12.8 C 9.7 km/h
1663 09-07-2014 01:10:00 12.8 C 10.53 g/m*3 12.8 C 3.2 km/h
1664 09-07-2014 01:15:00 12.8 C 10.53 g/m*3 12.8 C 1.6 km/h
1665 09-07-2014 01:20:00 12.7 C 10.46 g/m*3 12.7 C 3.2 km/h
1666 09-07-2014 01:25:00 12.7 C 10.46 g/m*3 12.7 C 4.8 km/h
1667 09-07-2014 01:30:00 12.6 C 10.4 g/m*3 12.6 C 4.8 km/h
1668 09-07-2014 01:35:00 12.6 C 10.4 g/m*3 12.6 C 9.7 km/h
1669 09-07-2014 01:40:00 12.6 C 10.4 g/m*3 12.6 C 11.3 km/h
1670 09-07-2014 01:45:00 12.5 C 10.33 g/m*3 12.5 C 4.8 km/h
1671 09-07-2014 01:50:00 12.4 C 10.27 g/m*3 12.4 C 3.2 km/h
1672 09-07-2014 01:55:00 12.4 C 10.16 g/m*3 12.4 C 8.1 km/h
1673 09-07-2014 02:00:00 12.4 C 10.27 g/m*3 12.4 C 3.2 km/h
1674 09-07-2014 02:05:00 12.3 C 10.21 g/m*3 12.3 C 8.1 km/h
1675 09-07-2014 02:10:00 12.3 C 10.21 g/m*3 12.3 C 3.2 km/h
Sensor: Nr:Datum:Temp:Abs-Feuchte:Windchill:Wind:
Aussen-T/F 1676 09-07-2014 02:15:00 12.3 C 10.21 g/m*3 12.3 C 8.1 km/h
1677 09-07-2014 02:20:00 12.3 C 10.21 g/m*3 12.3 C 4.8 km/h
1678 09-07-2014 02:25:00 12.2 C 10.14 g/m*3 12.2 C 3.2 km/h
1679 09-07-2014 02:30:00 12.1 C 10.08 g/m*3 12.1 C 11.3 km/h
1680 09-07-2014 02:35:00 12.1 C 10.08 g/m*3 12.1 C 8.1 km/h
1681 09-07-2014 02:40:00 12.1 C 10.08 g/m*3 12.1 C 3.2 km/h
1682 09-07-2014 02:45:00 12 C 10.02 g/m*3 12 C 4.8 km/h
1683 09-07-2014 02:50:00 11.9 C 9.96 g/m*3 11.9 C 8.1 km/h
1684 09-07-2014 02:55:00 11.9 C 9.96 g/m*3 11.9 C 8.1 km/h
1685 09-07-2014 03:00:00 11.9 C 9.85 g/m*3 11.9 C 3.2 km/h
1686 09-07-2014 03:05:00 11.8 C 9.89 g/m*3 11.8 C 3.2 km/h
1687 09-07-2014 03:10:00 11.8 C 9.89 g/m*3 11.8 C 1.6 km/h
1688 09-07-2014 03:15:00 11.8 C 9.89 g/m*3 11.8 C 6.4 km/h
1689 09-07-2014 03:20:00 11.7 C 9.83 g/m*3 11.7 C 3.2 km/h
1690 09-07-2014 03:25:00 11.7 C 9.83 g/m*3 11.7 C 9.7 km/h
1691 09-07-2014 03:30:00 11.7 C 9.83 g/m*3 11.7 C 1.6 km/h
1692 09-07-2014 03:35:00 11.7 C 9.83 g/m*3 11.7 C 1.6 km/h
1693 09-07-2014 03:40:00 11.7 C 9.83 g/m*3 11.7 C 6.4 km/h
1694 09-07-2014 03:45:00 11.7 C 9.94 g/m*3 11.7 C 3.2 km/h
1695 09-07-2014 03:50:00 11.7 C 9.94 g/m*3 11.7 C 3.2 km/h
1696 09-07-2014 03:55:00 11.7 C 9.94 g/m*3 11.7 C 1.6 km/h
1697 09-07-2014 04:00:00 11.7 C 9.94 g/m*3 11.7 C 1.6 km/h
1698 09-07-2014 04:05:00 11.7 C 9.94 g/m*3 11.7 C 6.4 km/h
1699 09-07-2014 04:10:00 11.7 C 9.94 g/m*3 11.7 C 9.7 km/h
1700 09-07-2014 04:15:00 11.7 C 9.94 g/m*3 11.7 C 4.8 km/h
Sensor: Nr:Datum:Temp:Abs-Feuchte:Windchill:Wind:
Aussen-T/F 1701 09-07-2014 04:20:00 11.7 C 9.94 g/m*3 11.7 C 1.6 km/h
1702 09-07-2014 04:25:00 11.7 C 9.94 g/m*3 11.7 C 8.1 km/h
1703 09-07-2014 04:30:00 11.7 C 9.94 g/m*3 11.7 C 3.2 km/h
1704 09-07-2014 04:35:00 11.7 C 9.94 g/m*3 11.7 C 4.8 km/h
1705 09-07-2014 04:40:00 11.7 C 9.94 g/m*3 11.7 C 3.2 km/h
1706 09-07-2014 04:45:00 11.7 C 9.94 g/m*3 11.7 C 9.7 km/h
1707 09-07-2014 04:50:00 11.8 C 10 g/m*3 11.8 C 4.8 km/h
1708 09-07-2014 04:55:00 11.8 C 10 g/m*3 11.8 C 3.2 km/h
1709 09-07-2014 05:00:00 11.8 C 10 g/m*3 11.8 C 1.6 km/h
1710 09-07-2014 05:05:00 11.8 C 10 g/m*3 11.8 C 6.4 km/h
1711 09-07-2014 05:10:00 11.8 C 10 g/m*3 11.8 C 4.8 km/h
1712 09-07-2014 05:15:00 11.8 C 10 g/m*3 11.8 C 3.2 km/h
1713 09-07-2014 05:20:00 11.9 C 10.06 g/m*3 11.9 C 4.8 km/h
1714 09-07-2014 05:25:00 11.9 C 10.06 g/m*3 11.9 C 4.8 km/h
1715 09-07-2014 05:30:00 11.9 C 10.06 g/m*3 11.9 C 3.2 km/h
1716 09-07-2014 05:35:00 11.9 C 10.06 g/m*3 11.9 C 1.6 km/h
1717 09-07-2014 05:40:00 11.9 C 10.06 g/m*3 11.9 C 3.2 km/h
1718 09-07-2014 05:45:00 11.9 C 10.06 g/m*3 11.9 C 3.2 km/h
1719 09-07-2014 05:50:00 11.9 C 10.06 g/m*3 11.9 C 1.6 km/h
1720 09-07-2014 05:55:00 11.9 C 10.06 g/m*3 11.9 C 1.6 km/h
1721 09-07-2014 06:00:00 12 C 10.12 g/m*3 12 C 1.6 km/h
1722 09-07-2014 06:05:00 12 C 10.12 g/m*3 12 C 8.1 km/h
1723 09-07-2014 06:10:00 12 C 10.12 g/m*3 12 C 4.8 km/h
1724 09-07-2014 06:15:00 12 C 10.12 g/m*3 12 C 8.1 km/h
1725 09-07-2014 06:20:00 11.9 C 10.06 g/m*3 11.9 C 6.4 km/h
Sensor: Nr:Datum:Temp:Abs-Feuchte:Windchill:Wind:
Aussen-T/F 1726 09-07-2014 06:25:00 11.9 C 10.06 g/m*3 11.9 C 6.4 km/h
1727 09-07-2014 06:30:00 12 C 10.12 g/m*3 12 C 4.8 km/h
1728 09-07-2014 06:35:00 11.9 C 10.06 g/m*3 11.9 C 4.8 km/h
1729 09-07-2014 06:40:00 11.9 C 10.06 g/m*3 11.9 C 6.4 km/h
1730 09-07-2014 06:45:00 11.9 C 10.06 g/m*3 11.9 C 11.3 km/h
1731 09-07-2014 06:50:00 11.9 C 9.96 g/m*3 11.9 C 6.4 km/h
1732 09-07-2014 06:55:00 11.9 C 9.96 g/m*3 11.9 C 6.4 km/h
1733 09-07-2014 07:00:00 11.9 C 9.96 g/m*3 11.9 C 11.3 km/h
1734 09-07-2014 07:05:00 11.9 C 9.96 g/m*3 11.9 C 3.2 km/h
1735 09-07-2014 07:10:00 11.9 C 9.96 g/m*3 11.9 C 4.8 km/h
1736 09-07-2014 07:15:00 11.8 C 9.89 g/m*3 11.8 C 4.8 km/h
1737 09-07-2014 07:20:00 11.8 C 9.89 g/m*3 11.8 C 4.8 km/h
1738 09-07-2014 07:25:00 11.8 C 9.89 g/m*3 11.8 C 4.8 km/h
1739 09-07-2014 07:30:00 11.8 C 10 g/m*3 11.8 C 6.4 km/h
1740 09-07-2014 07:35:00 11.8 C 10 g/m*3 11.8 C 1.6 km/h
1741 09-07-2014 07:40:00 11.8 C 10 g/m*3 11.8 C 1.6 km/h
1742 09-07-2014 07:45:00 11.8 C 10 g/m*3 11.8 C 9.7 km/h
1743 09-07-2014 07:50:00 11.8 C 10 g/m*3 11.8 C 3.2 km/h
1744 09-07-2014 07:55:00 11.8 C 10 g/m*3 11.8 C 3.2 km/h
1745 09-07-2014 08:00:00 11.7 C 9.94 g/m*3 11.7 C 3.2 km/h
1746 09-07-2014 08:05:00 11.8 C 10 g/m*3 11.8 C 3.2 km/h
1747 09-07-2014 08:10:00 11.8 C 10 g/m*3 11.8 C 1.6 km/h
1748 09-07-2014 08:15:00 11.8 C 10 g/m*3 11.8 C 3.2 km/h
1749 09-07-2014 08:20:00 11.8 C 10 g/m*3 11.8 C 4.8 km/h
1750 09-07-2014 08:25:00 11.8 C 10 g/m*3 11.8 C 8.1 km/h
Sensor: Nr:Datum:Temp:Abs-Feuchte:Windchill:Wind:
Aussen-T/F 1751 09-07-2014 08:30:00 11.8 C 10.1 g/m*3 11.8 C 3.2 km/h
1752 09-07-2014 08:35:00 11.9 C 10.17 g/m*3 11.9 C 3.2 km/h
1753 09-07-2014 08:40:00 11.9 C 10.17 g/m*3 11.9 C 1.6 km/h
1754 09-07-2014 08:45:00 11.9 C 10.17 g/m*3 11.9 C 3.2 km/h
1755 09-07-2014 08:50:00 11.9 C 10.17 g/m*3 11.9 C 12.9 km/h
1756 09-07-2014 08:55:00 11.9 C 10.17 g/m*3 11.9 C 4.8 km/h
1757 09-07-2014 09:00:00 12 C 10.23 g/m*3 12 C 8.1 km/h
1758 09-07-2014 09:05:00 12 C 10.23 g/m*3 12 C 3.2 km/h
1759 09-07-2014 09:10:00 12 C 10.23 g/m*3 12 C 6.4 km/h
1760 09-07-2014 09:15:00 12.1 C 10.19 g/m*3 12.1 C 4.8 km/h
1761 09-07-2014 09:20:00 12.1 C 10.29 g/m*3 12.1 C 6.4 km/h
1762 09-07-2014 09:25:00 12.1 C 10.19 g/m*3 12.1 C 6.4 km/h
1763 09-07-2014 09:30:00 12.2 C 10.25 g/m*3 12.2 C 6.4 km/h
1764 09-07-2014 09:35:00 12.2 C 10.25 g/m*3 12.2 C 6.4 km/h
1765 09-07-2014 09:40:00 12.2 C 10.25 g/m*3 12.2 C 3.2 km/h
1766 09-07-2014 09:45:00 12.2 C 10.25 g/m*3 12.2 C 1.6 km/h
1767 09-07-2014 09:50:00 12.2 C 10.25 g/m*3 12.2 C 4.8 km/h
1768 09-07-2014 09:55:00 12.2 C 10.25 g/m*3 12.2 C 1.6 km/h
1769 09-07-2014 10:00:00 12.3 C 10.32 g/m*3 12.3 C 0 km/h
1770 09-07-2014 10:05:00 12.3 C 10.32 g/m*3 12.3 C 6.4 km/h
1771 09-07-2014 10:10:00 12.3 C 10.32 g/m*3 12.3 C 4.8 km/h
1772 09-07-2014 10:15:00 12.3 C 10.32 g/m*3 12.3 C 1.6 km/h
1773 09-07-2014 10:20:00 12.3 C 10.32 g/m*3 12.3 C 1.6 km/h
1774 09-07-2014 10:25:00 12.3 C 10.42 g/m*3 12.3 C 1.6 km/h
1775 09-07-2014 10:30:00 12.3 C 10.42 g/m*3 12.3 C 1.6 km/h
Sensor: Nr:Datum:Temp:Abs-Feuchte:Windchill:Wind:
Aussen-T/F 1776 09-07-2014 10:35:00 12.3 C 10.42 g/m*3 12.3 C 1.6 km/h
1777 09-07-2014 10:40:00 12.4 C 10.49 g/m*3 12.4 C 4.8 km/h
1778 09-07-2014 10:45:00 12.4 C 10.49 g/m*3 12.4 C 0 km/h
1779 09-07-2014 10:50:00 12.4 C 10.49 g/m*3 12.4 C 3.2 km/h
1780 09-07-2014 10:55:00 12.4 C 10.49 g/m*3 12.4 C 8.1 km/h
1781 09-07-2014 11:00:00 12.5 C 10.55 g/m*3 12.5 C 4.8 km/h
1782 09-07-2014 11:05:00 12.6 C 10.62 g/m*3 12.6 C 3.2 km/h
1783 09-07-2014 11:10:00 12.6 C 10.62 g/m*3 12.6 C 1.6 km/h
1784 09-07-2014 11:15:00 12.6 C 10.62 g/m*3 12.6 C 6.4 km/h
1785 09-07-2014 11:20:00 12.6 C 10.62 g/m*3 12.6 C 3.2 km/h
1786 09-07-2014 11:25:00 12.6 C 10.62 g/m*3 12.6 C 4.8 km/h
1787 09-07-2014 11:30:00 12.6 C 10.62 g/m*3 12.6 C 6.4 km/h
1788 09-07-2014 11:35:00 12.7 C 10.69 g/m*3 12.7 C 14.5 km/h
1789 09-07-2014 11:40:00 12.7 C 10.69 g/m*3 12.7 C 8.1 km/h
1790 09-07-2014 11:45:00 12.8 C 10.75 g/m*3 12.8 C 3.2 km/h
1791 09-07-2014 11:50:00 12.8 C 10.75 g/m*3 12.8 C 9.7 km/h
1792 09-07-2014 11:55:00 12.9 C 10.71 g/m*3 12.9 C 11.3 km/h
1793 09-07-2014 12:00:00 12.9 C 10.71 g/m*3 12.9 C 8.1 km/h
1794 09-07-2014 12:05:00 12.9 C 10.71 g/m*3 12.9 C 6.4 km/h
1795 09-07-2014 12:10:00 13 C 10.77 g/m*3 13 C 11.3 km/h
1796 09-07-2014 12:15:00 13.1 C 10.84 g/m*3 13.1 C 4.8 km/h
1797 09-07-2014 12:20:00 13.1 C 10.84 g/m*3 13.1 C 9.7 km/h
1798 09-07-2014 12:25:00 13.2 C 10.91 g/m*3 13.2 C 9.7 km/h
1799 09-07-2014 12:30:00 13.2 C 10.91 g/m*3 13.2 C 6.4 km/h
1800 09-07-2014 12:35:00 13.2 C 10.91 g/m*3 13.2 C 8.1 km/h
Sensor: Nr:Datum:Temp:Abs-Feuchte:Windchill:Wind:
Aussen-T/F 1801 09-07-2014 12:40:00 13.2 C 10.91 g/m*3 13.2 C 9.7 km/h
1802 09-07-2014 12:45:00 13.2 C 10.91 g/m*3 13.2 C 3.2 km/h
1803 09-07-2014 12:50:00 13.2 C 10.91 g/m*3 13.2 C 8.1 km/h
1804 09-07-2014 12:55:00 13.3 C 10.98 g/m*3 13.3 C 1.6 km/h
1805 09-07-2014 13:00:00 13.3 C 10.98 g/m*3 13.3 C 4.8 km/h
1806 09-07-2014 13:05:00 13.3 C 10.98 g/m*3 13.3 C 8.1 km/h
1807 09-07-2014 13:10:00 13.3 C 10.98 g/m*3 13.3 C 8.1 km/h
1808 09-07-2014 13:15:00 13.3 C 10.98 g/m*3 13.3 C 12.9 km/h
1809 09-07-2014 13:20:00 13.3 C 10.98 g/m*3 13.3 C 6.4 km/h
1810 09-07-2014 13:25:00 13.3 C 10.86 g/m*3 13.3 C 3.2 km/h
1811 09-07-2014 13:30:00 13.4 C 11.04 g/m*3 13.4 C 6.4 km/h
1812 09-07-2014 13:35:00 13.4 C 11.04 g/m*3 13.4 C 8.1 km/h
1813 09-07-2014 13:40:00 13.4 C 11.04 g/m*3 13.4 C 3.2 km/h
1814 09-07-2014 13:45:00 13.4 C 11.04 g/m*3 13.4 C 11.3 km/h
1815 09-07-2014 13:50:00 13.4 C 11.04 g/m*3 13.4 C 8.1 km/h
1816 09-07-2014 13:55:00 13.5 C 11.11 g/m*3 13.5 C 3.2 km/h
1817 09-07-2014 14:00:00 13.6 C 11.18 g/m*3 13.6 C 4.8 km/h
1818 09-07-2014 14:05:00 13.6 C 11.18 g/m*3 13.6 C 3.2 km/h
1819 09-07-2014 14:10:00 13.7 C 11.25 g/m*3 13.7 C 4.8 km/h
1820 09-07-2014 14:15:00 13.7 C 11.25 g/m*3 13.7 C 6.4 km/h
1821 09-07-2014 14:20:00 13.7 C 11.25 g/m*3 13.7 C 4.8 km/h
1822 09-07-2014 14:25:00 13.7 C 11.25 g/m*3 13.7 C 6.4 km/h
1823 09-07-2014 14:30:00 13.8 C 11.2 g/m*3 13.8 C 6.4 km/h
1824 09-07-2014 14:35:00 13.9 C 11.27 g/m*3 13.9 C 9.7 km/h
1825 09-07-2014 14:40:00 13.9 C 11.27 g/m*3 13.9 C 4.8 km/h
Sensor: Nr:Datum:Temp:Abs-Feuchte:Windchill:Wind:
Aussen-T/F 1826 09-07-2014 14:45:00 13.9 C 11.27 g/m*3 13.9 C 11.3 km/h
1827 09-07-2014 14:50:00 13.9 C 11.27 g/m*3 13.9 C 12.9 km/h
1828 09-07-2014 14:55:00 13.9 C 11.27 g/m*3 13.9 C 12.9 km/h
1829 09-07-2014 15:00:00 13.9 C 11.27 g/m*3 13.9 C 8.1 km/h
1830 09-07-2014 15:05:00 13.9 C 11.27 g/m*3 13.9 C 9.7 km/h
1831 09-07-2014 15:10:00 13.9 C 11.39 g/m*3 13.9 C 4.8 km/h
1832 09-07-2014 15:15:00 13.9 C 11.39 g/m*3 13.9 C 14.5 km/h
1833 09-07-2014 15:20:00 14 C 11.46 g/m*3 14 C 9.7 km/h
1834 09-07-2014 15:25:00 14 C 11.34 g/m*3 14 C 11.3 km/h
1835 09-07-2014 15:30:00 14 C 11.46 g/m*3 14 C 6.4 km/h
1836 09-07-2014 15:35:00 14 C 11.46 g/m*3 14 C 4.8 km/h
1837 09-07-2014 15:40:00 14.1 C 11.53 g/m*3 14.1 C 3.2 km/h
1838 09-07-2014 15:45:00 14.1 C 11.53 g/m*3 14.1 C 8.1 km/h
1839 09-07-2014 15:50:00 14 C 11.46 g/m*3 14 C 9.7 km/h
1840 09-07-2014 15:55:00 14 C 11.46 g/m*3 14 C 8.1 km/h
1841 09-07-2014 16:00:00 14 C 11.46 g/m*3 14 C 8.1 km/h
1842 09-07-2014 16:05:00 14 C 11.46 g/m*3 14 C 11.3 km/h
1843 09-07-2014 16:10:00 14 C 11.46 g/m*3 14 C 9.7 km/h
1844 09-07-2014 16:15:00 14 C 11.46 g/m*3 14 C 9.7 km/h
1845 09-07-2014 16:20:00 14 C 11.46 g/m*3 14 C 6.4 km/h
1846 09-07-2014 16:25:00 14 C 11.46 g/m*3 14 C 8.1 km/h
1847 09-07-2014 16:30:00 14.1 C 11.53 g/m*3 14.1 C 6.4 km/h
1848 09-07-2014 16:35:00 14.1 C 11.53 g/m*3 14.1 C 11.3 km/h
1849 09-07-2014 16:40:00 14.1 C 11.53 g/m*3 14.1 C 11.3 km/h
1850 09-07-2014 16:45:00 14 C 11.46 g/m*3 14 C 9.7 km/h
Sensor: Nr:Datum:Temp:Abs-Feuchte:Windchill:Wind:
Aussen-T/F 1851 09-07-2014 16:50:00 13.9 C 11.39 g/m*3 13.9 C 6.4 km/h
1852 09-07-2014 16:55:00 13.9 C 11.39 g/m*3 13.9 C 4.8 km/h
1853 09-07-2014 17:00:00 14 C 11.46 g/m*3 14 C 9.7 km/h
1854 09-07-2014 17:05:00 13.9 C 11.39 g/m*3 13.9 C 8.1 km/h
1855 09-07-2014 17:10:00 13.9 C 11.39 g/m*3 13.9 C 4.8 km/h
1856 09-07-2014 17:15:00 13.9 C 11.39 g/m*3 13.9 C 8.1 km/h
1857 09-07-2014 17:20:00 13.9 C 11.39 g/m*3 13.9 C 3.2 km/h
1858 09-07-2014 17:25:00 13.9 C 11.39 g/m*3 13.9 C 3.2 km/h
1859 09-07-2014 17:30:00 13.9 C 11.39 g/m*3 13.9 C 4.8 km/h
1860 09-07-2014 17:35:00 13.9 C 11.39 g/m*3 13.9 C 6.4 km/h
1861 09-07-2014 17:40:00 14 C 11.46 g/m*3 14 C 9.7 km/h
1862 09-07-2014 17:45:00 14 C 11.46 g/m*3 14 C 6.4 km/h
1863 09-07-2014 17:50:00 14 C 11.46 g/m*3 14 C 4.8 km/h
1864 09-07-2014 17:55:00 14.1 C 11.53 g/m*3 14.1 C 9.7 km/h
1865 09-07-2014 18:00:00 14.1 C 11.53 g/m*3 14.1 C 6.4 km/h
1866 09-07-2014 18:05:00 14 C 11.46 g/m*3 14 C 4.8 km/h
1867 09-07-2014 18:10:00 14.1 C 11.53 g/m*3 14.1 C 3.2 km/h
1868 09-07-2014 18:15:00 14 C 11.46 g/m*3 14 C 8.1 km/h
1869 09-07-2014 18:20:00 14 C 11.46 g/m*3 14 C 3.2 km/h
1870 09-07-2014 18:25:00 14 C 11.46 g/m*3 14 C 1.6 km/h
1871 09-07-2014 18:30:00 13.9 C 11.39 g/m*3 13.9 C 6.4 km/h
1872 09-07-2014 18:35:00 13.9 C 11.39 g/m*3 13.9 C 1.6 km/h
1873 09-07-2014 18:40:00 13.9 C 11.39 g/m*3 13.9 C 3.2 km/h
1874 09-07-2014 18:45:00 13.9 C 11.39 g/m*3 13.9 C 1.6 km/h
1875 09-07-2014 18:50:00 13.9 C 11.39 g/m*3 13.9 C 1.6 km/h
Sensor: Nr:Datum:Temp:Abs-Feuchte:Windchill:Wind:
Aussen-T/F 1876 09-07-2014 18:55:00 13.9 C 11.39 g/m*3 13.9 C 0 km/h
1877 09-07-2014 19:00:00 13.9 C 11.39 g/m*3 13.9 C 1.6 km/h
1878 09-07-2014 19:05:00 13.9 C 11.39 g/m*3 13.9 C 1.6 km/h
1879 09-07-2014 19:10:00 13.9 C 11.39 g/m*3 13.9 C 0 km/h
1880 09-07-2014 19:15:00 13.9 C 11.39 g/m*3 13.9 C 3.2 km/h
1881 09-07-2014 19:20:00 13.9 C 11.39 g/m*3 13.9 C 1.6 km/h
1882 09-07-2014 19:25:00 13.9 C 11.39 g/m*3 13.9 C 6.4 km/h
1883 09-07-2014 19:30:00 13.9 C 11.39 g/m*3 13.9 C 3.2 km/h
1884 09-07-2014 19:35:00 13.9 C 11.51 g/m*3 13.9 C 4.8 km/h
1885 09-07-2014 19:40:00 13.9 C 11.51 g/m*3 13.9 C 3.2 km/h
1886 09-07-2014 19:45:00 13.9 C 11.51 g/m*3 13.9 C 3.2 km/h
1887 09-07-2014 19:50:00 13.9 C 11.51 g/m*3 13.9 C 0 km/h
1888 09-07-2014 19:55:00 13.9 C 11.51 g/m*3 13.9 C 6.4 km/h
1889 09-07-2014 20:00:00 14 C 11.58 g/m*3 14 C 4.8 km/h
1890 09-07-2014 20:05:00 14 C 11.58 g/m*3 14 C 0 km/h
1891 09-07-2014 20:10:00 14 C 11.58 g/m*3 14 C 3.2 km/h
1892 09-07-2014 20:15:00 14 C 11.58 g/m*3 14 C 0 km/h
1893 09-07-2014 20:20:00 14 C 11.58 g/m*3 14 C 1.6 km/h
1894 09-07-2014 20:25:00 14 C 11.58 g/m*3 14 C 0 km/h
1895 09-07-2014 20:30:00 14 C 11.58 g/m*3 14 C 0 km/h
1896 09-07-2014 20:35:00 14 C 11.58 g/m*3 14 C 0 km/h
1897 09-07-2014 20:40:00 14 C 11.58 g/m*3 14 C 0 km/h
1898 09-07-2014 20:45:00 13.9 C 11.51 g/m*3 13.9 C 0 km/h
1899 09-07-2014 20:50:00 13.9 C 11.51 g/m*3 13.9 C 0 km/h
1900 09-07-2014 20:55:00 13.9 C 11.51 g/m*3 13.9 C 1.6 km/h
Sensor: Nr:Datum:Temp:Abs-Feuchte:Windchill:Wind:
Aussen-T/F 1901 09-07-2014 21:00:00 13.9 C 11.51 g/m*3 13.9 C 0 km/h
1902 09-07-2014 21:05:00 13.9 C 11.51 g/m*3 13.9 C 1.6 km/h
1903 09-07-2014 21:10:00 13.9 C 11.51 g/m*3 13.9 C 0 km/h
1904 09-07-2014 21:15:00 13.9 C 11.51 g/m*3 13.9 C 0 km/h
1905 09-07-2014 21:20:00 13.9 C 11.51 g/m*3 13.9 C 0 km/h
1906 09-07-2014 21:25:00 13.9 C 11.51 g/m*3 13.9 C 0 km/h
1907 09-07-2014 21:30:00 13.9 C 11.51 g/m*3 13.9 C 0 km/h
1908 09-07-2014 21:35:00 13.9 C 11.51 g/m*3 13.9 C 3.2 km/h
1909 09-07-2014 21:40:00 13.9 C 11.63 g/m*3 13.9 C 0 km/h
1910 09-07-2014 21:45:00 13.9 C 11.63 g/m*3 13.9 C 0 km/h
1911 09-07-2014 21:50:00 13.9 C 11.63 g/m*3 13.9 C 0 km/h
1912 09-07-2014 21:55:00 13.9 C 11.63 g/m*3 13.9 C 0 km/h
1913 09-07-2014 22:00:00 13.8 C 11.56 g/m*3 13.8 C 0 km/h
1914 09-07-2014 22:05:00 13.8 C 11.56 g/m*3 13.8 C 0 km/h
1915 09-07-2014 22:10:00 13.8 C 11.56 g/m*3 13.8 C 0 km/h
1916 09-07-2014 22:15:00 13.8 C 11.56 g/m*3 13.8 C 0 km/h
1917 09-07-2014 22:20:00 13.8 C 11.56 g/m*3 13.8 C 0 km/h
1918 09-07-2014 22:25:00 13.8 C 11.56 g/m*3 13.8 C 0 km/h
1919 09-07-2014 22:30:00 13.8 C 11.56 g/m*3 13.8 C 0 km/h
1920 09-07-2014 22:35:00 13.8 C 11.56 g/m*3 13.8 C 0 km/h
1921 09-07-2014 22:40:00 13.8 C 11.56 g/m*3 13.8 C 0 km/h
1922 09-07-2014 22:45:00 13.8 C 11.56 g/m*3 13.8 C 0 km/h
1923 09-07-2014 22:50:00 13.8 C 11.56 g/m*3 13.8 C 0 km/h
1924 09-07-2014 22:55:00 13.8 C 11.56 g/m*3 13.8 C 0 km/h
1925 09-07-2014 23:00:00 13.8 C 11.56 g/m*3 13.8 C 0 km/h
Sensor: Nr:Datum:Temp:Abs-Feuchte:Windchill:Wind:
Aussen-T/F 1926 09-07-2014 23:05:00 13.8 C 11.56 g/m*3 13.8 C 0 km/h
1927 09-07-2014 23:10:00 13.8 C 11.56 g/m*3 13.8 C 0 km/h
1928 09-07-2014 23:15:00 13.8 C 11.56 g/m*3 13.8 C 0 km/h
1929 09-07-2014 23:20:00 13.7 C 11.49 g/m*3 13.7 C 0 km/h
1930 09-07-2014 23:25:00 13.7 C 11.49 g/m*3 13.7 C 0 km/h
1931 09-07-2014 23:30:00 13.7 C 11.49 g/m*3 13.7 C 0 km/h
1932 09-07-2014 23:35:00 13.7 C 11.49 g/m*3 13.7 C 0 km/h
1933 09-07-2014 23:40:00 13.7 C 11.49 g/m*3 13.7 C 0 km/h
1934 09-07-2014 23:45:00 13.7 C 11.49 g/m*3 13.7 C 0 km/h
1935 09-07-2014 23:50:00 13.7 C 11.49 g/m*3 13.7 C 0 km/h
1936 09-07-2014 23:55:00 13.7 C 11.49 g/m*3 13.7 C 0 km/h

Legende:
   Min
   Max


Maximal/Minimal-Werte vom 03.07.2014 - 09.07.2014

Sensor Min Max Avg
Temp
(Aussen-T/F)
9.7 °C
03-07-2014  05:55:00
31.6 °C
06-07-2014  17:25:00
18.95 °C
Abs-Feuchte
(Aussen-T/F)
6.61 g/m*3
03-07-2014  18:35:00
16.23 g/m*3
06-07-2014  10:05:00
11.63 g/m*3
Windchill
(Aussen-T/F)
9.7 C
03-07-2014  05:55:00
31.6 C
06-07-2014  17:25:00
18.94 C

Die Daten stammen von einer Davis Vantage Pro 2 Wetter-Station und werden unter Linux mit der Software wview2wettercgi und aufbereitet. Alle Angaben erfolgen ohne Gewähr für ihre Vollständigkeit oder Richtigkeit.
Kontakt: Rainer Krienke krienke@uni-koblenz.de . Meine Webseiten an der Uni Koblenz oder privat.
Version: $Revision: 0.78 $